<?xml version="1.0" encoding="UTF-8" standalone="no" ?>
<gpx xmlns="http://www.topografix.com/GPX/1/1" xmlns:xsi="http://www.w3.org/2001/XMLSchema-instance" xsi:schemaLocation="http://www.topografix.com/GPX/1/1 http://www.topografix.com/GPX/1/1/gpx.xsd" version="1.1" creator="VisuGPX - https://www.visugpx.com">
  <metadata>
    <name>Marche nordique du 3/11/2012 de 8h à 10h</name>
    <desc><![CDATA[Marche nordique depuis le parking de la combe du pré.]]></desc>
  </metadata>
  <trk>
    <name><![CDATA[03/11/12 07:55]]></name>
    <desc><![CDATA[]]></desc>
    <trkseg>
      <trkpt lat="47.28702" lon="4.96614">
        <ele>464</ele>
        <time>2012-11-03T06:56:35Z</time>
      </trkpt>
      <trkpt lat="47.28705" lon="4.96609">
        <ele>470</ele>
        <time>2012-11-03T06:59:56Z</time>
      </trkpt>
      <trkpt lat="47.28705" lon="4.96609">
        <ele>470</ele>
        <time>2012-11-03T06:59:56Z</time>
      </trkpt>
      <trkpt lat="47.28705" lon="4.96609">
        <ele>470</ele>
        <time>2012-11-03T07:00:01Z</time>
      </trkpt>
      <trkpt lat="47.28709" lon="4.96606">
        <ele>471</ele>
        <time>2012-11-03T07:01:43Z</time>
      </trkpt>
      <trkpt lat="47.28709" lon="4.96606">
        <ele>471</ele>
        <time>2012-11-03T07:01:43Z</time>
      </trkpt>
      <trkpt lat="47.28709" lon="4.96606">
        <ele>470</ele>
        <time>2012-11-03T07:01:52Z</time>
      </trkpt>
      <trkpt lat="47.28714" lon="4.96601">
        <ele>472</ele>
        <time>2012-11-03T07:03:56Z</time>
      </trkpt>
      <trkpt lat="47.28709" lon="4.96603">
        <ele>471</ele>
        <time>2012-11-03T07:04:21Z</time>
      </trkpt>
      <trkpt lat="47.28706" lon="4.96598">
        <ele>478</ele>
        <time>2012-11-03T07:08:40Z</time>
      </trkpt>
      <trkpt lat="47.28709" lon="4.96602">
        <ele>476</ele>
        <time>2012-11-03T07:10:19Z</time>
      </trkpt>
      <trkpt lat="47.28714" lon="4.96602">
        <ele>476</ele>
        <time>2012-11-03T07:10:41Z</time>
      </trkpt>
      <trkpt lat="47.28718" lon="4.96606">
        <ele>475</ele>
        <time>2012-11-03T07:10:48Z</time>
      </trkpt>
      <trkpt lat="47.28718" lon="4.96606">
        <ele>475</ele>
        <time>2012-11-03T07:10:48Z</time>
      </trkpt>
      <trkpt lat="47.28718" lon="4.96606">
        <ele>477</ele>
        <time>2012-11-03T07:10:51Z</time>
      </trkpt>
      <trkpt lat="47.28719" lon="4.96614">
        <ele>480</ele>
        <time>2012-11-03T07:11:01Z</time>
      </trkpt>
      <trkpt lat="47.28721" lon="4.9662">
        <ele>481</ele>
        <time>2012-11-03T07:11:05Z</time>
      </trkpt>
      <trkpt lat="47.2872" lon="4.96627">
        <ele>485</ele>
        <time>2012-11-03T07:11:11Z</time>
      </trkpt>
      <trkpt lat="47.2872" lon="4.96634">
        <ele>484</ele>
        <time>2012-11-03T07:11:14Z</time>
      </trkpt>
      <trkpt lat="47.28718" lon="4.96642">
        <ele>484</ele>
        <time>2012-11-03T07:11:17Z</time>
      </trkpt>
      <trkpt lat="47.28716" lon="4.96649">
        <ele>482</ele>
        <time>2012-11-03T07:11:20Z</time>
      </trkpt>
      <trkpt lat="47.28714" lon="4.96656">
        <ele>482</ele>
        <time>2012-11-03T07:11:24Z</time>
      </trkpt>
      <trkpt lat="47.2871" lon="4.96661">
        <ele>483</ele>
        <time>2012-11-03T07:11:26Z</time>
      </trkpt>
      <trkpt lat="47.28708" lon="4.96668">
        <ele>482</ele>
        <time>2012-11-03T07:11:30Z</time>
      </trkpt>
      <trkpt lat="47.28707" lon="4.96676">
        <ele>481</ele>
        <time>2012-11-03T07:11:35Z</time>
      </trkpt>
      <trkpt lat="47.28705" lon="4.96682">
        <ele>483</ele>
        <time>2012-11-03T07:11:40Z</time>
      </trkpt>
      <trkpt lat="47.28704" lon="4.96689">
        <ele>483</ele>
        <time>2012-11-03T07:11:44Z</time>
      </trkpt>
      <trkpt lat="47.28705" lon="4.96698">
        <ele>484</ele>
        <time>2012-11-03T07:11:48Z</time>
      </trkpt>
      <trkpt lat="47.28702" lon="4.96705">
        <ele>483</ele>
        <time>2012-11-03T07:11:51Z</time>
      </trkpt>
      <trkpt lat="47.287" lon="4.96712">
        <ele>484</ele>
        <time>2012-11-03T07:11:54Z</time>
      </trkpt>
      <trkpt lat="47.28699" lon="4.96721">
        <ele>484</ele>
        <time>2012-11-03T07:11:57Z</time>
      </trkpt>
      <trkpt lat="47.287" lon="4.96731">
        <ele>484</ele>
        <time>2012-11-03T07:12:00Z</time>
      </trkpt>
      <trkpt lat="47.28697" lon="4.96738">
        <ele>483</ele>
        <time>2012-11-03T07:12:03Z</time>
      </trkpt>
      <trkpt lat="47.28698" lon="4.96744">
        <ele>481</ele>
        <time>2012-11-03T07:12:05Z</time>
      </trkpt>
      <trkpt lat="47.28699" lon="4.96752">
        <ele>480</ele>
        <time>2012-11-03T07:12:08Z</time>
      </trkpt>
      <trkpt lat="47.287" lon="4.96758">
        <ele>481</ele>
        <time>2012-11-03T07:12:11Z</time>
      </trkpt>
      <trkpt lat="47.28699" lon="4.96766">
        <ele>481</ele>
        <time>2012-11-03T07:12:15Z</time>
      </trkpt>
      <trkpt lat="47.28696" lon="4.96771">
        <ele>480</ele>
        <time>2012-11-03T07:12:18Z</time>
      </trkpt>
      <trkpt lat="47.28693" lon="4.96777">
        <ele>479</ele>
        <time>2012-11-03T07:12:22Z</time>
      </trkpt>
      <trkpt lat="47.28691" lon="4.96784">
        <ele>480</ele>
        <time>2012-11-03T07:12:26Z</time>
      </trkpt>
      <trkpt lat="47.28688" lon="4.96791">
        <ele>479</ele>
        <time>2012-11-03T07:12:29Z</time>
      </trkpt>
      <trkpt lat="47.28684" lon="4.96796">
        <ele>481</ele>
        <time>2012-11-03T07:12:33Z</time>
      </trkpt>
      <trkpt lat="47.28679" lon="4.96799">
        <ele>481</ele>
        <time>2012-11-03T07:12:36Z</time>
      </trkpt>
      <trkpt lat="47.28675" lon="4.96806">
        <ele>482</ele>
        <time>2012-11-03T07:12:40Z</time>
      </trkpt>
      <trkpt lat="47.28674" lon="4.96814">
        <ele>483</ele>
        <time>2012-11-03T07:12:45Z</time>
      </trkpt>
      <trkpt lat="47.28672" lon="4.9682">
        <ele>483</ele>
        <time>2012-11-03T07:12:48Z</time>
      </trkpt>
      <trkpt lat="47.28666" lon="4.96827">
        <ele>480</ele>
        <time>2012-11-03T07:12:51Z</time>
      </trkpt>
      <trkpt lat="47.28664" lon="4.96833">
        <ele>479</ele>
        <time>2012-11-03T07:12:54Z</time>
      </trkpt>
      <trkpt lat="47.28663" lon="4.9684">
        <ele>477</ele>
        <time>2012-11-03T07:12:57Z</time>
      </trkpt>
      <trkpt lat="47.2866" lon="4.96846">
        <ele>477</ele>
        <time>2012-11-03T07:13:01Z</time>
      </trkpt>
      <trkpt lat="47.28658" lon="4.96852">
        <ele>477</ele>
        <time>2012-11-03T07:13:04Z</time>
      </trkpt>
      <trkpt lat="47.28657" lon="4.96859">
        <ele>476</ele>
        <time>2012-11-03T07:13:07Z</time>
      </trkpt>
      <trkpt lat="47.28657" lon="4.96866">
        <ele>476</ele>
        <time>2012-11-03T07:13:10Z</time>
      </trkpt>
      <trkpt lat="47.28655" lon="4.96874">
        <ele>475</ele>
        <time>2012-11-03T07:13:13Z</time>
      </trkpt>
      <trkpt lat="47.28653" lon="4.9688">
        <ele>476</ele>
        <time>2012-11-03T07:13:16Z</time>
      </trkpt>
      <trkpt lat="47.28651" lon="4.96888">
        <ele>476</ele>
        <time>2012-11-03T07:13:20Z</time>
      </trkpt>
      <trkpt lat="47.28651" lon="4.96895">
        <ele>475</ele>
        <time>2012-11-03T07:13:23Z</time>
      </trkpt>
      <trkpt lat="47.28652" lon="4.96904">
        <ele>477</ele>
        <time>2012-11-03T07:13:27Z</time>
      </trkpt>
      <trkpt lat="47.28653" lon="4.96911">
        <ele>477</ele>
        <time>2012-11-03T07:13:30Z</time>
      </trkpt>
      <trkpt lat="47.28651" lon="4.9692">
        <ele>477</ele>
        <time>2012-11-03T07:13:33Z</time>
      </trkpt>
      <trkpt lat="47.28649" lon="4.96927">
        <ele>475</ele>
        <time>2012-11-03T07:13:37Z</time>
      </trkpt>
      <trkpt lat="47.2865" lon="4.96934">
        <ele>475</ele>
        <time>2012-11-03T07:13:40Z</time>
      </trkpt>
      <trkpt lat="47.28649" lon="4.96941">
        <ele>474</ele>
        <time>2012-11-03T07:13:45Z</time>
      </trkpt>
      <trkpt lat="47.28648" lon="4.96949">
        <ele>473</ele>
        <time>2012-11-03T07:13:49Z</time>
      </trkpt>
      <trkpt lat="47.28649" lon="4.96956">
        <ele>474</ele>
        <time>2012-11-03T07:13:52Z</time>
      </trkpt>
      <trkpt lat="47.2865" lon="4.96963">
        <ele>475</ele>
        <time>2012-11-03T07:13:55Z</time>
      </trkpt>
      <trkpt lat="47.28648" lon="4.96971">
        <ele>474</ele>
        <time>2012-11-03T07:13:58Z</time>
      </trkpt>
      <trkpt lat="47.28647" lon="4.96979">
        <ele>472</ele>
        <time>2012-11-03T07:14:01Z</time>
      </trkpt>
      <trkpt lat="47.28648" lon="4.96987">
        <ele>471</ele>
        <time>2012-11-03T07:14:05Z</time>
      </trkpt>
      <trkpt lat="47.28646" lon="4.96995">
        <ele>470</ele>
        <time>2012-11-03T07:14:09Z</time>
      </trkpt>
      <trkpt lat="47.28644" lon="4.97003">
        <ele>470</ele>
        <time>2012-11-03T07:14:13Z</time>
      </trkpt>
      <trkpt lat="47.28646" lon="4.9701">
        <ele>470</ele>
        <time>2012-11-03T07:14:18Z</time>
      </trkpt>
      <trkpt lat="47.28645" lon="4.97018">
        <ele>469</ele>
        <time>2012-11-03T07:14:22Z</time>
      </trkpt>
      <trkpt lat="47.28646" lon="4.97026">
        <ele>468</ele>
        <time>2012-11-03T07:14:25Z</time>
      </trkpt>
      <trkpt lat="47.28649" lon="4.97033">
        <ele>469</ele>
        <time>2012-11-03T07:14:28Z</time>
      </trkpt>
      <trkpt lat="47.28652" lon="4.9704">
        <ele>471</ele>
        <time>2012-11-03T07:14:31Z</time>
      </trkpt>
      <trkpt lat="47.28649" lon="4.97046">
        <ele>471</ele>
        <time>2012-11-03T07:14:35Z</time>
      </trkpt>
      <trkpt lat="47.28648" lon="4.97056">
        <ele>469</ele>
        <time>2012-11-03T07:14:39Z</time>
      </trkpt>
      <trkpt lat="47.2865" lon="4.97065">
        <ele>469</ele>
        <time>2012-11-03T07:14:42Z</time>
      </trkpt>
      <trkpt lat="47.28651" lon="4.97073">
        <ele>469</ele>
        <time>2012-11-03T07:14:45Z</time>
      </trkpt>
      <trkpt lat="47.28652" lon="4.97081">
        <ele>468</ele>
        <time>2012-11-03T07:14:49Z</time>
      </trkpt>
      <trkpt lat="47.28651" lon="4.97088">
        <ele>468</ele>
        <time>2012-11-03T07:14:52Z</time>
      </trkpt>
      <trkpt lat="47.28654" lon="4.97096">
        <ele>467</ele>
        <time>2012-11-03T07:14:55Z</time>
      </trkpt>
      <trkpt lat="47.28655" lon="4.97106">
        <ele>468</ele>
        <time>2012-11-03T07:14:59Z</time>
      </trkpt>
      <trkpt lat="47.28656" lon="4.97113">
        <ele>467</ele>
        <time>2012-11-03T07:15:02Z</time>
      </trkpt>
      <trkpt lat="47.28654" lon="4.9712">
        <ele>466</ele>
        <time>2012-11-03T07:15:05Z</time>
      </trkpt>
      <trkpt lat="47.28654" lon="4.97129">
        <ele>466</ele>
        <time>2012-11-03T07:15:09Z</time>
      </trkpt>
      <trkpt lat="47.28654" lon="4.97138">
        <ele>465</ele>
        <time>2012-11-03T07:15:12Z</time>
      </trkpt>
      <trkpt lat="47.2865" lon="4.97142">
        <ele>465</ele>
        <time>2012-11-03T07:15:15Z</time>
      </trkpt>
      <trkpt lat="47.28648" lon="4.97148">
        <ele>465</ele>
        <time>2012-11-03T07:15:19Z</time>
      </trkpt>
      <trkpt lat="47.28645" lon="4.97155">
        <ele>466</ele>
        <time>2012-11-03T07:15:23Z</time>
      </trkpt>
      <trkpt lat="47.28644" lon="4.97161">
        <ele>467</ele>
        <time>2012-11-03T07:15:26Z</time>
      </trkpt>
      <trkpt lat="47.28642" lon="4.9717">
        <ele>468</ele>
        <time>2012-11-03T07:15:29Z</time>
      </trkpt>
      <trkpt lat="47.28644" lon="4.97177">
        <ele>468</ele>
        <time>2012-11-03T07:15:32Z</time>
      </trkpt>
      <trkpt lat="47.28643" lon="4.97184">
        <ele>468</ele>
        <time>2012-11-03T07:15:35Z</time>
      </trkpt>
      <trkpt lat="47.2864" lon="4.97192">
        <ele>469</ele>
        <time>2012-11-03T07:15:39Z</time>
      </trkpt>
      <trkpt lat="47.28638" lon="4.97199">
        <ele>468</ele>
        <time>2012-11-03T07:15:42Z</time>
      </trkpt>
      <trkpt lat="47.2864" lon="4.97206">
        <ele>468</ele>
        <time>2012-11-03T07:15:45Z</time>
      </trkpt>
      <trkpt lat="47.28638" lon="4.97214">
        <ele>467</ele>
        <time>2012-11-03T07:15:50Z</time>
      </trkpt>
      <trkpt lat="47.28637" lon="4.97222">
        <ele>467</ele>
        <time>2012-11-03T07:15:54Z</time>
      </trkpt>
      <trkpt lat="47.28635" lon="4.9723">
        <ele>465</ele>
        <time>2012-11-03T07:15:57Z</time>
      </trkpt>
      <trkpt lat="47.28635" lon="4.9724">
        <ele>464</ele>
        <time>2012-11-03T07:16:01Z</time>
      </trkpt>
      <trkpt lat="47.28634" lon="4.97248">
        <ele>465</ele>
        <time>2012-11-03T07:16:04Z</time>
      </trkpt>
      <trkpt lat="47.28632" lon="4.97255">
        <ele>464</ele>
        <time>2012-11-03T07:16:07Z</time>
      </trkpt>
      <trkpt lat="47.28631" lon="4.97262">
        <ele>464</ele>
        <time>2012-11-03T07:16:11Z</time>
      </trkpt>
      <trkpt lat="47.2863" lon="4.97271">
        <ele>463</ele>
        <time>2012-11-03T07:16:16Z</time>
      </trkpt>
      <trkpt lat="47.2863" lon="4.9728">
        <ele>463</ele>
        <time>2012-11-03T07:16:21Z</time>
      </trkpt>
      <trkpt lat="47.28631" lon="4.97288">
        <ele>464</ele>
        <time>2012-11-03T07:16:25Z</time>
      </trkpt>
      <trkpt lat="47.28631" lon="4.97295">
        <ele>463</ele>
        <time>2012-11-03T07:16:29Z</time>
      </trkpt>
      <trkpt lat="47.28632" lon="4.97303">
        <ele>462</ele>
        <time>2012-11-03T07:16:32Z</time>
      </trkpt>
      <trkpt lat="47.28633" lon="4.97311">
        <ele>461</ele>
        <time>2012-11-03T07:16:35Z</time>
      </trkpt>
      <trkpt lat="47.28634" lon="4.97317">
        <ele>461</ele>
        <time>2012-11-03T07:16:38Z</time>
      </trkpt>
      <trkpt lat="47.28634" lon="4.97324">
        <ele>461</ele>
        <time>2012-11-03T07:16:42Z</time>
      </trkpt>
      <trkpt lat="47.28635" lon="4.97331">
        <ele>461</ele>
        <time>2012-11-03T07:16:44Z</time>
      </trkpt>
      <trkpt lat="47.28637" lon="4.97337">
        <ele>462</ele>
        <time>2012-11-03T07:16:48Z</time>
      </trkpt>
      <trkpt lat="47.28638" lon="4.97345">
        <ele>462</ele>
        <time>2012-11-03T07:16:52Z</time>
      </trkpt>
      <trkpt lat="47.28641" lon="4.97353">
        <ele>461</ele>
        <time>2012-11-03T07:16:55Z</time>
      </trkpt>
      <trkpt lat="47.28639" lon="4.9736">
        <ele>461</ele>
        <time>2012-11-03T07:16:57Z</time>
      </trkpt>
      <trkpt lat="47.28638" lon="4.97367">
        <ele>459</ele>
        <time>2012-11-03T07:17:00Z</time>
      </trkpt>
      <trkpt lat="47.2864" lon="4.97374">
        <ele>462</ele>
        <time>2012-11-03T07:17:07Z</time>
      </trkpt>
      <trkpt lat="47.2864" lon="4.97381">
        <ele>461</ele>
        <time>2012-11-03T07:17:10Z</time>
      </trkpt>
      <trkpt lat="47.28643" lon="4.97387">
        <ele>459</ele>
        <time>2012-11-03T07:17:12Z</time>
      </trkpt>
      <trkpt lat="47.28645" lon="4.97394">
        <ele>459</ele>
        <time>2012-11-03T07:17:14Z</time>
      </trkpt>
      <trkpt lat="47.28645" lon="4.97401">
        <ele>458</ele>
        <time>2012-11-03T07:17:17Z</time>
      </trkpt>
      <trkpt lat="47.28643" lon="4.97406">
        <ele>458</ele>
        <time>2012-11-03T07:17:20Z</time>
      </trkpt>
      <trkpt lat="47.28645" lon="4.97413">
        <ele>456</ele>
        <time>2012-11-03T07:17:22Z</time>
      </trkpt>
      <trkpt lat="47.28646" lon="4.9742">
        <ele>456</ele>
        <time>2012-11-03T07:17:25Z</time>
      </trkpt>
      <trkpt lat="47.28643" lon="4.97427">
        <ele>456</ele>
        <time>2012-11-03T07:17:28Z</time>
      </trkpt>
      <trkpt lat="47.28643" lon="4.97436">
        <ele>457</ele>
        <time>2012-11-03T07:17:32Z</time>
      </trkpt>
      <trkpt lat="47.28641" lon="4.97442">
        <ele>459</ele>
        <time>2012-11-03T07:17:36Z</time>
      </trkpt>
      <trkpt lat="47.28639" lon="4.97448">
        <ele>459</ele>
        <time>2012-11-03T07:17:40Z</time>
      </trkpt>
      <trkpt lat="47.28637" lon="4.97455">
        <ele>457</ele>
        <time>2012-11-03T07:17:43Z</time>
      </trkpt>
      <trkpt lat="47.28636" lon="4.97462">
        <ele>457</ele>
        <time>2012-11-03T07:17:46Z</time>
      </trkpt>
      <trkpt lat="47.28634" lon="4.97468">
        <ele>457</ele>
        <time>2012-11-03T07:17:49Z</time>
      </trkpt>
      <trkpt lat="47.28632" lon="4.97476">
        <ele>458</ele>
        <time>2012-11-03T07:17:53Z</time>
      </trkpt>
      <trkpt lat="47.28631" lon="4.97483">
        <ele>458</ele>
        <time>2012-11-03T07:17:57Z</time>
      </trkpt>
      <trkpt lat="47.28628" lon="4.97488">
        <ele>458</ele>
        <time>2012-11-03T07:18:00Z</time>
      </trkpt>
      <trkpt lat="47.28624" lon="4.97493">
        <ele>457</ele>
        <time>2012-11-03T07:18:03Z</time>
      </trkpt>
      <trkpt lat="47.28623" lon="4.975">
        <ele>456</ele>
        <time>2012-11-03T07:18:06Z</time>
      </trkpt>
      <trkpt lat="47.2862" lon="4.97508">
        <ele>455</ele>
        <time>2012-11-03T07:18:10Z</time>
      </trkpt>
      <trkpt lat="47.28618" lon="4.97515">
        <ele>454</ele>
        <time>2012-11-03T07:18:15Z</time>
      </trkpt>
      <trkpt lat="47.28615" lon="4.97521">
        <ele>453</ele>
        <time>2012-11-03T07:18:20Z</time>
      </trkpt>
      <trkpt lat="47.28613" lon="4.97528">
        <ele>453</ele>
        <time>2012-11-03T07:18:24Z</time>
      </trkpt>
      <trkpt lat="47.28611" lon="4.97534">
        <ele>452</ele>
        <time>2012-11-03T07:18:28Z</time>
      </trkpt>
      <trkpt lat="47.28606" lon="4.9754">
        <ele>451</ele>
        <time>2012-11-03T07:18:33Z</time>
      </trkpt>
      <trkpt lat="47.28606" lon="4.97549">
        <ele>451</ele>
        <time>2012-11-03T07:18:37Z</time>
      </trkpt>
      <trkpt lat="47.28603" lon="4.97554">
        <ele>449</ele>
        <time>2012-11-03T07:18:39Z</time>
      </trkpt>
      <trkpt lat="47.286" lon="4.97562">
        <ele>448</ele>
        <time>2012-11-03T07:18:43Z</time>
      </trkpt>
      <trkpt lat="47.28601" lon="4.97568">
        <ele>449</ele>
        <time>2012-11-03T07:18:46Z</time>
      </trkpt>
      <trkpt lat="47.28597" lon="4.97571">
        <ele>449</ele>
        <time>2012-11-03T07:18:47Z</time>
      </trkpt>
      <trkpt lat="47.28593" lon="4.97576">
        <ele>450</ele>
        <time>2012-11-03T07:18:50Z</time>
      </trkpt>
      <trkpt lat="47.2859" lon="4.97582">
        <ele>452</ele>
        <time>2012-11-03T07:18:55Z</time>
      </trkpt>
      <trkpt lat="47.28589" lon="4.9759">
        <ele>451</ele>
        <time>2012-11-03T07:18:59Z</time>
      </trkpt>
      <trkpt lat="47.28588" lon="4.97598">
        <ele>452</ele>
        <time>2012-11-03T07:19:03Z</time>
      </trkpt>
      <trkpt lat="47.28584" lon="4.97604">
        <ele>451</ele>
        <time>2012-11-03T07:19:09Z</time>
      </trkpt>
      <trkpt lat="47.2858" lon="4.97609">
        <ele>452</ele>
        <time>2012-11-03T07:19:12Z</time>
      </trkpt>
      <trkpt lat="47.28578" lon="4.97617">
        <ele>451</ele>
        <time>2012-11-03T07:19:17Z</time>
      </trkpt>
      <trkpt lat="47.28575" lon="4.97622">
        <ele>450</ele>
        <time>2012-11-03T07:19:21Z</time>
      </trkpt>
      <trkpt lat="47.2857" lon="4.97627">
        <ele>448</ele>
        <time>2012-11-03T07:19:24Z</time>
      </trkpt>
      <trkpt lat="47.28566" lon="4.97633">
        <ele>446</ele>
        <time>2012-11-03T07:19:27Z</time>
      </trkpt>
      <trkpt lat="47.28564" lon="4.9764">
        <ele>445</ele>
        <time>2012-11-03T07:19:30Z</time>
      </trkpt>
      <trkpt lat="47.2856" lon="4.97646">
        <ele>444</ele>
        <time>2012-11-03T07:19:34Z</time>
      </trkpt>
      <trkpt lat="47.28556" lon="4.97653">
        <ele>444</ele>
        <time>2012-11-03T07:19:37Z</time>
      </trkpt>
      <trkpt lat="47.28552" lon="4.97657">
        <ele>444</ele>
        <time>2012-11-03T07:19:42Z</time>
      </trkpt>
      <trkpt lat="47.28547" lon="4.97661">
        <ele>442</ele>
        <time>2012-11-03T07:19:45Z</time>
      </trkpt>
      <trkpt lat="47.28541" lon="4.97664">
        <ele>440</ele>
        <time>2012-11-03T07:19:48Z</time>
      </trkpt>
      <trkpt lat="47.28536" lon="4.97669">
        <ele>439</ele>
        <time>2012-11-03T07:19:51Z</time>
      </trkpt>
      <trkpt lat="47.28532" lon="4.97674">
        <ele>438</ele>
        <time>2012-11-03T07:19:55Z</time>
      </trkpt>
      <trkpt lat="47.28527" lon="4.97676">
        <ele>437</ele>
        <time>2012-11-03T07:19:58Z</time>
      </trkpt>
      <trkpt lat="47.28522" lon="4.97677">
        <ele>437</ele>
        <time>2012-11-03T07:20:02Z</time>
      </trkpt>
      <trkpt lat="47.28516" lon="4.9768">
        <ele>437</ele>
        <time>2012-11-03T07:20:06Z</time>
      </trkpt>
      <trkpt lat="47.28511" lon="4.97683">
        <ele>435</ele>
        <time>2012-11-03T07:20:09Z</time>
      </trkpt>
      <trkpt lat="47.28508" lon="4.97688">
        <ele>434</ele>
        <time>2012-11-03T07:20:12Z</time>
      </trkpt>
      <trkpt lat="47.28504" lon="4.97694">
        <ele>433</ele>
        <time>2012-11-03T07:20:16Z</time>
      </trkpt>
      <trkpt lat="47.285" lon="4.97698">
        <ele>433</ele>
        <time>2012-11-03T07:20:20Z</time>
      </trkpt>
      <trkpt lat="47.28497" lon="4.97704">
        <ele>434</ele>
        <time>2012-11-03T07:20:25Z</time>
      </trkpt>
      <trkpt lat="47.28492" lon="4.9771">
        <ele>432</ele>
        <time>2012-11-03T07:20:30Z</time>
      </trkpt>
      <trkpt lat="47.28489" lon="4.97715">
        <ele>431</ele>
        <time>2012-11-03T07:20:34Z</time>
      </trkpt>
      <trkpt lat="47.28486" lon="4.97722">
        <ele>430</ele>
        <time>2012-11-03T07:20:38Z</time>
      </trkpt>
      <trkpt lat="47.28482" lon="4.97728">
        <ele>429</ele>
        <time>2012-11-03T07:20:42Z</time>
      </trkpt>
      <trkpt lat="47.28478" lon="4.97733">
        <ele>428</ele>
        <time>2012-11-03T07:20:46Z</time>
      </trkpt>
      <trkpt lat="47.28472" lon="4.97736">
        <ele>426</ele>
        <time>2012-11-03T07:20:49Z</time>
      </trkpt>
      <trkpt lat="47.28468" lon="4.9774">
        <ele>425</ele>
        <time>2012-11-03T07:20:52Z</time>
      </trkpt>
      <trkpt lat="47.28466" lon="4.97746">
        <ele>425</ele>
        <time>2012-11-03T07:20:57Z</time>
      </trkpt>
      <trkpt lat="47.28461" lon="4.97753">
        <ele>422</ele>
        <time>2012-11-03T07:21:01Z</time>
      </trkpt>
      <trkpt lat="47.28459" lon="4.9776">
        <ele>422</ele>
        <time>2012-11-03T07:21:06Z</time>
      </trkpt>
      <trkpt lat="47.28456" lon="4.97767">
        <ele>421</ele>
        <time>2012-11-03T07:21:11Z</time>
      </trkpt>
      <trkpt lat="47.28451" lon="4.97771">
        <ele>421</ele>
        <time>2012-11-03T07:21:15Z</time>
      </trkpt>
      <trkpt lat="47.28448" lon="4.97777">
        <ele>421</ele>
        <time>2012-11-03T07:21:20Z</time>
      </trkpt>
      <trkpt lat="47.28444" lon="4.97782">
        <ele>422</ele>
        <time>2012-11-03T07:21:25Z</time>
      </trkpt>
      <trkpt lat="47.28441" lon="4.97787">
        <ele>420</ele>
        <time>2012-11-03T07:21:29Z</time>
      </trkpt>
      <trkpt lat="47.28436" lon="4.97791">
        <ele>418</ele>
        <time>2012-11-03T07:21:32Z</time>
      </trkpt>
      <trkpt lat="47.2843" lon="4.97794">
        <ele>416</ele>
        <time>2012-11-03T07:21:35Z</time>
      </trkpt>
      <trkpt lat="47.28426" lon="4.97796">
        <ele>416</ele>
        <time>2012-11-03T07:21:39Z</time>
      </trkpt>
      <trkpt lat="47.28426" lon="4.97796">
        <ele>416</ele>
        <time>2012-11-03T07:21:39Z</time>
      </trkpt>
      <trkpt lat="47.28426" lon="4.97796">
        <ele>416</ele>
        <time>2012-11-03T07:21:40Z</time>
      </trkpt>
      <trkpt lat="47.28421" lon="4.97799">
        <ele>414</ele>
        <time>2012-11-03T07:21:44Z</time>
      </trkpt>
      <trkpt lat="47.28416" lon="4.97804">
        <ele>414</ele>
        <time>2012-11-03T07:21:48Z</time>
      </trkpt>
      <trkpt lat="47.28412" lon="4.97807">
        <ele>413</ele>
        <time>2012-11-03T07:21:51Z</time>
      </trkpt>
      <trkpt lat="47.28412" lon="4.97817">
        <ele>413</ele>
        <time>2012-11-03T07:22:06Z</time>
      </trkpt>
      <trkpt lat="47.28412" lon="4.97825">
        <ele>412</ele>
        <time>2012-11-03T07:22:09Z</time>
      </trkpt>
      <trkpt lat="47.28412" lon="4.97833">
        <ele>414</ele>
        <time>2012-11-03T07:22:13Z</time>
      </trkpt>
      <trkpt lat="47.28412" lon="4.97842">
        <ele>414</ele>
        <time>2012-11-03T07:22:17Z</time>
      </trkpt>
      <trkpt lat="47.28414" lon="4.97848">
        <ele>415</ele>
        <time>2012-11-03T07:22:21Z</time>
      </trkpt>
      <trkpt lat="47.28417" lon="4.97853">
        <ele>415</ele>
        <time>2012-11-03T07:22:26Z</time>
      </trkpt>
      <trkpt lat="47.2842" lon="4.97861">
        <ele>414</ele>
        <time>2012-11-03T07:22:31Z</time>
      </trkpt>
      <trkpt lat="47.28422" lon="4.97868">
        <ele>412</ele>
        <time>2012-11-03T07:22:34Z</time>
      </trkpt>
      <trkpt lat="47.28424" lon="4.97874">
        <ele>412</ele>
        <time>2012-11-03T07:22:36Z</time>
      </trkpt>
      <trkpt lat="47.28428" lon="4.97876">
        <ele>411</ele>
        <time>2012-11-03T07:22:41Z</time>
      </trkpt>
      <trkpt lat="47.28433" lon="4.97878">
        <ele>407</ele>
        <time>2012-11-03T07:22:45Z</time>
      </trkpt>
      <trkpt lat="47.28438" lon="4.97883">
        <ele>407</ele>
        <time>2012-11-03T07:22:50Z</time>
      </trkpt>
      <trkpt lat="47.28442" lon="4.97886">
        <ele>406</ele>
        <time>2012-11-03T07:22:55Z</time>
      </trkpt>
      <trkpt lat="47.28446" lon="4.97891">
        <ele>405</ele>
        <time>2012-11-03T07:23:02Z</time>
      </trkpt>
      <trkpt lat="47.2845" lon="4.97897">
        <ele>404</ele>
        <time>2012-11-03T07:23:09Z</time>
      </trkpt>
      <trkpt lat="47.2845" lon="4.97897">
        <ele>404</ele>
        <time>2012-11-03T07:23:09Z</time>
      </trkpt>
      <trkpt lat="47.2845" lon="4.97897">
        <ele>403</ele>
        <time>2012-11-03T07:23:11Z</time>
      </trkpt>
      <trkpt lat="47.28451" lon="4.97903">
        <ele>403</ele>
        <time>2012-11-03T07:24:12Z</time>
      </trkpt>
      <trkpt lat="47.28451" lon="4.97903">
        <ele>403</ele>
        <time>2012-11-03T07:24:12Z</time>
      </trkpt>
      <trkpt lat="47.28451" lon="4.97903">
        <ele>402</ele>
        <time>2012-11-03T07:24:19Z</time>
      </trkpt>
      <trkpt lat="47.2845" lon="4.97896">
        <ele>406</ele>
        <time>2012-11-03T07:24:37Z</time>
      </trkpt>
      <trkpt lat="47.28452" lon="4.9789">
        <ele>407</ele>
        <time>2012-11-03T07:24:40Z</time>
      </trkpt>
      <trkpt lat="47.28453" lon="4.97882">
        <ele>407</ele>
        <time>2012-11-03T07:24:45Z</time>
      </trkpt>
      <trkpt lat="47.28456" lon="4.97875">
        <ele>408</ele>
        <time>2012-11-03T07:24:49Z</time>
      </trkpt>
      <trkpt lat="47.28458" lon="4.97869">
        <ele>409</ele>
        <time>2012-11-03T07:24:53Z</time>
      </trkpt>
      <trkpt lat="47.2846" lon="4.97862">
        <ele>410</ele>
        <time>2012-11-03T07:24:58Z</time>
      </trkpt>
      <trkpt lat="47.28464" lon="4.97855">
        <ele>408</ele>
        <time>2012-11-03T07:25:02Z</time>
      </trkpt>
      <trkpt lat="47.28465" lon="4.97848">
        <ele>409</ele>
        <time>2012-11-03T07:25:06Z</time>
      </trkpt>
      <trkpt lat="47.28468" lon="4.97843">
        <ele>410</ele>
        <time>2012-11-03T07:25:10Z</time>
      </trkpt>
      <trkpt lat="47.28471" lon="4.97837">
        <ele>411</ele>
        <time>2012-11-03T07:25:13Z</time>
      </trkpt>
      <trkpt lat="47.28473" lon="4.9783">
        <ele>416</ele>
        <time>2012-11-03T07:25:19Z</time>
      </trkpt>
      <trkpt lat="47.28476" lon="4.97823">
        <ele>417</ele>
        <time>2012-11-03T07:25:23Z</time>
      </trkpt>
      <trkpt lat="47.28479" lon="4.97816">
        <ele>423</ele>
        <time>2012-11-03T07:25:29Z</time>
      </trkpt>
      <trkpt lat="47.28481" lon="4.97809">
        <ele>425</ele>
        <time>2012-11-03T07:25:34Z</time>
      </trkpt>
      <trkpt lat="47.28483" lon="4.97803">
        <ele>424</ele>
        <time>2012-11-03T07:25:38Z</time>
      </trkpt>
      <trkpt lat="47.28487" lon="4.97797">
        <ele>426</ele>
        <time>2012-11-03T07:25:41Z</time>
      </trkpt>
      <trkpt lat="47.28489" lon="4.97791">
        <ele>426</ele>
        <time>2012-11-03T07:25:45Z</time>
      </trkpt>
      <trkpt lat="47.2849" lon="4.97784">
        <ele>427</ele>
        <time>2012-11-03T07:25:49Z</time>
      </trkpt>
      <trkpt lat="47.28492" lon="4.97776">
        <ele>429</ele>
        <time>2012-11-03T07:25:53Z</time>
      </trkpt>
      <trkpt lat="47.28496" lon="4.97767">
        <ele>429</ele>
        <time>2012-11-03T07:25:56Z</time>
      </trkpt>
      <trkpt lat="47.28499" lon="4.9776">
        <ele>429</ele>
        <time>2012-11-03T07:25:59Z</time>
      </trkpt>
      <trkpt lat="47.28503" lon="4.97755">
        <ele>428</ele>
        <time>2012-11-03T07:26:02Z</time>
      </trkpt>
      <trkpt lat="47.28506" lon="4.97749">
        <ele>427</ele>
        <time>2012-11-03T07:26:05Z</time>
      </trkpt>
      <trkpt lat="47.2851" lon="4.97744">
        <ele>427</ele>
        <time>2012-11-03T07:26:08Z</time>
      </trkpt>
      <trkpt lat="47.28514" lon="4.97739">
        <ele>427</ele>
        <time>2012-11-03T07:26:12Z</time>
      </trkpt>
      <trkpt lat="47.28517" lon="4.97733">
        <ele>427</ele>
        <time>2012-11-03T07:26:15Z</time>
      </trkpt>
      <trkpt lat="47.28519" lon="4.97727">
        <ele>426</ele>
        <time>2012-11-03T07:26:21Z</time>
      </trkpt>
      <trkpt lat="47.28522" lon="4.97719">
        <ele>426</ele>
        <time>2012-11-03T07:26:24Z</time>
      </trkpt>
      <trkpt lat="47.28525" lon="4.97711">
        <ele>425</ele>
        <time>2012-11-03T07:26:27Z</time>
      </trkpt>
      <trkpt lat="47.28527" lon="4.97705">
        <ele>426</ele>
        <time>2012-11-03T07:26:30Z</time>
      </trkpt>
      <trkpt lat="47.28531" lon="4.977">
        <ele>426</ele>
        <time>2012-11-03T07:26:33Z</time>
      </trkpt>
      <trkpt lat="47.28533" lon="4.97692">
        <ele>427</ele>
        <time>2012-11-03T07:26:37Z</time>
      </trkpt>
      <trkpt lat="47.28533" lon="4.97692">
        <ele>427</ele>
        <time>2012-11-03T07:26:37Z</time>
      </trkpt>
      <trkpt lat="47.28533" lon="4.97692">
        <ele>427</ele>
        <time>2012-11-03T07:26:38Z</time>
      </trkpt>
      <trkpt lat="47.28537" lon="4.97684">
        <ele>426</ele>
        <time>2012-11-03T07:26:41Z</time>
      </trkpt>
      <trkpt lat="47.2854" lon="4.97677">
        <ele>427</ele>
        <time>2012-11-03T07:26:44Z</time>
      </trkpt>
      <trkpt lat="47.28541" lon="4.9767">
        <ele>427</ele>
        <time>2012-11-03T07:26:47Z</time>
      </trkpt>
      <trkpt lat="47.28542" lon="4.97662">
        <ele>430</ele>
        <time>2012-11-03T07:26:51Z</time>
      </trkpt>
      <trkpt lat="47.28544" lon="4.97653">
        <ele>432</ele>
        <time>2012-11-03T07:26:56Z</time>
      </trkpt>
      <trkpt lat="47.28547" lon="4.97646">
        <ele>432</ele>
        <time>2012-11-03T07:26:59Z</time>
      </trkpt>
      <trkpt lat="47.28551" lon="4.97642">
        <ele>432</ele>
        <time>2012-11-03T07:27:02Z</time>
      </trkpt>
      <trkpt lat="47.28555" lon="4.97638">
        <ele>434</ele>
        <time>2012-11-03T07:27:09Z</time>
      </trkpt>
      <trkpt lat="47.28559" lon="4.97633">
        <ele>436</ele>
        <time>2012-11-03T07:27:13Z</time>
      </trkpt>
      <trkpt lat="47.28563" lon="4.97627">
        <ele>435</ele>
        <time>2012-11-03T07:27:18Z</time>
      </trkpt>
      <trkpt lat="47.28566" lon="4.97622">
        <ele>436</ele>
        <time>2012-11-03T07:27:21Z</time>
      </trkpt>
      <trkpt lat="47.28568" lon="4.97614">
        <ele>438</ele>
        <time>2012-11-03T07:27:25Z</time>
      </trkpt>
      <trkpt lat="47.2857" lon="4.97608">
        <ele>439</ele>
        <time>2012-11-03T07:27:30Z</time>
      </trkpt>
      <trkpt lat="47.28572" lon="4.97602">
        <ele>439</ele>
        <time>2012-11-03T07:27:34Z</time>
      </trkpt>
      <trkpt lat="47.28575" lon="4.97594">
        <ele>441</ele>
        <time>2012-11-03T07:27:38Z</time>
      </trkpt>
      <trkpt lat="47.28578" lon="4.97588">
        <ele>444</ele>
        <time>2012-11-03T07:27:41Z</time>
      </trkpt>
      <trkpt lat="47.28581" lon="4.9758">
        <ele>445</ele>
        <time>2012-11-03T07:27:46Z</time>
      </trkpt>
      <trkpt lat="47.28584" lon="4.97572">
        <ele>445</ele>
        <time>2012-11-03T07:27:50Z</time>
      </trkpt>
      <trkpt lat="47.28588" lon="4.97565">
        <ele>444</ele>
        <time>2012-11-03T07:27:53Z</time>
      </trkpt>
      <trkpt lat="47.28591" lon="4.9756">
        <ele>443</ele>
        <time>2012-11-03T07:27:56Z</time>
      </trkpt>
      <trkpt lat="47.28593" lon="4.97552">
        <ele>444</ele>
        <time>2012-11-03T07:27:59Z</time>
      </trkpt>
      <trkpt lat="47.28596" lon="4.97545">
        <ele>444</ele>
        <time>2012-11-03T07:28:02Z</time>
      </trkpt>
      <trkpt lat="47.28598" lon="4.97536">
        <ele>445</ele>
        <time>2012-11-03T07:28:05Z</time>
      </trkpt>
      <trkpt lat="47.28602" lon="4.97529">
        <ele>447</ele>
        <time>2012-11-03T07:28:08Z</time>
      </trkpt>
      <trkpt lat="47.28605" lon="4.97522">
        <ele>449</ele>
        <time>2012-11-03T07:28:11Z</time>
      </trkpt>
      <trkpt lat="47.28607" lon="4.97516">
        <ele>451</ele>
        <time>2012-11-03T07:28:14Z</time>
      </trkpt>
      <trkpt lat="47.2861" lon="4.9751">
        <ele>451</ele>
        <time>2012-11-03T07:28:17Z</time>
      </trkpt>
      <trkpt lat="47.28613" lon="4.97501">
        <ele>452</ele>
        <time>2012-11-03T07:28:20Z</time>
      </trkpt>
      <trkpt lat="47.28617" lon="4.97495">
        <ele>452</ele>
        <time>2012-11-03T07:28:23Z</time>
      </trkpt>
      <trkpt lat="47.28619" lon="4.97488">
        <ele>451</ele>
        <time>2012-11-03T07:28:26Z</time>
      </trkpt>
      <trkpt lat="47.28622" lon="4.97482">
        <ele>450</ele>
        <time>2012-11-03T07:28:29Z</time>
      </trkpt>
      <trkpt lat="47.28625" lon="4.97475">
        <ele>454</ele>
        <time>2012-11-03T07:28:33Z</time>
      </trkpt>
      <trkpt lat="47.28627" lon="4.97468">
        <ele>454</ele>
        <time>2012-11-03T07:28:36Z</time>
      </trkpt>
      <trkpt lat="47.2863" lon="4.9746">
        <ele>455</ele>
        <time>2012-11-03T07:28:39Z</time>
      </trkpt>
      <trkpt lat="47.28632" lon="4.97455">
        <ele>454</ele>
        <time>2012-11-03T07:28:42Z</time>
      </trkpt>
      <trkpt lat="47.28636" lon="4.97449">
        <ele>452</ele>
        <time>2012-11-03T07:28:49Z</time>
      </trkpt>
      <trkpt lat="47.28636" lon="4.97442">
        <ele>450</ele>
        <time>2012-11-03T07:29:00Z</time>
      </trkpt>
      <trkpt lat="47.28636" lon="4.97442">
        <ele>450</ele>
        <time>2012-11-03T07:29:00Z</time>
      </trkpt>
      <trkpt lat="47.28636" lon="4.97442">
        <ele>450</ele>
        <time>2012-11-03T07:29:02Z</time>
      </trkpt>
      <trkpt lat="47.2864" lon="4.97445">
        <ele>449</ele>
        <time>2012-11-03T07:29:13Z</time>
      </trkpt>
      <trkpt lat="47.28644" lon="4.97448">
        <ele>449</ele>
        <time>2012-11-03T07:29:16Z</time>
      </trkpt>
      <trkpt lat="47.28649" lon="4.97452">
        <ele>449</ele>
        <time>2012-11-03T07:29:22Z</time>
      </trkpt>
      <trkpt lat="47.28654" lon="4.97453">
        <ele>450</ele>
        <time>2012-11-03T07:29:25Z</time>
      </trkpt>
      <trkpt lat="47.28655" lon="4.97447">
        <ele>449</ele>
        <time>2012-11-03T07:29:33Z</time>
      </trkpt>
      <trkpt lat="47.28656" lon="4.97439">
        <ele>451</ele>
        <time>2012-11-03T07:29:53Z</time>
      </trkpt>
      <trkpt lat="47.28658" lon="4.97432">
        <ele>452</ele>
        <time>2012-11-03T07:31:49Z</time>
      </trkpt>
      <trkpt lat="47.28663" lon="4.9743">
        <ele>453</ele>
        <time>2012-11-03T07:31:52Z</time>
      </trkpt>
      <trkpt lat="47.28665" lon="4.97424">
        <ele>455</ele>
        <time>2012-11-03T07:31:58Z</time>
      </trkpt>
      <trkpt lat="47.28665" lon="4.97424">
        <ele>455</ele>
        <time>2012-11-03T07:31:58Z</time>
      </trkpt>
      <trkpt lat="47.28665" lon="4.97424">
        <ele>455</ele>
        <time>2012-11-03T07:31:59Z</time>
      </trkpt>
      <trkpt lat="47.2867" lon="4.97419">
        <ele>455</ele>
        <time>2012-11-03T07:32:09Z</time>
      </trkpt>
      <trkpt lat="47.2867" lon="4.97419">
        <ele>455</ele>
        <time>2012-11-03T07:32:09Z</time>
      </trkpt>
      <trkpt lat="47.2867" lon="4.97419">
        <ele>455</ele>
        <time>2012-11-03T07:32:10Z</time>
      </trkpt>
      <trkpt lat="47.28671" lon="4.97412">
        <ele>456</ele>
        <time>2012-11-03T07:32:15Z</time>
      </trkpt>
      <trkpt lat="47.28672" lon="4.97405">
        <ele>457</ele>
        <time>2012-11-03T07:32:19Z</time>
      </trkpt>
      <trkpt lat="47.28675" lon="4.974">
        <ele>456</ele>
        <time>2012-11-03T07:32:22Z</time>
      </trkpt>
      <trkpt lat="47.28677" lon="4.97392">
        <ele>458</ele>
        <time>2012-11-03T07:32:26Z</time>
      </trkpt>
      <trkpt lat="47.2868" lon="4.97387">
        <ele>458</ele>
        <time>2012-11-03T07:32:29Z</time>
      </trkpt>
      <trkpt lat="47.28683" lon="4.97381">
        <ele>458</ele>
        <time>2012-11-03T07:32:31Z</time>
      </trkpt>
      <trkpt lat="47.28686" lon="4.97375">
        <ele>459</ele>
        <time>2012-11-03T07:32:35Z</time>
      </trkpt>
      <trkpt lat="47.28687" lon="4.97367">
        <ele>459</ele>
        <time>2012-11-03T07:32:41Z</time>
      </trkpt>
      <trkpt lat="47.28689" lon="4.97361">
        <ele>459</ele>
        <time>2012-11-03T07:32:45Z</time>
      </trkpt>
      <trkpt lat="47.28692" lon="4.97356">
        <ele>459</ele>
        <time>2012-11-03T07:32:48Z</time>
      </trkpt>
      <trkpt lat="47.28696" lon="4.9735">
        <ele>461</ele>
        <time>2012-11-03T07:32:52Z</time>
      </trkpt>
      <trkpt lat="47.287" lon="4.97344">
        <ele>461</ele>
        <time>2012-11-03T07:32:55Z</time>
      </trkpt>
      <trkpt lat="47.28701" lon="4.97338">
        <ele>460</ele>
        <time>2012-11-03T07:32:58Z</time>
      </trkpt>
      <trkpt lat="47.28703" lon="4.97331">
        <ele>462</ele>
        <time>2012-11-03T07:33:02Z</time>
      </trkpt>
      <trkpt lat="47.28706" lon="4.97324">
        <ele>462</ele>
        <time>2012-11-03T07:33:06Z</time>
      </trkpt>
      <trkpt lat="47.28709" lon="4.97319">
        <ele>462</ele>
        <time>2012-11-03T07:33:09Z</time>
      </trkpt>
      <trkpt lat="47.28711" lon="4.97313">
        <ele>463</ele>
        <time>2012-11-03T07:33:13Z</time>
      </trkpt>
      <trkpt lat="47.28711" lon="4.97306">
        <ele>463</ele>
        <time>2012-11-03T07:33:16Z</time>
      </trkpt>
      <trkpt lat="47.28714" lon="4.97299">
        <ele>462</ele>
        <time>2012-11-03T07:33:19Z</time>
      </trkpt>
      <trkpt lat="47.28718" lon="4.97292">
        <ele>461</ele>
        <time>2012-11-03T07:33:22Z</time>
      </trkpt>
      <trkpt lat="47.2872" lon="4.97286">
        <ele>459</ele>
        <time>2012-11-03T07:33:25Z</time>
      </trkpt>
      <trkpt lat="47.28724" lon="4.97279">
        <ele>460</ele>
        <time>2012-11-03T07:33:28Z</time>
      </trkpt>
      <trkpt lat="47.28727" lon="4.97274">
        <ele>460</ele>
        <time>2012-11-03T07:33:31Z</time>
      </trkpt>
      <trkpt lat="47.2873" lon="4.97267">
        <ele>461</ele>
        <time>2012-11-03T07:33:35Z</time>
      </trkpt>
      <trkpt lat="47.28733" lon="4.97262">
        <ele>461</ele>
        <time>2012-11-03T07:33:39Z</time>
      </trkpt>
      <trkpt lat="47.28736" lon="4.97255">
        <ele>460</ele>
        <time>2012-11-03T07:33:43Z</time>
      </trkpt>
      <trkpt lat="47.28738" lon="4.97249">
        <ele>459</ele>
        <time>2012-11-03T07:33:46Z</time>
      </trkpt>
      <trkpt lat="47.28744" lon="4.97246">
        <ele>457</ele>
        <time>2012-11-03T07:33:49Z</time>
      </trkpt>
      <trkpt lat="47.28748" lon="4.97241">
        <ele>456</ele>
        <time>2012-11-03T07:33:52Z</time>
      </trkpt>
      <trkpt lat="47.28746" lon="4.97234">
        <ele>457</ele>
        <time>2012-11-03T07:33:57Z</time>
      </trkpt>
      <trkpt lat="47.28744" lon="4.97227">
        <ele>457</ele>
        <time>2012-11-03T07:34:00Z</time>
      </trkpt>
      <trkpt lat="47.28745" lon="4.9722">
        <ele>461</ele>
        <time>2012-11-03T07:34:08Z</time>
      </trkpt>
      <trkpt lat="47.28741" lon="4.97214">
        <ele>461</ele>
        <time>2012-11-03T07:34:13Z</time>
      </trkpt>
      <trkpt lat="47.28736" lon="4.97209">
        <ele>461</ele>
        <time>2012-11-03T07:34:16Z</time>
      </trkpt>
      <trkpt lat="47.28733" lon="4.97203">
        <ele>461</ele>
        <time>2012-11-03T07:34:18Z</time>
      </trkpt>
      <trkpt lat="47.2873" lon="4.97196">
        <ele>458</ele>
        <time>2012-11-03T07:34:22Z</time>
      </trkpt>
      <trkpt lat="47.28728" lon="4.97189">
        <ele>456</ele>
        <time>2012-11-03T07:34:25Z</time>
      </trkpt>
      <trkpt lat="47.28731" lon="4.97184">
        <ele>457</ele>
        <time>2012-11-03T07:34:29Z</time>
      </trkpt>
      <trkpt lat="47.28736" lon="4.97178">
        <ele>458</ele>
        <time>2012-11-03T07:34:34Z</time>
      </trkpt>
      <trkpt lat="47.2874" lon="4.97174">
        <ele>458</ele>
        <time>2012-11-03T07:34:40Z</time>
      </trkpt>
      <trkpt lat="47.28744" lon="4.9717">
        <ele>457</ele>
        <time>2012-11-03T07:34:43Z</time>
      </trkpt>
      <trkpt lat="47.28747" lon="4.97164">
        <ele>457</ele>
        <time>2012-11-03T07:34:48Z</time>
      </trkpt>
      <trkpt lat="47.2875" lon="4.97159">
        <ele>458</ele>
        <time>2012-11-03T07:34:51Z</time>
      </trkpt>
      <trkpt lat="47.28753" lon="4.97153">
        <ele>460</ele>
        <time>2012-11-03T07:34:56Z</time>
      </trkpt>
      <trkpt lat="47.28758" lon="4.97151">
        <ele>462</ele>
        <time>2012-11-03T07:35:00Z</time>
      </trkpt>
      <trkpt lat="47.28762" lon="4.9715">
        <ele>461</ele>
        <time>2012-11-03T07:35:03Z</time>
      </trkpt>
      <trkpt lat="47.28766" lon="4.97146">
        <ele>462</ele>
        <time>2012-11-03T07:35:07Z</time>
      </trkpt>
      <trkpt lat="47.2877" lon="4.9714">
        <ele>463</ele>
        <time>2012-11-03T07:35:11Z</time>
      </trkpt>
      <trkpt lat="47.28774" lon="4.97138">
        <ele>463</ele>
        <time>2012-11-03T07:35:15Z</time>
      </trkpt>
      <trkpt lat="47.28779" lon="4.97135">
        <ele>464</ele>
        <time>2012-11-03T07:35:19Z</time>
      </trkpt>
      <trkpt lat="47.28783" lon="4.97133">
        <ele>464</ele>
        <time>2012-11-03T07:35:21Z</time>
      </trkpt>
      <trkpt lat="47.28788" lon="4.97129">
        <ele>464</ele>
        <time>2012-11-03T07:35:24Z</time>
      </trkpt>
      <trkpt lat="47.28792" lon="4.97128">
        <ele>465</ele>
        <time>2012-11-03T07:35:27Z</time>
      </trkpt>
      <trkpt lat="47.28798" lon="4.97126">
        <ele>465</ele>
        <time>2012-11-03T07:35:30Z</time>
      </trkpt>
      <trkpt lat="47.28802" lon="4.97124">
        <ele>465</ele>
        <time>2012-11-03T07:35:33Z</time>
      </trkpt>
      <trkpt lat="47.28807" lon="4.97121">
        <ele>466</ele>
        <time>2012-11-03T07:35:37Z</time>
      </trkpt>
      <trkpt lat="47.28812" lon="4.97118">
        <ele>467</ele>
        <time>2012-11-03T07:35:41Z</time>
      </trkpt>
      <trkpt lat="47.28815" lon="4.97114">
        <ele>467</ele>
        <time>2012-11-03T07:35:45Z</time>
      </trkpt>
      <trkpt lat="47.28819" lon="4.97108">
        <ele>468</ele>
        <time>2012-11-03T07:35:49Z</time>
      </trkpt>
      <trkpt lat="47.28823" lon="4.97103">
        <ele>467</ele>
        <time>2012-11-03T07:35:54Z</time>
      </trkpt>
      <trkpt lat="47.28828" lon="4.97101">
        <ele>468</ele>
        <time>2012-11-03T07:35:58Z</time>
      </trkpt>
      <trkpt lat="47.28832" lon="4.97095">
        <ele>469</ele>
        <time>2012-11-03T07:36:01Z</time>
      </trkpt>
      <trkpt lat="47.28835" lon="4.9709">
        <ele>469</ele>
        <time>2012-11-03T07:36:04Z</time>
      </trkpt>
      <trkpt lat="47.28839" lon="4.97086">
        <ele>469</ele>
        <time>2012-11-03T07:36:07Z</time>
      </trkpt>
      <trkpt lat="47.28842" lon="4.9708">
        <ele>470</ele>
        <time>2012-11-03T07:36:12Z</time>
      </trkpt>
      <trkpt lat="47.28845" lon="4.97075">
        <ele>472</ele>
        <time>2012-11-03T07:36:16Z</time>
      </trkpt>
      <trkpt lat="47.28849" lon="4.97069">
        <ele>474</ele>
        <time>2012-11-03T07:36:21Z</time>
      </trkpt>
      <trkpt lat="47.28852" lon="4.97063">
        <ele>474</ele>
        <time>2012-11-03T07:36:25Z</time>
      </trkpt>
      <trkpt lat="47.28854" lon="4.97055">
        <ele>475</ele>
        <time>2012-11-03T07:36:29Z</time>
      </trkpt>
      <trkpt lat="47.28858" lon="4.9705">
        <ele>477</ele>
        <time>2012-11-03T07:36:33Z</time>
      </trkpt>
      <trkpt lat="47.28862" lon="4.97045">
        <ele>476</ele>
        <time>2012-11-03T07:36:38Z</time>
      </trkpt>
      <trkpt lat="47.28866" lon="4.97041">
        <ele>476</ele>
        <time>2012-11-03T07:36:41Z</time>
      </trkpt>
      <trkpt lat="47.28869" lon="4.97034">
        <ele>476</ele>
        <time>2012-11-03T07:36:44Z</time>
      </trkpt>
      <trkpt lat="47.28871" lon="4.97028">
        <ele>475</ele>
        <time>2012-11-03T07:36:54Z</time>
      </trkpt>
      <trkpt lat="47.28871" lon="4.97028">
        <ele>475</ele>
        <time>2012-11-03T07:36:54Z</time>
      </trkpt>
      <trkpt lat="47.28871" lon="4.97028">
        <ele>475</ele>
        <time>2012-11-03T07:36:56Z</time>
      </trkpt>
      <trkpt lat="47.28876" lon="4.97026">
        <ele>475</ele>
        <time>2012-11-03T07:37:13Z</time>
      </trkpt>
      <trkpt lat="47.28881" lon="4.97022">
        <ele>476</ele>
        <time>2012-11-03T07:37:16Z</time>
      </trkpt>
      <trkpt lat="47.28886" lon="4.97019">
        <ele>476</ele>
        <time>2012-11-03T07:37:19Z</time>
      </trkpt>
      <trkpt lat="47.2889" lon="4.97015">
        <ele>476</ele>
        <time>2012-11-03T07:37:22Z</time>
      </trkpt>
      <trkpt lat="47.28895" lon="4.97014">
        <ele>477</ele>
        <time>2012-11-03T07:37:26Z</time>
      </trkpt>
      <trkpt lat="47.289" lon="4.9701">
        <ele>476</ele>
        <time>2012-11-03T07:37:30Z</time>
      </trkpt>
      <trkpt lat="47.28904" lon="4.97007">
        <ele>477</ele>
        <time>2012-11-03T07:37:33Z</time>
      </trkpt>
      <trkpt lat="47.28909" lon="4.97005">
        <ele>475</ele>
        <time>2012-11-03T07:37:37Z</time>
      </trkpt>
      <trkpt lat="47.28913" lon="4.97002">
        <ele>474</ele>
        <time>2012-11-03T07:37:42Z</time>
      </trkpt>
      <trkpt lat="47.28917" lon="4.96996">
        <ele>476</ele>
        <time>2012-11-03T07:37:46Z</time>
      </trkpt>
      <trkpt lat="47.28922" lon="4.96991">
        <ele>477</ele>
        <time>2012-11-03T07:37:49Z</time>
      </trkpt>
      <trkpt lat="47.28926" lon="4.96989">
        <ele>476</ele>
        <time>2012-11-03T07:37:54Z</time>
      </trkpt>
      <trkpt lat="47.28931" lon="4.96984">
        <ele>475</ele>
        <time>2012-11-03T07:37:58Z</time>
      </trkpt>
      <trkpt lat="47.28935" lon="4.9698">
        <ele>474</ele>
        <time>2012-11-03T07:38:01Z</time>
      </trkpt>
      <trkpt lat="47.2894" lon="4.96975">
        <ele>473</ele>
        <time>2012-11-03T07:38:05Z</time>
      </trkpt>
      <trkpt lat="47.28946" lon="4.96974">
        <ele>473</ele>
        <time>2012-11-03T07:38:09Z</time>
      </trkpt>
      <trkpt lat="47.2895" lon="4.9697">
        <ele>472</ele>
        <time>2012-11-03T07:38:11Z</time>
      </trkpt>
      <trkpt lat="47.28954" lon="4.96965">
        <ele>473</ele>
        <time>2012-11-03T07:38:15Z</time>
      </trkpt>
      <trkpt lat="47.28959" lon="4.9696">
        <ele>473</ele>
        <time>2012-11-03T07:38:18Z</time>
      </trkpt>
      <trkpt lat="47.28961" lon="4.96954">
        <ele>473</ele>
        <time>2012-11-03T07:38:21Z</time>
      </trkpt>
      <trkpt lat="47.28964" lon="4.96947">
        <ele>473</ele>
        <time>2012-11-03T07:38:25Z</time>
      </trkpt>
      <trkpt lat="47.28966" lon="4.96941">
        <ele>475</ele>
        <time>2012-11-03T07:38:30Z</time>
      </trkpt>
      <trkpt lat="47.28968" lon="4.96934">
        <ele>476</ele>
        <time>2012-11-03T07:38:34Z</time>
      </trkpt>
      <trkpt lat="47.2897" lon="4.96928">
        <ele>478</ele>
        <time>2012-11-03T07:38:37Z</time>
      </trkpt>
      <trkpt lat="47.28974" lon="4.96922">
        <ele>477</ele>
        <time>2012-11-03T07:38:41Z</time>
      </trkpt>
      <trkpt lat="47.28976" lon="4.96916">
        <ele>476</ele>
        <time>2012-11-03T07:38:45Z</time>
      </trkpt>
      <trkpt lat="47.28981" lon="4.96912">
        <ele>476</ele>
        <time>2012-11-03T07:38:48Z</time>
      </trkpt>
      <trkpt lat="47.28984" lon="4.96908">
        <ele>475</ele>
        <time>2012-11-03T07:38:50Z</time>
      </trkpt>
      <trkpt lat="47.28988" lon="4.96901">
        <ele>475</ele>
        <time>2012-11-03T07:38:53Z</time>
      </trkpt>
      <trkpt lat="47.2899" lon="4.96895">
        <ele>474</ele>
        <time>2012-11-03T07:38:55Z</time>
      </trkpt>
      <trkpt lat="47.28993" lon="4.96887">
        <ele>474</ele>
        <time>2012-11-03T07:38:59Z</time>
      </trkpt>
      <trkpt lat="47.28996" lon="4.96881">
        <ele>474</ele>
        <time>2012-11-03T07:39:02Z</time>
      </trkpt>
      <trkpt lat="47.28998" lon="4.96875">
        <ele>475</ele>
        <time>2012-11-03T07:39:05Z</time>
      </trkpt>
      <trkpt lat="47.29002" lon="4.96867">
        <ele>474</ele>
        <time>2012-11-03T07:39:09Z</time>
      </trkpt>
      <trkpt lat="47.29005" lon="4.96862">
        <ele>474</ele>
        <time>2012-11-03T07:39:13Z</time>
      </trkpt>
      <trkpt lat="47.29008" lon="4.96856">
        <ele>473</ele>
        <time>2012-11-03T07:39:15Z</time>
      </trkpt>
      <trkpt lat="47.29011" lon="4.9685">
        <ele>472</ele>
        <time>2012-11-03T07:39:19Z</time>
      </trkpt>
      <trkpt lat="47.29015" lon="4.96844">
        <ele>472</ele>
        <time>2012-11-03T07:39:22Z</time>
      </trkpt>
      <trkpt lat="47.29018" lon="4.96837">
        <ele>471</ele>
        <time>2012-11-03T07:39:25Z</time>
      </trkpt>
      <trkpt lat="47.2902" lon="4.9683">
        <ele>473</ele>
        <time>2012-11-03T07:39:29Z</time>
      </trkpt>
      <trkpt lat="47.29022" lon="4.96824">
        <ele>473</ele>
        <time>2012-11-03T07:39:32Z</time>
      </trkpt>
      <trkpt lat="47.29026" lon="4.96818">
        <ele>474</ele>
        <time>2012-11-03T07:39:36Z</time>
      </trkpt>
      <trkpt lat="47.2903" lon="4.96812">
        <ele>474</ele>
        <time>2012-11-03T07:39:40Z</time>
      </trkpt>
      <trkpt lat="47.29032" lon="4.96807">
        <ele>474</ele>
        <time>2012-11-03T07:39:44Z</time>
      </trkpt>
      <trkpt lat="47.29035" lon="4.96802">
        <ele>476</ele>
        <time>2012-11-03T07:39:47Z</time>
      </trkpt>
      <trkpt lat="47.29039" lon="4.96794">
        <ele>476</ele>
        <time>2012-11-03T07:39:51Z</time>
      </trkpt>
      <trkpt lat="47.29043" lon="4.96789">
        <ele>476</ele>
        <time>2012-11-03T07:39:54Z</time>
      </trkpt>
      <trkpt lat="47.29046" lon="4.96782">
        <ele>477</ele>
        <time>2012-11-03T07:39:58Z</time>
      </trkpt>
      <trkpt lat="47.29049" lon="4.96776">
        <ele>477</ele>
        <time>2012-11-03T07:40:02Z</time>
      </trkpt>
      <trkpt lat="47.29052" lon="4.9677">
        <ele>477</ele>
        <time>2012-11-03T07:40:05Z</time>
      </trkpt>
      <trkpt lat="47.29054" lon="4.96764">
        <ele>478</ele>
        <time>2012-11-03T07:40:08Z</time>
      </trkpt>
      <trkpt lat="47.29058" lon="4.96758">
        <ele>478</ele>
        <time>2012-11-03T07:40:10Z</time>
      </trkpt>
      <trkpt lat="47.29062" lon="4.96754">
        <ele>477</ele>
        <time>2012-11-03T07:40:13Z</time>
      </trkpt>
      <trkpt lat="47.29065" lon="4.96747">
        <ele>477</ele>
        <time>2012-11-03T07:40:17Z</time>
      </trkpt>
      <trkpt lat="47.29068" lon="4.96741">
        <ele>477</ele>
        <time>2012-11-03T07:40:21Z</time>
      </trkpt>
      <trkpt lat="47.29071" lon="4.96735">
        <ele>478</ele>
        <time>2012-11-03T07:40:25Z</time>
      </trkpt>
      <trkpt lat="47.29077" lon="4.96733">
        <ele>479</ele>
        <time>2012-11-03T07:40:29Z</time>
      </trkpt>
      <trkpt lat="47.2908" lon="4.96727">
        <ele>477</ele>
        <time>2012-11-03T07:40:31Z</time>
      </trkpt>
      <trkpt lat="47.29083" lon="4.96721">
        <ele>476</ele>
        <time>2012-11-03T07:40:35Z</time>
      </trkpt>
      <trkpt lat="47.29084" lon="4.96713">
        <ele>476</ele>
        <time>2012-11-03T07:40:39Z</time>
      </trkpt>
      <trkpt lat="47.29087" lon="4.96708">
        <ele>473</ele>
        <time>2012-11-03T07:40:47Z</time>
      </trkpt>
      <trkpt lat="47.29092" lon="4.96708">
        <ele>474</ele>
        <time>2012-11-03T07:41:04Z</time>
      </trkpt>
      <trkpt lat="47.29099" lon="4.96705">
        <ele>471</ele>
        <time>2012-11-03T07:41:47Z</time>
      </trkpt>
      <trkpt lat="47.29104" lon="4.96703">
        <ele>471</ele>
        <time>2012-11-03T07:43:33Z</time>
      </trkpt>
      <trkpt lat="47.29106" lon="4.96698">
        <ele>470</ele>
        <time>2012-11-03T07:43:38Z</time>
      </trkpt>
      <trkpt lat="47.2911" lon="4.96694">
        <ele>471</ele>
        <time>2012-11-03T07:43:41Z</time>
      </trkpt>
      <trkpt lat="47.29114" lon="4.96688">
        <ele>470</ele>
        <time>2012-11-03T07:43:44Z</time>
      </trkpt>
      <trkpt lat="47.29118" lon="4.96681">
        <ele>468</ele>
        <time>2012-11-03T07:43:48Z</time>
      </trkpt>
      <trkpt lat="47.29121" lon="4.96676">
        <ele>468</ele>
        <time>2012-11-03T07:43:51Z</time>
      </trkpt>
      <trkpt lat="47.29124" lon="4.96672">
        <ele>470</ele>
        <time>2012-11-03T07:43:54Z</time>
      </trkpt>
      <trkpt lat="47.29129" lon="4.96669">
        <ele>470</ele>
        <time>2012-11-03T07:43:56Z</time>
      </trkpt>
      <trkpt lat="47.29134" lon="4.96665">
        <ele>470</ele>
        <time>2012-11-03T07:44:00Z</time>
      </trkpt>
      <trkpt lat="47.29138" lon="4.96662">
        <ele>472</ele>
        <time>2012-11-03T07:44:04Z</time>
      </trkpt>
      <trkpt lat="47.29143" lon="4.96661">
        <ele>472</ele>
        <time>2012-11-03T07:44:07Z</time>
      </trkpt>
      <trkpt lat="47.29148" lon="4.96658">
        <ele>471</ele>
        <time>2012-11-03T07:44:10Z</time>
      </trkpt>
      <trkpt lat="47.29153" lon="4.96654">
        <ele>472</ele>
        <time>2012-11-03T07:44:14Z</time>
      </trkpt>
      <trkpt lat="47.29158" lon="4.96653">
        <ele>474</ele>
        <time>2012-11-03T07:44:17Z</time>
      </trkpt>
      <trkpt lat="47.29164" lon="4.96651">
        <ele>473</ele>
        <time>2012-11-03T07:44:21Z</time>
      </trkpt>
      <trkpt lat="47.2917" lon="4.96651">
        <ele>471</ele>
        <time>2012-11-03T07:44:25Z</time>
      </trkpt>
      <trkpt lat="47.29176" lon="4.96647">
        <ele>471</ele>
        <time>2012-11-03T07:44:28Z</time>
      </trkpt>
      <trkpt lat="47.29181" lon="4.96641">
        <ele>472</ele>
        <time>2012-11-03T07:44:32Z</time>
      </trkpt>
      <trkpt lat="47.29186" lon="4.96638">
        <ele>474</ele>
        <time>2012-11-03T07:44:35Z</time>
      </trkpt>
      <trkpt lat="47.29191" lon="4.96634">
        <ele>473</ele>
        <time>2012-11-03T07:44:39Z</time>
      </trkpt>
      <trkpt lat="47.29196" lon="4.96628">
        <ele>472</ele>
        <time>2012-11-03T07:44:43Z</time>
      </trkpt>
      <trkpt lat="47.29201" lon="4.96624">
        <ele>471</ele>
        <time>2012-11-03T07:44:46Z</time>
      </trkpt>
      <trkpt lat="47.29206" lon="4.96619">
        <ele>469</ele>
        <time>2012-11-03T07:44:49Z</time>
      </trkpt>
      <trkpt lat="47.29211" lon="4.96615">
        <ele>469</ele>
        <time>2012-11-03T07:44:52Z</time>
      </trkpt>
      <trkpt lat="47.29217" lon="4.96611">
        <ele>466</ele>
        <time>2012-11-03T07:44:56Z</time>
      </trkpt>
      <trkpt lat="47.29221" lon="4.96606">
        <ele>464</ele>
        <time>2012-11-03T07:45:02Z</time>
      </trkpt>
      <trkpt lat="47.29224" lon="4.966">
        <ele>463</ele>
        <time>2012-11-03T07:45:05Z</time>
      </trkpt>
      <trkpt lat="47.29227" lon="4.96593">
        <ele>463</ele>
        <time>2012-11-03T07:45:09Z</time>
      </trkpt>
      <trkpt lat="47.29227" lon="4.96585">
        <ele>463</ele>
        <time>2012-11-03T07:45:12Z</time>
      </trkpt>
      <trkpt lat="47.29228" lon="4.96578">
        <ele>463</ele>
        <time>2012-11-03T07:45:15Z</time>
      </trkpt>
      <trkpt lat="47.29231" lon="4.96572">
        <ele>463</ele>
        <time>2012-11-03T07:45:18Z</time>
      </trkpt>
      <trkpt lat="47.29234" lon="4.96564">
        <ele>463</ele>
        <time>2012-11-03T07:45:21Z</time>
      </trkpt>
      <trkpt lat="47.29236" lon="4.96558">
        <ele>463</ele>
        <time>2012-11-03T07:45:24Z</time>
      </trkpt>
      <trkpt lat="47.2924" lon="4.96551">
        <ele>464</ele>
        <time>2012-11-03T07:45:27Z</time>
      </trkpt>
      <trkpt lat="47.29246" lon="4.96548">
        <ele>464</ele>
        <time>2012-11-03T07:45:30Z</time>
      </trkpt>
      <trkpt lat="47.2925" lon="4.96543">
        <ele>464</ele>
        <time>2012-11-03T07:45:33Z</time>
      </trkpt>
      <trkpt lat="47.29255" lon="4.96542">
        <ele>464</ele>
        <time>2012-11-03T07:45:37Z</time>
      </trkpt>
      <trkpt lat="47.2926" lon="4.96543">
        <ele>464</ele>
        <time>2012-11-03T07:45:43Z</time>
      </trkpt>
      <trkpt lat="47.29265" lon="4.96544">
        <ele>465</ele>
        <time>2012-11-03T07:45:47Z</time>
      </trkpt>
      <trkpt lat="47.2927" lon="4.96546">
        <ele>466</ele>
        <time>2012-11-03T07:45:51Z</time>
      </trkpt>
      <trkpt lat="47.29274" lon="4.96548">
        <ele>466</ele>
        <time>2012-11-03T07:45:55Z</time>
      </trkpt>
      <trkpt lat="47.2928" lon="4.96548">
        <ele>465</ele>
        <time>2012-11-03T07:45:59Z</time>
      </trkpt>
      <trkpt lat="47.29285" lon="4.96548">
        <ele>466</ele>
        <time>2012-11-03T07:46:02Z</time>
      </trkpt>
      <trkpt lat="47.2929" lon="4.9655">
        <ele>467</ele>
        <time>2012-11-03T07:46:05Z</time>
      </trkpt>
      <trkpt lat="47.29295" lon="4.96551">
        <ele>466</ele>
        <time>2012-11-03T07:46:09Z</time>
      </trkpt>
      <trkpt lat="47.29299" lon="4.96552">
        <ele>467</ele>
        <time>2012-11-03T07:46:11Z</time>
      </trkpt>
      <trkpt lat="47.29304" lon="4.96555">
        <ele>466</ele>
        <time>2012-11-03T07:46:14Z</time>
      </trkpt>
      <trkpt lat="47.2931" lon="4.96555">
        <ele>464</ele>
        <time>2012-11-03T07:46:18Z</time>
      </trkpt>
      <trkpt lat="47.29315" lon="4.96558">
        <ele>464</ele>
        <time>2012-11-03T07:46:21Z</time>
      </trkpt>
      <trkpt lat="47.2932" lon="4.9656">
        <ele>464</ele>
        <time>2012-11-03T07:46:25Z</time>
      </trkpt>
      <trkpt lat="47.29324" lon="4.96563">
        <ele>463</ele>
        <time>2012-11-03T07:46:28Z</time>
      </trkpt>
      <trkpt lat="47.2933" lon="4.96565">
        <ele>464</ele>
        <time>2012-11-03T07:46:31Z</time>
      </trkpt>
      <trkpt lat="47.29334" lon="4.96568">
        <ele>463</ele>
        <time>2012-11-03T07:46:34Z</time>
      </trkpt>
      <trkpt lat="47.29339" lon="4.96572">
        <ele>462</ele>
        <time>2012-11-03T07:46:39Z</time>
      </trkpt>
      <trkpt lat="47.29344" lon="4.96573">
        <ele>463</ele>
        <time>2012-11-03T07:46:43Z</time>
      </trkpt>
      <trkpt lat="47.29351" lon="4.96576">
        <ele>464</ele>
        <time>2012-11-03T07:46:46Z</time>
      </trkpt>
      <trkpt lat="47.29356" lon="4.96578">
        <ele>465</ele>
        <time>2012-11-03T07:46:48Z</time>
      </trkpt>
      <trkpt lat="47.2936" lon="4.96579">
        <ele>464</ele>
        <time>2012-11-03T07:46:50Z</time>
      </trkpt>
      <trkpt lat="47.29366" lon="4.96581">
        <ele>464</ele>
        <time>2012-11-03T07:46:53Z</time>
      </trkpt>
      <trkpt lat="47.29372" lon="4.96582">
        <ele>463</ele>
        <time>2012-11-03T07:46:56Z</time>
      </trkpt>
      <trkpt lat="47.29377" lon="4.96584">
        <ele>466</ele>
        <time>2012-11-03T07:46:59Z</time>
      </trkpt>
      <trkpt lat="47.29381" lon="4.96587">
        <ele>467</ele>
        <time>2012-11-03T07:47:04Z</time>
      </trkpt>
      <trkpt lat="47.29386" lon="4.96587">
        <ele>468</ele>
        <time>2012-11-03T07:47:09Z</time>
      </trkpt>
      <trkpt lat="47.29393" lon="4.96587">
        <ele>466</ele>
        <time>2012-11-03T07:47:13Z</time>
      </trkpt>
      <trkpt lat="47.29399" lon="4.96589">
        <ele>464</ele>
        <time>2012-11-03T07:47:16Z</time>
      </trkpt>
      <trkpt lat="47.29403" lon="4.96593">
        <ele>463</ele>
        <time>2012-11-03T07:47:20Z</time>
      </trkpt>
      <trkpt lat="47.29409" lon="4.96595">
        <ele>462</ele>
        <time>2012-11-03T07:47:24Z</time>
      </trkpt>
      <trkpt lat="47.29414" lon="4.96596">
        <ele>462</ele>
        <time>2012-11-03T07:47:29Z</time>
      </trkpt>
      <trkpt lat="47.2942" lon="4.96596">
        <ele>461</ele>
        <time>2012-11-03T07:47:33Z</time>
      </trkpt>
      <trkpt lat="47.29426" lon="4.96597">
        <ele>461</ele>
        <time>2012-11-03T07:47:36Z</time>
      </trkpt>
      <trkpt lat="47.29433" lon="4.966">
        <ele>460</ele>
        <time>2012-11-03T07:47:39Z</time>
      </trkpt>
      <trkpt lat="47.29439" lon="4.96603">
        <ele>461</ele>
        <time>2012-11-03T07:47:41Z</time>
      </trkpt>
      <trkpt lat="47.29445" lon="4.96603">
        <ele>461</ele>
        <time>2012-11-03T07:47:44Z</time>
      </trkpt>
      <trkpt lat="47.29449" lon="4.96607">
        <ele>462</ele>
        <time>2012-11-03T07:47:49Z</time>
      </trkpt>
      <trkpt lat="47.29454" lon="4.96607">
        <ele>462</ele>
        <time>2012-11-03T07:47:51Z</time>
      </trkpt>
      <trkpt lat="47.29459" lon="4.96609">
        <ele>463</ele>
        <time>2012-11-03T07:47:53Z</time>
      </trkpt>
      <trkpt lat="47.29464" lon="4.96611">
        <ele>463</ele>
        <time>2012-11-03T07:47:56Z</time>
      </trkpt>
      <trkpt lat="47.2947" lon="4.9661">
        <ele>461</ele>
        <time>2012-11-03T07:47:59Z</time>
      </trkpt>
      <trkpt lat="47.29474" lon="4.96614">
        <ele>460</ele>
        <time>2012-11-03T07:48:03Z</time>
      </trkpt>
      <trkpt lat="47.2948" lon="4.96618">
        <ele>461</ele>
        <time>2012-11-03T07:48:06Z</time>
      </trkpt>
      <trkpt lat="47.29485" lon="4.96621">
        <ele>462</ele>
        <time>2012-11-03T07:48:08Z</time>
      </trkpt>
      <trkpt lat="47.2949" lon="4.96621">
        <ele>461</ele>
        <time>2012-11-03T07:48:10Z</time>
      </trkpt>
      <trkpt lat="47.29495" lon="4.96623">
        <ele>461</ele>
        <time>2012-11-03T07:48:12Z</time>
      </trkpt>
      <trkpt lat="47.29499" lon="4.96623">
        <ele>461</ele>
        <time>2012-11-03T07:48:15Z</time>
      </trkpt>
      <trkpt lat="47.29504" lon="4.96623">
        <ele>461</ele>
        <time>2012-11-03T07:48:18Z</time>
      </trkpt>
      <trkpt lat="47.2951" lon="4.96622">
        <ele>459</ele>
        <time>2012-11-03T07:48:22Z</time>
      </trkpt>
      <trkpt lat="47.29515" lon="4.96622">
        <ele>458</ele>
        <time>2012-11-03T07:48:25Z</time>
      </trkpt>
      <trkpt lat="47.2952" lon="4.96622">
        <ele>457</ele>
        <time>2012-11-03T07:48:29Z</time>
      </trkpt>
      <trkpt lat="47.29525" lon="4.96623">
        <ele>458</ele>
        <time>2012-11-03T07:48:32Z</time>
      </trkpt>
      <trkpt lat="47.2953" lon="4.96625">
        <ele>459</ele>
        <time>2012-11-03T07:48:34Z</time>
      </trkpt>
      <trkpt lat="47.2953" lon="4.96625">
        <ele>459</ele>
        <time>2012-11-03T07:48:34Z</time>
      </trkpt>
      <trkpt lat="47.2953" lon="4.96625">
        <ele>459</ele>
        <time>2012-11-03T07:48:35Z</time>
      </trkpt>
      <trkpt lat="47.29535" lon="4.96628">
        <ele>460</ele>
        <time>2012-11-03T07:48:37Z</time>
      </trkpt>
      <trkpt lat="47.29541" lon="4.96629">
        <ele>460</ele>
        <time>2012-11-03T07:48:39Z</time>
      </trkpt>
      <trkpt lat="47.29546" lon="4.96634">
        <ele>462</ele>
        <time>2012-11-03T07:48:42Z</time>
      </trkpt>
      <trkpt lat="47.2955" lon="4.96637">
        <ele>462</ele>
        <time>2012-11-03T07:48:45Z</time>
      </trkpt>
      <trkpt lat="47.29557" lon="4.96638">
        <ele>459</ele>
        <time>2012-11-03T07:48:48Z</time>
      </trkpt>
      <trkpt lat="47.29562" lon="4.96642">
        <ele>458</ele>
        <time>2012-11-03T07:48:52Z</time>
      </trkpt>
      <trkpt lat="47.29567" lon="4.96641">
        <ele>457</ele>
        <time>2012-11-03T07:48:55Z</time>
      </trkpt>
      <trkpt lat="47.29572" lon="4.96639">
        <ele>454</ele>
        <time>2012-11-03T07:48:59Z</time>
      </trkpt>
      <trkpt lat="47.29578" lon="4.9664">
        <ele>453</ele>
        <time>2012-11-03T07:49:02Z</time>
      </trkpt>
      <trkpt lat="47.2958" lon="4.96647">
        <ele>454</ele>
        <time>2012-11-03T07:49:08Z</time>
      </trkpt>
      <trkpt lat="47.2958" lon="4.96647">
        <ele>454</ele>
        <time>2012-11-03T07:49:08Z</time>
      </trkpt>
      <trkpt lat="47.2958" lon="4.96647">
        <ele>454</ele>
        <time>2012-11-03T07:49:09Z</time>
      </trkpt>
      <trkpt lat="47.29584" lon="4.96654">
        <ele>452</ele>
        <time>2012-11-03T07:49:14Z</time>
      </trkpt>
      <trkpt lat="47.29584" lon="4.96654">
        <ele>452</ele>
        <time>2012-11-03T07:49:14Z</time>
      </trkpt>
      <trkpt lat="47.29584" lon="4.96654">
        <ele>452</ele>
        <time>2012-11-03T07:49:16Z</time>
      </trkpt>
      <trkpt lat="47.2959" lon="4.96656">
        <ele>451</ele>
        <time>2012-11-03T07:49:27Z</time>
      </trkpt>
      <trkpt lat="47.29594" lon="4.96655">
        <ele>452</ele>
        <time>2012-11-03T07:49:29Z</time>
      </trkpt>
      <trkpt lat="47.29599" lon="4.96651">
        <ele>452</ele>
        <time>2012-11-03T07:49:33Z</time>
      </trkpt>
      <trkpt lat="47.29604" lon="4.96647">
        <ele>452</ele>
        <time>2012-11-03T07:49:37Z</time>
      </trkpt>
      <trkpt lat="47.29607" lon="4.96642">
        <ele>451</ele>
        <time>2012-11-03T07:49:40Z</time>
      </trkpt>
      <trkpt lat="47.29608" lon="4.96636">
        <ele>450</ele>
        <time>2012-11-03T07:49:43Z</time>
      </trkpt>
      <trkpt lat="47.29611" lon="4.9663">
        <ele>448</ele>
        <time>2012-11-03T07:49:46Z</time>
      </trkpt>
      <trkpt lat="47.29615" lon="4.96625">
        <ele>448</ele>
        <time>2012-11-03T07:49:50Z</time>
      </trkpt>
      <trkpt lat="47.29617" lon="4.96618">
        <ele>448</ele>
        <time>2012-11-03T07:49:59Z</time>
      </trkpt>
      <trkpt lat="47.29617" lon="4.96609">
        <ele>449</ele>
        <time>2012-11-03T07:50:06Z</time>
      </trkpt>
      <trkpt lat="47.29618" lon="4.96599">
        <ele>449</ele>
        <time>2012-11-03T07:50:10Z</time>
      </trkpt>
      <trkpt lat="47.29619" lon="4.96591">
        <ele>449</ele>
        <time>2012-11-03T07:50:14Z</time>
      </trkpt>
      <trkpt lat="47.29621" lon="4.96583">
        <ele>450</ele>
        <time>2012-11-03T07:50:18Z</time>
      </trkpt>
      <trkpt lat="47.2962" lon="4.96575">
        <ele>448</ele>
        <time>2012-11-03T07:50:20Z</time>
      </trkpt>
      <trkpt lat="47.29619" lon="4.96567">
        <ele>447</ele>
        <time>2012-11-03T07:50:23Z</time>
      </trkpt>
      <trkpt lat="47.29621" lon="4.9656">
        <ele>449</ele>
        <time>2012-11-03T07:50:30Z</time>
      </trkpt>
      <trkpt lat="47.29618" lon="4.96554">
        <ele>448</ele>
        <time>2012-11-03T07:50:33Z</time>
      </trkpt>
      <trkpt lat="47.29618" lon="4.96546">
        <ele>449</ele>
        <time>2012-11-03T07:50:38Z</time>
      </trkpt>
      <trkpt lat="47.29618" lon="4.96538">
        <ele>449</ele>
        <time>2012-11-03T07:50:42Z</time>
      </trkpt>
      <trkpt lat="47.29621" lon="4.96531">
        <ele>450</ele>
        <time>2012-11-03T07:50:45Z</time>
      </trkpt>
      <trkpt lat="47.29622" lon="4.96525">
        <ele>450</ele>
        <time>2012-11-03T07:50:49Z</time>
      </trkpt>
      <trkpt lat="47.29623" lon="4.96517">
        <ele>450</ele>
        <time>2012-11-03T07:50:55Z</time>
      </trkpt>
      <trkpt lat="47.29624" lon="4.96508">
        <ele>451</ele>
        <time>2012-11-03T07:50:58Z</time>
      </trkpt>
      <trkpt lat="47.29624" lon="4.965">
        <ele>451</ele>
        <time>2012-11-03T07:51:00Z</time>
      </trkpt>
      <trkpt lat="47.29628" lon="4.96494">
        <ele>449</ele>
        <time>2012-11-03T07:51:02Z</time>
      </trkpt>
      <trkpt lat="47.2963" lon="4.96486">
        <ele>449</ele>
        <time>2012-11-03T07:51:05Z</time>
      </trkpt>
      <trkpt lat="47.29627" lon="4.96478">
        <ele>447</ele>
        <time>2012-11-03T07:51:08Z</time>
      </trkpt>
      <trkpt lat="47.29624" lon="4.96472">
        <ele>446</ele>
        <time>2012-11-03T07:51:11Z</time>
      </trkpt>
      <trkpt lat="47.29623" lon="4.96464">
        <ele>448</ele>
        <time>2012-11-03T07:51:18Z</time>
      </trkpt>
      <trkpt lat="47.29622" lon="4.96458">
        <ele>447</ele>
        <time>2012-11-03T07:51:20Z</time>
      </trkpt>
      <trkpt lat="47.29622" lon="4.96448">
        <ele>446</ele>
        <time>2012-11-03T07:51:22Z</time>
      </trkpt>
      <trkpt lat="47.29622" lon="4.96441">
        <ele>446</ele>
        <time>2012-11-03T07:51:25Z</time>
      </trkpt>
      <trkpt lat="47.2962" lon="4.96435">
        <ele>447</ele>
        <time>2012-11-03T07:51:28Z</time>
      </trkpt>
      <trkpt lat="47.29618" lon="4.96426">
        <ele>447</ele>
        <time>2012-11-03T07:51:32Z</time>
      </trkpt>
      <trkpt lat="47.29614" lon="4.96419">
        <ele>449</ele>
        <time>2012-11-03T07:51:36Z</time>
      </trkpt>
      <trkpt lat="47.29613" lon="4.96413">
        <ele>447</ele>
        <time>2012-11-03T07:51:39Z</time>
      </trkpt>
      <trkpt lat="47.29608" lon="4.96408">
        <ele>446</ele>
        <time>2012-11-03T07:51:42Z</time>
      </trkpt>
      <trkpt lat="47.29605" lon="4.96402">
        <ele>448</ele>
        <time>2012-11-03T07:51:46Z</time>
      </trkpt>
      <trkpt lat="47.29601" lon="4.96395">
        <ele>447</ele>
        <time>2012-11-03T07:51:50Z</time>
      </trkpt>
      <trkpt lat="47.29599" lon="4.96388">
        <ele>447</ele>
        <time>2012-11-03T07:51:53Z</time>
      </trkpt>
      <trkpt lat="47.29599" lon="4.9638">
        <ele>446</ele>
        <time>2012-11-03T07:51:57Z</time>
      </trkpt>
      <trkpt lat="47.29596" lon="4.96373">
        <ele>447</ele>
        <time>2012-11-03T07:52:01Z</time>
      </trkpt>
      <trkpt lat="47.29592" lon="4.96367">
        <ele>447</ele>
        <time>2012-11-03T07:52:04Z</time>
      </trkpt>
      <trkpt lat="47.2959" lon="4.96361">
        <ele>448</ele>
        <time>2012-11-03T07:52:08Z</time>
      </trkpt>
      <trkpt lat="47.29588" lon="4.96351">
        <ele>448</ele>
        <time>2012-11-03T07:52:12Z</time>
      </trkpt>
      <trkpt lat="47.29585" lon="4.96344">
        <ele>448</ele>
        <time>2012-11-03T07:52:16Z</time>
      </trkpt>
      <trkpt lat="47.29584" lon="4.96336">
        <ele>448</ele>
        <time>2012-11-03T07:52:19Z</time>
      </trkpt>
      <trkpt lat="47.29583" lon="4.96329">
        <ele>448</ele>
        <time>2012-11-03T07:52:23Z</time>
      </trkpt>
      <trkpt lat="47.2958" lon="4.96323">
        <ele>448</ele>
        <time>2012-11-03T07:52:27Z</time>
      </trkpt>
      <trkpt lat="47.29576" lon="4.96318">
        <ele>449</ele>
        <time>2012-11-03T07:52:32Z</time>
      </trkpt>
      <trkpt lat="47.29574" lon="4.96312">
        <ele>450</ele>
        <time>2012-11-03T07:52:35Z</time>
      </trkpt>
      <trkpt lat="47.29573" lon="4.96305">
        <ele>450</ele>
        <time>2012-11-03T07:52:38Z</time>
      </trkpt>
      <trkpt lat="47.29573" lon="4.96305">
        <ele>450</ele>
        <time>2012-11-03T07:52:38Z</time>
      </trkpt>
      <trkpt lat="47.29573" lon="4.96305">
        <ele>450</ele>
        <time>2012-11-03T07:52:39Z</time>
      </trkpt>
      <trkpt lat="47.29571" lon="4.96296">
        <ele>450</ele>
        <time>2012-11-03T07:52:42Z</time>
      </trkpt>
      <trkpt lat="47.29569" lon="4.96286">
        <ele>450</ele>
        <time>2012-11-03T07:52:45Z</time>
      </trkpt>
      <trkpt lat="47.29567" lon="4.96279">
        <ele>450</ele>
        <time>2012-11-03T07:52:48Z</time>
      </trkpt>
      <trkpt lat="47.29564" lon="4.96274">
        <ele>452</ele>
        <time>2012-11-03T07:52:53Z</time>
      </trkpt>
      <trkpt lat="47.29562" lon="4.96266">
        <ele>451</ele>
        <time>2012-11-03T07:52:58Z</time>
      </trkpt>
      <trkpt lat="47.29558" lon="4.9626">
        <ele>449</ele>
        <time>2012-11-03T07:53:01Z</time>
      </trkpt>
      <trkpt lat="47.29557" lon="4.9625">
        <ele>451</ele>
        <time>2012-11-03T07:53:07Z</time>
      </trkpt>
      <trkpt lat="47.29555" lon="4.96243">
        <ele>451</ele>
        <time>2012-11-03T07:53:10Z</time>
      </trkpt>
      <trkpt lat="47.29554" lon="4.96236">
        <ele>452</ele>
        <time>2012-11-03T07:53:13Z</time>
      </trkpt>
      <trkpt lat="47.29551" lon="4.9623">
        <ele>452</ele>
        <time>2012-11-03T07:53:17Z</time>
      </trkpt>
      <trkpt lat="47.29547" lon="4.96222">
        <ele>454</ele>
        <time>2012-11-03T07:53:22Z</time>
      </trkpt>
      <trkpt lat="47.29543" lon="4.96215">
        <ele>454</ele>
        <time>2012-11-03T07:53:26Z</time>
      </trkpt>
      <trkpt lat="47.29542" lon="4.96207">
        <ele>454</ele>
        <time>2012-11-03T07:53:29Z</time>
      </trkpt>
      <trkpt lat="47.29541" lon="4.962">
        <ele>454</ele>
        <time>2012-11-03T07:53:33Z</time>
      </trkpt>
      <trkpt lat="47.29537" lon="4.96193">
        <ele>453</ele>
        <time>2012-11-03T07:53:36Z</time>
      </trkpt>
      <trkpt lat="47.29534" lon="4.96187">
        <ele>453</ele>
        <time>2012-11-03T07:53:39Z</time>
      </trkpt>
      <trkpt lat="47.29532" lon="4.9618">
        <ele>452</ele>
        <time>2012-11-03T07:53:43Z</time>
      </trkpt>
      <trkpt lat="47.2953" lon="4.96173">
        <ele>453</ele>
        <time>2012-11-03T07:53:46Z</time>
      </trkpt>
      <trkpt lat="47.29526" lon="4.96168">
        <ele>452</ele>
        <time>2012-11-03T07:53:51Z</time>
      </trkpt>
      <trkpt lat="47.29525" lon="4.96161">
        <ele>453</ele>
        <time>2012-11-03T07:53:54Z</time>
      </trkpt>
      <trkpt lat="47.29522" lon="4.96154">
        <ele>454</ele>
        <time>2012-11-03T07:53:58Z</time>
      </trkpt>
      <trkpt lat="47.29518" lon="4.96147">
        <ele>454</ele>
        <time>2012-11-03T07:54:01Z</time>
      </trkpt>
      <trkpt lat="47.29516" lon="4.96139">
        <ele>453</ele>
        <time>2012-11-03T07:54:04Z</time>
      </trkpt>
      <trkpt lat="47.29512" lon="4.96131">
        <ele>454</ele>
        <time>2012-11-03T07:54:09Z</time>
      </trkpt>
      <trkpt lat="47.2951" lon="4.96123">
        <ele>453</ele>
        <time>2012-11-03T07:54:13Z</time>
      </trkpt>
      <trkpt lat="47.29504" lon="4.96118">
        <ele>455</ele>
        <time>2012-11-03T07:54:16Z</time>
      </trkpt>
      <trkpt lat="47.29499" lon="4.96114">
        <ele>454</ele>
        <time>2012-11-03T07:54:17Z</time>
      </trkpt>
      <trkpt lat="47.29497" lon="4.96107">
        <ele>454</ele>
        <time>2012-11-03T07:54:20Z</time>
      </trkpt>
      <trkpt lat="47.29494" lon="4.96097">
        <ele>455</ele>
        <time>2012-11-03T07:54:23Z</time>
      </trkpt>
      <trkpt lat="47.29493" lon="4.9609">
        <ele>455</ele>
        <time>2012-11-03T07:54:26Z</time>
      </trkpt>
      <trkpt lat="47.29491" lon="4.96082">
        <ele>456</ele>
        <time>2012-11-03T07:54:29Z</time>
      </trkpt>
      <trkpt lat="47.29491" lon="4.96075">
        <ele>458</ele>
        <time>2012-11-03T07:54:33Z</time>
      </trkpt>
      <trkpt lat="47.29491" lon="4.96064">
        <ele>457</ele>
        <time>2012-11-03T07:54:37Z</time>
      </trkpt>
      <trkpt lat="47.29491" lon="4.96056">
        <ele>459</ele>
        <time>2012-11-03T07:54:40Z</time>
      </trkpt>
      <trkpt lat="47.29491" lon="4.96048">
        <ele>458</ele>
        <time>2012-11-03T07:54:44Z</time>
      </trkpt>
      <trkpt lat="47.29492" lon="4.96041">
        <ele>457</ele>
        <time>2012-11-03T07:54:48Z</time>
      </trkpt>
      <trkpt lat="47.29492" lon="4.96033">
        <ele>457</ele>
        <time>2012-11-03T07:54:51Z</time>
      </trkpt>
      <trkpt lat="47.2949" lon="4.96026">
        <ele>457</ele>
        <time>2012-11-03T07:54:55Z</time>
      </trkpt>
      <trkpt lat="47.2949" lon="4.96019">
        <ele>457</ele>
        <time>2012-11-03T07:55:01Z</time>
      </trkpt>
      <trkpt lat="47.29486" lon="4.96017">
        <ele>458</ele>
        <time>2012-11-03T07:55:04Z</time>
      </trkpt>
      <trkpt lat="47.29481" lon="4.9601">
        <ele>457</ele>
        <time>2012-11-03T07:55:07Z</time>
      </trkpt>
      <trkpt lat="47.29477" lon="4.96004">
        <ele>457</ele>
        <time>2012-11-03T07:55:10Z</time>
      </trkpt>
      <trkpt lat="47.29475" lon="4.95996">
        <ele>456</ele>
        <time>2012-11-03T07:55:13Z</time>
      </trkpt>
      <trkpt lat="47.29472" lon="4.95988">
        <ele>455</ele>
        <time>2012-11-03T07:55:17Z</time>
      </trkpt>
      <trkpt lat="47.29467" lon="4.95984">
        <ele>456</ele>
        <time>2012-11-03T07:55:20Z</time>
      </trkpt>
      <trkpt lat="47.29461" lon="4.95978">
        <ele>456</ele>
        <time>2012-11-03T07:55:24Z</time>
      </trkpt>
      <trkpt lat="47.29458" lon="4.95971">
        <ele>456</ele>
        <time>2012-11-03T07:55:28Z</time>
      </trkpt>
      <trkpt lat="47.29454" lon="4.95964">
        <ele>455</ele>
        <time>2012-11-03T07:55:31Z</time>
      </trkpt>
      <trkpt lat="47.29448" lon="4.95959">
        <ele>454</ele>
        <time>2012-11-03T07:55:37Z</time>
      </trkpt>
      <trkpt lat="47.29447" lon="4.95951">
        <ele>453</ele>
        <time>2012-11-03T07:55:40Z</time>
      </trkpt>
      <trkpt lat="47.29442" lon="4.95945">
        <ele>455</ele>
        <time>2012-11-03T07:55:46Z</time>
      </trkpt>
      <trkpt lat="47.29437" lon="4.95942">
        <ele>457</ele>
        <time>2012-11-03T07:55:48Z</time>
      </trkpt>
      <trkpt lat="47.29432" lon="4.95938">
        <ele>459</ele>
        <time>2012-11-03T07:55:50Z</time>
      </trkpt>
      <trkpt lat="47.29428" lon="4.95937">
        <ele>462</ele>
        <time>2012-11-03T07:55:52Z</time>
      </trkpt>
      <trkpt lat="47.29422" lon="4.95932">
        <ele>463</ele>
        <time>2012-11-03T07:55:55Z</time>
      </trkpt>
      <trkpt lat="47.29417" lon="4.95929">
        <ele>461</ele>
        <time>2012-11-03T07:55:57Z</time>
      </trkpt>
      <trkpt lat="47.29414" lon="4.95923">
        <ele>462</ele>
        <time>2012-11-03T07:56:00Z</time>
      </trkpt>
      <trkpt lat="47.29409" lon="4.95917">
        <ele>461</ele>
        <time>2012-11-03T07:56:04Z</time>
      </trkpt>
      <trkpt lat="47.29406" lon="4.95912">
        <ele>463</ele>
        <time>2012-11-03T07:56:07Z</time>
      </trkpt>
      <trkpt lat="47.29402" lon="4.95909">
        <ele>464</ele>
        <time>2012-11-03T07:56:10Z</time>
      </trkpt>
      <trkpt lat="47.29398" lon="4.95906">
        <ele>466</ele>
        <time>2012-11-03T07:56:15Z</time>
      </trkpt>
      <trkpt lat="47.29393" lon="4.95901">
        <ele>463</ele>
        <time>2012-11-03T07:56:22Z</time>
      </trkpt>
      <trkpt lat="47.2939" lon="4.95896">
        <ele>461</ele>
        <time>2012-11-03T07:57:22Z</time>
      </trkpt>
      <trkpt lat="47.2939" lon="4.95896">
        <ele>461</ele>
        <time>2012-11-03T07:57:22Z</time>
      </trkpt>
      <trkpt lat="47.2939" lon="4.95896">
        <ele>461</ele>
        <time>2012-11-03T07:57:23Z</time>
      </trkpt>
      <trkpt lat="47.29391" lon="4.95888">
        <ele>461</ele>
        <time>2012-11-03T07:57:52Z</time>
      </trkpt>
      <trkpt lat="47.29387" lon="4.95891">
        <ele>463</ele>
        <time>2012-11-03T07:58:01Z</time>
      </trkpt>
      <trkpt lat="47.29383" lon="4.95896">
        <ele>464</ele>
        <time>2012-11-03T07:58:07Z</time>
      </trkpt>
      <trkpt lat="47.29381" lon="4.95902">
        <ele>465</ele>
        <time>2012-11-03T07:58:11Z</time>
      </trkpt>
      <trkpt lat="47.29382" lon="4.95909">
        <ele>465</ele>
        <time>2012-11-03T07:58:14Z</time>
      </trkpt>
      <trkpt lat="47.2938" lon="4.95915">
        <ele>465</ele>
        <time>2012-11-03T07:58:17Z</time>
      </trkpt>
      <trkpt lat="47.29376" lon="4.95919">
        <ele>465</ele>
        <time>2012-11-03T07:58:26Z</time>
      </trkpt>
      <trkpt lat="47.29369" lon="4.9592">
        <ele>465</ele>
        <time>2012-11-03T07:58:32Z</time>
      </trkpt>
      <trkpt lat="47.29364" lon="4.95918">
        <ele>465</ele>
        <time>2012-11-03T07:58:34Z</time>
      </trkpt>
      <trkpt lat="47.29359" lon="4.95916">
        <ele>465</ele>
        <time>2012-11-03T07:58:37Z</time>
      </trkpt>
      <trkpt lat="47.29354" lon="4.95911">
        <ele>466</ele>
        <time>2012-11-03T07:58:40Z</time>
      </trkpt>
      <trkpt lat="47.2935" lon="4.95904">
        <ele>465</ele>
        <time>2012-11-03T07:58:43Z</time>
      </trkpt>
      <trkpt lat="47.29346" lon="4.95899">
        <ele>466</ele>
        <time>2012-11-03T07:58:49Z</time>
      </trkpt>
      <trkpt lat="47.29342" lon="4.95895">
        <ele>466</ele>
        <time>2012-11-03T07:58:52Z</time>
      </trkpt>
      <trkpt lat="47.29338" lon="4.9589">
        <ele>467</ele>
        <time>2012-11-03T07:58:55Z</time>
      </trkpt>
      <trkpt lat="47.29334" lon="4.95886">
        <ele>470</ele>
        <time>2012-11-03T07:58:59Z</time>
      </trkpt>
      <trkpt lat="47.2933" lon="4.95879">
        <ele>471</ele>
        <time>2012-11-03T07:59:04Z</time>
      </trkpt>
      <trkpt lat="47.29326" lon="4.95873">
        <ele>471</ele>
        <time>2012-11-03T07:59:09Z</time>
      </trkpt>
      <trkpt lat="47.2932" lon="4.95871">
        <ele>472</ele>
        <time>2012-11-03T07:59:13Z</time>
      </trkpt>
      <trkpt lat="47.29318" lon="4.95864">
        <ele>470</ele>
        <time>2012-11-03T07:59:18Z</time>
      </trkpt>
      <trkpt lat="47.29315" lon="4.95858">
        <ele>469</ele>
        <time>2012-11-03T07:59:21Z</time>
      </trkpt>
      <trkpt lat="47.29315" lon="4.95858">
        <ele>469</ele>
        <time>2012-11-03T07:59:21Z</time>
      </trkpt>
      <trkpt lat="47.29315" lon="4.95858">
        <ele>469</ele>
        <time>2012-11-03T07:59:22Z</time>
      </trkpt>
      <trkpt lat="47.29311" lon="4.95853">
        <ele>468</ele>
        <time>2012-11-03T07:59:25Z</time>
      </trkpt>
      <trkpt lat="47.29305" lon="4.95847">
        <ele>466</ele>
        <time>2012-11-03T07:59:28Z</time>
      </trkpt>
      <trkpt lat="47.29302" lon="4.95841">
        <ele>465</ele>
        <time>2012-11-03T07:59:31Z</time>
      </trkpt>
      <trkpt lat="47.29298" lon="4.95836">
        <ele>464</ele>
        <time>2012-11-03T07:59:34Z</time>
      </trkpt>
      <trkpt lat="47.29295" lon="4.95829">
        <ele>465</ele>
        <time>2012-11-03T07:59:37Z</time>
      </trkpt>
      <trkpt lat="47.29293" lon="4.95821">
        <ele>463</ele>
        <time>2012-11-03T07:59:40Z</time>
      </trkpt>
      <trkpt lat="47.29293" lon="4.95813">
        <ele>463</ele>
        <time>2012-11-03T07:59:43Z</time>
      </trkpt>
      <trkpt lat="47.29289" lon="4.95805">
        <ele>462</ele>
        <time>2012-11-03T07:59:48Z</time>
      </trkpt>
      <trkpt lat="47.29286" lon="4.95798">
        <ele>462</ele>
        <time>2012-11-03T07:59:52Z</time>
      </trkpt>
      <trkpt lat="47.29284" lon="4.95789">
        <ele>463</ele>
        <time>2012-11-03T07:59:56Z</time>
      </trkpt>
      <trkpt lat="47.2928" lon="4.95786">
        <ele>462</ele>
        <time>2012-11-03T07:59:59Z</time>
      </trkpt>
      <trkpt lat="47.29276" lon="4.95781">
        <ele>463</ele>
        <time>2012-11-03T08:00:04Z</time>
      </trkpt>
      <trkpt lat="47.29273" lon="4.95775">
        <ele>464</ele>
        <time>2012-11-03T08:00:10Z</time>
      </trkpt>
      <trkpt lat="47.29268" lon="4.95772">
        <ele>466</ele>
        <time>2012-11-03T08:00:14Z</time>
      </trkpt>
      <trkpt lat="47.29266" lon="4.95766">
        <ele>466</ele>
        <time>2012-11-03T08:00:17Z</time>
      </trkpt>
      <trkpt lat="47.29264" lon="4.95758">
        <ele>465</ele>
        <time>2012-11-03T08:00:21Z</time>
      </trkpt>
      <trkpt lat="47.29262" lon="4.95752">
        <ele>469</ele>
        <time>2012-11-03T08:00:27Z</time>
      </trkpt>
      <trkpt lat="47.29258" lon="4.95746">
        <ele>468</ele>
        <time>2012-11-03T08:00:31Z</time>
      </trkpt>
      <trkpt lat="47.29258" lon="4.95739">
        <ele>469</ele>
        <time>2012-11-03T08:00:36Z</time>
      </trkpt>
      <trkpt lat="47.29256" lon="4.95732">
        <ele>468</ele>
        <time>2012-11-03T08:00:42Z</time>
      </trkpt>
      <trkpt lat="47.29256" lon="4.95724">
        <ele>468</ele>
        <time>2012-11-03T08:00:46Z</time>
      </trkpt>
      <trkpt lat="47.29254" lon="4.95718">
        <ele>467</ele>
        <time>2012-11-03T08:00:51Z</time>
      </trkpt>
      <trkpt lat="47.29252" lon="4.95711">
        <ele>466</ele>
        <time>2012-11-03T08:00:54Z</time>
      </trkpt>
      <trkpt lat="47.29248" lon="4.95706">
        <ele>466</ele>
        <time>2012-11-03T08:00:57Z</time>
      </trkpt>
      <trkpt lat="47.29248" lon="4.95699">
        <ele>465</ele>
        <time>2012-11-03T08:01:00Z</time>
      </trkpt>
      <trkpt lat="47.29248" lon="4.95699">
        <ele>465</ele>
        <time>2012-11-03T08:01:00Z</time>
      </trkpt>
      <trkpt lat="47.29248" lon="4.95699">
        <ele>466</ele>
        <time>2012-11-03T08:01:01Z</time>
      </trkpt>
      <trkpt lat="47.29247" lon="4.95689">
        <ele>463</ele>
        <time>2012-11-03T08:01:13Z</time>
      </trkpt>
      <trkpt lat="47.29246" lon="4.95681">
        <ele>461</ele>
        <time>2012-11-03T08:01:15Z</time>
      </trkpt>
      <trkpt lat="47.29242" lon="4.95673">
        <ele>461</ele>
        <time>2012-11-03T08:01:17Z</time>
      </trkpt>
      <trkpt lat="47.29241" lon="4.95666">
        <ele>460</ele>
        <time>2012-11-03T08:01:19Z</time>
      </trkpt>
      <trkpt lat="47.29237" lon="4.95658">
        <ele>459</ele>
        <time>2012-11-03T08:01:22Z</time>
      </trkpt>
      <trkpt lat="47.29236" lon="4.9565">
        <ele>459</ele>
        <time>2012-11-03T08:01:25Z</time>
      </trkpt>
      <trkpt lat="47.29235" lon="4.9564">
        <ele>461</ele>
        <time>2012-11-03T08:01:29Z</time>
      </trkpt>
      <trkpt lat="47.2923" lon="4.95634">
        <ele>461</ele>
        <time>2012-11-03T08:01:32Z</time>
      </trkpt>
      <trkpt lat="47.29227" lon="4.95625">
        <ele>461</ele>
        <time>2012-11-03T08:01:36Z</time>
      </trkpt>
      <trkpt lat="47.29226" lon="4.95615">
        <ele>461</ele>
        <time>2012-11-03T08:01:39Z</time>
      </trkpt>
      <trkpt lat="47.29224" lon="4.95607">
        <ele>460</ele>
        <time>2012-11-03T08:01:43Z</time>
      </trkpt>
      <trkpt lat="47.29222" lon="4.956">
        <ele>466</ele>
        <time>2012-11-03T08:01:49Z</time>
      </trkpt>
      <trkpt lat="47.2922" lon="4.95592">
        <ele>467</ele>
        <time>2012-11-03T08:01:53Z</time>
      </trkpt>
      <trkpt lat="47.29217" lon="4.95586">
        <ele>467</ele>
        <time>2012-11-03T08:01:56Z</time>
      </trkpt>
      <trkpt lat="47.29214" lon="4.95578">
        <ele>469</ele>
        <time>2012-11-03T08:02:01Z</time>
      </trkpt>
      <trkpt lat="47.2921" lon="4.95572">
        <ele>472</ele>
        <time>2012-11-03T08:02:06Z</time>
      </trkpt>
      <trkpt lat="47.2921" lon="4.95565">
        <ele>472</ele>
        <time>2012-11-03T08:02:09Z</time>
      </trkpt>
      <trkpt lat="47.29207" lon="4.95558">
        <ele>472</ele>
        <time>2012-11-03T08:02:13Z</time>
      </trkpt>
      <trkpt lat="47.29204" lon="4.95552">
        <ele>471</ele>
        <time>2012-11-03T08:02:16Z</time>
      </trkpt>
      <trkpt lat="47.29204" lon="4.95545">
        <ele>471</ele>
        <time>2012-11-03T08:02:20Z</time>
      </trkpt>
      <trkpt lat="47.29204" lon="4.95538">
        <ele>471</ele>
        <time>2012-11-03T08:02:23Z</time>
      </trkpt>
      <trkpt lat="47.29203" lon="4.95531">
        <ele>471</ele>
        <time>2012-11-03T08:02:26Z</time>
      </trkpt>
      <trkpt lat="47.29202" lon="4.95524">
        <ele>472</ele>
        <time>2012-11-03T08:02:30Z</time>
      </trkpt>
      <trkpt lat="47.29202" lon="4.95516">
        <ele>474</ele>
        <time>2012-11-03T08:02:35Z</time>
      </trkpt>
      <trkpt lat="47.29202" lon="4.95509">
        <ele>474</ele>
        <time>2012-11-03T08:02:39Z</time>
      </trkpt>
      <trkpt lat="47.29201" lon="4.95499">
        <ele>473</ele>
        <time>2012-11-03T08:02:43Z</time>
      </trkpt>
      <trkpt lat="47.29198" lon="4.95493">
        <ele>473</ele>
        <time>2012-11-03T08:02:46Z</time>
      </trkpt>
      <trkpt lat="47.29196" lon="4.95484">
        <ele>472</ele>
        <time>2012-11-03T08:02:50Z</time>
      </trkpt>
      <trkpt lat="47.29197" lon="4.95477">
        <ele>472</ele>
        <time>2012-11-03T08:02:53Z</time>
      </trkpt>
      <trkpt lat="47.29192" lon="4.95471">
        <ele>472</ele>
        <time>2012-11-03T08:02:57Z</time>
      </trkpt>
      <trkpt lat="47.29188" lon="4.95465">
        <ele>471</ele>
        <time>2012-11-03T08:03:00Z</time>
      </trkpt>
      <trkpt lat="47.29185" lon="4.9546">
        <ele>471</ele>
        <time>2012-11-03T08:03:03Z</time>
      </trkpt>
      <trkpt lat="47.29182" lon="4.95453">
        <ele>472</ele>
        <time>2012-11-03T08:03:06Z</time>
      </trkpt>
      <trkpt lat="47.29178" lon="4.95448">
        <ele>474</ele>
        <time>2012-11-03T08:03:11Z</time>
      </trkpt>
      <trkpt lat="47.29175" lon="4.95442">
        <ele>475</ele>
        <time>2012-11-03T08:03:18Z</time>
      </trkpt>
      <trkpt lat="47.29171" lon="4.95439">
        <ele>481</ele>
        <time>2012-11-03T08:03:26Z</time>
      </trkpt>
      <trkpt lat="47.29167" lon="4.95434">
        <ele>480</ele>
        <time>2012-11-03T08:03:30Z</time>
      </trkpt>
      <trkpt lat="47.29162" lon="4.95431">
        <ele>479</ele>
        <time>2012-11-03T08:03:33Z</time>
      </trkpt>
      <trkpt lat="47.29157" lon="4.95428">
        <ele>479</ele>
        <time>2012-11-03T08:03:36Z</time>
      </trkpt>
      <trkpt lat="47.29152" lon="4.95429">
        <ele>478</ele>
        <time>2012-11-03T08:03:39Z</time>
      </trkpt>
      <trkpt lat="47.29147" lon="4.95429">
        <ele>478</ele>
        <time>2012-11-03T08:03:43Z</time>
      </trkpt>
      <trkpt lat="47.29142" lon="4.95429">
        <ele>479</ele>
        <time>2012-11-03T08:03:48Z</time>
      </trkpt>
      <trkpt lat="47.29135" lon="4.95429">
        <ele>477</ele>
        <time>2012-11-03T08:03:52Z</time>
      </trkpt>
      <trkpt lat="47.2913" lon="4.95429">
        <ele>476</ele>
        <time>2012-11-03T08:03:55Z</time>
      </trkpt>
      <trkpt lat="47.29123" lon="4.9543">
        <ele>476</ele>
        <time>2012-11-03T08:03:58Z</time>
      </trkpt>
      <trkpt lat="47.29118" lon="4.95429">
        <ele>476</ele>
        <time>2012-11-03T08:04:01Z</time>
      </trkpt>
      <trkpt lat="47.29113" lon="4.95426">
        <ele>475</ele>
        <time>2012-11-03T08:04:05Z</time>
      </trkpt>
      <trkpt lat="47.29108" lon="4.95425">
        <ele>475</ele>
        <time>2012-11-03T08:04:08Z</time>
      </trkpt>
      <trkpt lat="47.29104" lon="4.95422">
        <ele>476</ele>
        <time>2012-11-03T08:04:11Z</time>
      </trkpt>
      <trkpt lat="47.29099" lon="4.9542">
        <ele>476</ele>
        <time>2012-11-03T08:04:15Z</time>
      </trkpt>
      <trkpt lat="47.29094" lon="4.95416">
        <ele>475</ele>
        <time>2012-11-03T08:04:20Z</time>
      </trkpt>
      <trkpt lat="47.2909" lon="4.95411">
        <ele>475</ele>
        <time>2012-11-03T08:04:24Z</time>
      </trkpt>
      <trkpt lat="47.29086" lon="4.95406">
        <ele>474</ele>
        <time>2012-11-03T08:04:27Z</time>
      </trkpt>
      <trkpt lat="47.29082" lon="4.95402">
        <ele>474</ele>
        <time>2012-11-03T08:04:30Z</time>
      </trkpt>
      <trkpt lat="47.29076" lon="4.95398">
        <ele>476</ele>
        <time>2012-11-03T08:04:36Z</time>
      </trkpt>
      <trkpt lat="47.29071" lon="4.95393">
        <ele>477</ele>
        <time>2012-11-03T08:04:39Z</time>
      </trkpt>
      <trkpt lat="47.29066" lon="4.9539">
        <ele>478</ele>
        <time>2012-11-03T08:04:42Z</time>
      </trkpt>
      <trkpt lat="47.29062" lon="4.95387">
        <ele>479</ele>
        <time>2012-11-03T08:04:45Z</time>
      </trkpt>
      <trkpt lat="47.29058" lon="4.95384">
        <ele>480</ele>
        <time>2012-11-03T08:04:48Z</time>
      </trkpt>
      <trkpt lat="47.29052" lon="4.95382">
        <ele>480</ele>
        <time>2012-11-03T08:04:53Z</time>
      </trkpt>
      <trkpt lat="47.29047" lon="4.95379">
        <ele>481</ele>
        <time>2012-11-03T08:04:57Z</time>
      </trkpt>
      <trkpt lat="47.29042" lon="4.95375">
        <ele>481</ele>
        <time>2012-11-03T08:05:00Z</time>
      </trkpt>
      <trkpt lat="47.29038" lon="4.9537">
        <ele>481</ele>
        <time>2012-11-03T08:05:03Z</time>
      </trkpt>
      <trkpt lat="47.29034" lon="4.95367">
        <ele>485</ele>
        <time>2012-11-03T08:05:08Z</time>
      </trkpt>
      <trkpt lat="47.2903" lon="4.95362">
        <ele>485</ele>
        <time>2012-11-03T08:05:12Z</time>
      </trkpt>
      <trkpt lat="47.29027" lon="4.95357">
        <ele>485</ele>
        <time>2012-11-03T08:05:16Z</time>
      </trkpt>
      <trkpt lat="47.29022" lon="4.95353">
        <ele>484</ele>
        <time>2012-11-03T08:05:19Z</time>
      </trkpt>
      <trkpt lat="47.29019" lon="4.95349">
        <ele>483</ele>
        <time>2012-11-03T08:05:23Z</time>
      </trkpt>
      <trkpt lat="47.29017" lon="4.95341">
        <ele>484</ele>
        <time>2012-11-03T08:05:28Z</time>
      </trkpt>
      <trkpt lat="47.29013" lon="4.95336">
        <ele>483</ele>
        <time>2012-11-03T08:05:31Z</time>
      </trkpt>
      <trkpt lat="47.2901" lon="4.9534">
        <ele>479</ele>
        <time>2012-11-03T08:05:59Z</time>
      </trkpt>
      <trkpt lat="47.29005" lon="4.95344">
        <ele>479</ele>
        <time>2012-11-03T08:06:04Z</time>
      </trkpt>
      <trkpt lat="47.29002" lon="4.95365">
        <ele>479</ele>
        <time>2012-11-03T08:06:15Z</time>
      </trkpt>
      <trkpt lat="47.28997" lon="4.95373">
        <ele>479</ele>
        <time>2012-11-03T08:06:18Z</time>
      </trkpt>
      <trkpt lat="47.28991" lon="4.95378">
        <ele>476</ele>
        <time>2012-11-03T08:06:20Z</time>
      </trkpt>
      <trkpt lat="47.28987" lon="4.95379">
        <ele>476</ele>
        <time>2012-11-03T08:06:24Z</time>
      </trkpt>
      <trkpt lat="47.28981" lon="4.95377">
        <ele>476</ele>
        <time>2012-11-03T08:06:28Z</time>
      </trkpt>
      <trkpt lat="47.28977" lon="4.95374">
        <ele>474</ele>
        <time>2012-11-03T08:06:31Z</time>
      </trkpt>
      <trkpt lat="47.28972" lon="4.95374">
        <ele>475</ele>
        <time>2012-11-03T08:06:34Z</time>
      </trkpt>
      <trkpt lat="47.28965" lon="4.95374">
        <ele>476</ele>
        <time>2012-11-03T08:06:38Z</time>
      </trkpt>
      <trkpt lat="47.2896" lon="4.95372">
        <ele>475</ele>
        <time>2012-11-03T08:06:41Z</time>
      </trkpt>
      <trkpt lat="47.28954" lon="4.95369">
        <ele>476</ele>
        <time>2012-11-03T08:06:44Z</time>
      </trkpt>
      <trkpt lat="47.28948" lon="4.95366">
        <ele>478</ele>
        <time>2012-11-03T08:06:47Z</time>
      </trkpt>
      <trkpt lat="47.28944" lon="4.95359">
        <ele>479</ele>
        <time>2012-11-03T08:06:51Z</time>
      </trkpt>
      <trkpt lat="47.28941" lon="4.95352">
        <ele>480</ele>
        <time>2012-11-03T08:06:55Z</time>
      </trkpt>
      <trkpt lat="47.28936" lon="4.95351">
        <ele>481</ele>
        <time>2012-11-03T08:07:00Z</time>
      </trkpt>
      <trkpt lat="47.28929" lon="4.9535">
        <ele>481</ele>
        <time>2012-11-03T08:07:03Z</time>
      </trkpt>
      <trkpt lat="47.28924" lon="4.95347">
        <ele>482</ele>
        <time>2012-11-03T08:07:06Z</time>
      </trkpt>
      <trkpt lat="47.2892" lon="4.95343">
        <ele>482</ele>
        <time>2012-11-03T08:07:09Z</time>
      </trkpt>
      <trkpt lat="47.28914" lon="4.95338">
        <ele>481</ele>
        <time>2012-11-03T08:07:13Z</time>
      </trkpt>
      <trkpt lat="47.28909" lon="4.95335">
        <ele>481</ele>
        <time>2012-11-03T08:07:16Z</time>
      </trkpt>
      <trkpt lat="47.28904" lon="4.95332">
        <ele>481</ele>
        <time>2012-11-03T08:07:19Z</time>
      </trkpt>
      <trkpt lat="47.289" lon="4.95328">
        <ele>479</ele>
        <time>2012-11-03T08:07:20Z</time>
      </trkpt>
      <trkpt lat="47.28896" lon="4.95324">
        <ele>479</ele>
        <time>2012-11-03T08:07:22Z</time>
      </trkpt>
      <trkpt lat="47.28897" lon="4.95316">
        <ele>480</ele>
        <time>2012-11-03T08:07:27Z</time>
      </trkpt>
      <trkpt lat="47.28889" lon="4.95308">
        <ele>478</ele>
        <time>2012-11-03T08:07:32Z</time>
      </trkpt>
      <trkpt lat="47.28884" lon="4.95302">
        <ele>478</ele>
        <time>2012-11-03T08:07:35Z</time>
      </trkpt>
      <trkpt lat="47.28881" lon="4.95297">
        <ele>479</ele>
        <time>2012-11-03T08:07:38Z</time>
      </trkpt>
      <trkpt lat="47.28879" lon="4.9529">
        <ele>480</ele>
        <time>2012-11-03T08:07:43Z</time>
      </trkpt>
      <trkpt lat="47.28873" lon="4.95286">
        <ele>482</ele>
        <time>2012-11-03T08:07:47Z</time>
      </trkpt>
      <trkpt lat="47.28868" lon="4.95283">
        <ele>486</ele>
        <time>2012-11-03T08:07:50Z</time>
      </trkpt>
      <trkpt lat="47.28865" lon="4.95277">
        <ele>489</ele>
        <time>2012-11-03T08:07:54Z</time>
      </trkpt>
      <trkpt lat="47.2886" lon="4.95272">
        <ele>489</ele>
        <time>2012-11-03T08:07:58Z</time>
      </trkpt>
      <trkpt lat="47.28855" lon="4.95272">
        <ele>489</ele>
        <time>2012-11-03T08:08:02Z</time>
      </trkpt>
      <trkpt lat="47.28848" lon="4.9527">
        <ele>488</ele>
        <time>2012-11-03T08:08:04Z</time>
      </trkpt>
      <trkpt lat="47.28843" lon="4.95264">
        <ele>486</ele>
        <time>2012-11-03T08:08:06Z</time>
      </trkpt>
      <trkpt lat="47.28842" lon="4.95255">
        <ele>486</ele>
        <time>2012-11-03T08:08:09Z</time>
      </trkpt>
      <trkpt lat="47.28842" lon="4.95248">
        <ele>486</ele>
        <time>2012-11-03T08:08:13Z</time>
      </trkpt>
      <trkpt lat="47.2884" lon="4.95241">
        <ele>484</ele>
        <time>2012-11-03T08:08:16Z</time>
      </trkpt>
      <trkpt lat="47.2884" lon="4.95234">
        <ele>484</ele>
        <time>2012-11-03T08:08:19Z</time>
      </trkpt>
      <trkpt lat="47.2884" lon="4.95227">
        <ele>484</ele>
        <time>2012-11-03T08:08:22Z</time>
      </trkpt>
      <trkpt lat="47.28841" lon="4.9522">
        <ele>484</ele>
        <time>2012-11-03T08:08:25Z</time>
      </trkpt>
      <trkpt lat="47.2884" lon="4.95212">
        <ele>484</ele>
        <time>2012-11-03T08:08:29Z</time>
      </trkpt>
      <trkpt lat="47.28839" lon="4.95203">
        <ele>485</ele>
        <time>2012-11-03T08:08:33Z</time>
      </trkpt>
      <trkpt lat="47.28837" lon="4.95196">
        <ele>485</ele>
        <time>2012-11-03T08:08:37Z</time>
      </trkpt>
      <trkpt lat="47.28837" lon="4.95186">
        <ele>487</ele>
        <time>2012-11-03T08:08:41Z</time>
      </trkpt>
      <trkpt lat="47.28833" lon="4.9518">
        <ele>487</ele>
        <time>2012-11-03T08:08:44Z</time>
      </trkpt>
      <trkpt lat="47.28829" lon="4.95175">
        <ele>488</ele>
        <time>2012-11-03T08:08:49Z</time>
      </trkpt>
      <trkpt lat="47.28826" lon="4.95168">
        <ele>488</ele>
        <time>2012-11-03T08:08:53Z</time>
      </trkpt>
      <trkpt lat="47.28824" lon="4.95163">
        <ele>489</ele>
        <time>2012-11-03T08:08:57Z</time>
      </trkpt>
      <trkpt lat="47.28821" lon="4.95157">
        <ele>490</ele>
        <time>2012-11-03T08:09:00Z</time>
      </trkpt>
      <trkpt lat="47.28817" lon="4.95151">
        <ele>491</ele>
        <time>2012-11-03T08:09:03Z</time>
      </trkpt>
      <trkpt lat="47.28813" lon="4.95147">
        <ele>491</ele>
        <time>2012-11-03T08:09:06Z</time>
      </trkpt>
      <trkpt lat="47.2881" lon="4.95143">
        <ele>491</ele>
        <time>2012-11-03T08:09:09Z</time>
      </trkpt>
      <trkpt lat="47.28808" lon="4.95135">
        <ele>492</ele>
        <time>2012-11-03T08:09:13Z</time>
      </trkpt>
      <trkpt lat="47.28809" lon="4.95129">
        <ele>491</ele>
        <time>2012-11-03T08:09:24Z</time>
      </trkpt>
      <trkpt lat="47.28806" lon="4.95124">
        <ele>492</ele>
        <time>2012-11-03T08:09:32Z</time>
      </trkpt>
      <trkpt lat="47.28801" lon="4.95131">
        <ele>490</ele>
        <time>2012-11-03T08:09:37Z</time>
      </trkpt>
      <trkpt lat="47.28795" lon="4.95131">
        <ele>490</ele>
        <time>2012-11-03T08:09:40Z</time>
      </trkpt>
      <trkpt lat="47.28789" lon="4.95127">
        <ele>488</ele>
        <time>2012-11-03T08:09:44Z</time>
      </trkpt>
      <trkpt lat="47.28784" lon="4.95123">
        <ele>486</ele>
        <time>2012-11-03T08:09:46Z</time>
      </trkpt>
      <trkpt lat="47.28783" lon="4.95114">
        <ele>487</ele>
        <time>2012-11-03T08:09:52Z</time>
      </trkpt>
      <trkpt lat="47.28781" lon="4.95108">
        <ele>488</ele>
        <time>2012-11-03T08:09:55Z</time>
      </trkpt>
      <trkpt lat="47.28775" lon="4.95105">
        <ele>489</ele>
        <time>2012-11-03T08:09:58Z</time>
      </trkpt>
      <trkpt lat="47.28776" lon="4.95097">
        <ele>490</ele>
        <time>2012-11-03T08:10:02Z</time>
      </trkpt>
      <trkpt lat="47.28776" lon="4.95097">
        <ele>490</ele>
        <time>2012-11-03T08:10:02Z</time>
      </trkpt>
      <trkpt lat="47.28776" lon="4.95097">
        <ele>490</ele>
        <time>2012-11-03T08:10:04Z</time>
      </trkpt>
      <trkpt lat="47.28772" lon="4.95092">
        <ele>490</ele>
        <time>2012-11-03T08:10:08Z</time>
      </trkpt>
      <trkpt lat="47.28767" lon="4.95088">
        <ele>490</ele>
        <time>2012-11-03T08:10:11Z</time>
      </trkpt>
      <trkpt lat="47.28764" lon="4.95081">
        <ele>491</ele>
        <time>2012-11-03T08:10:14Z</time>
      </trkpt>
      <trkpt lat="47.28759" lon="4.95079">
        <ele>492</ele>
        <time>2012-11-03T08:10:18Z</time>
      </trkpt>
      <trkpt lat="47.28754" lon="4.95079">
        <ele>492</ele>
        <time>2012-11-03T08:10:20Z</time>
      </trkpt>
      <trkpt lat="47.2875" lon="4.95082">
        <ele>493</ele>
        <time>2012-11-03T08:10:22Z</time>
      </trkpt>
      <trkpt lat="47.28743" lon="4.95084">
        <ele>492</ele>
        <time>2012-11-03T08:10:24Z</time>
      </trkpt>
      <trkpt lat="47.28738" lon="4.95081">
        <ele>491</ele>
        <time>2012-11-03T08:10:26Z</time>
      </trkpt>
      <trkpt lat="47.28733" lon="4.95079">
        <ele>491</ele>
        <time>2012-11-03T08:10:30Z</time>
      </trkpt>
      <trkpt lat="47.28727" lon="4.95076">
        <ele>492</ele>
        <time>2012-11-03T08:10:38Z</time>
      </trkpt>
      <trkpt lat="47.28722" lon="4.95077">
        <ele>492</ele>
        <time>2012-11-03T08:10:41Z</time>
      </trkpt>
      <trkpt lat="47.28717" lon="4.95082">
        <ele>491</ele>
        <time>2012-11-03T08:10:43Z</time>
      </trkpt>
      <trkpt lat="47.2871" lon="4.95083">
        <ele>492</ele>
        <time>2012-11-03T08:10:45Z</time>
      </trkpt>
      <trkpt lat="47.28704" lon="4.9508">
        <ele>491</ele>
        <time>2012-11-03T08:10:48Z</time>
      </trkpt>
      <trkpt lat="47.28698" lon="4.95076">
        <ele>492</ele>
        <time>2012-11-03T08:10:53Z</time>
      </trkpt>
      <trkpt lat="47.28693" lon="4.95074">
        <ele>494</ele>
        <time>2012-11-03T08:10:57Z</time>
      </trkpt>
      <trkpt lat="47.28687" lon="4.95072">
        <ele>496</ele>
        <time>2012-11-03T08:11:11Z</time>
      </trkpt>
      <trkpt lat="47.28681" lon="4.95071">
        <ele>497</ele>
        <time>2012-11-03T08:11:15Z</time>
      </trkpt>
      <trkpt lat="47.28675" lon="4.95072">
        <ele>498</ele>
        <time>2012-11-03T08:11:19Z</time>
      </trkpt>
      <trkpt lat="47.2867" lon="4.95072">
        <ele>498</ele>
        <time>2012-11-03T08:11:22Z</time>
      </trkpt>
      <trkpt lat="47.28664" lon="4.95076">
        <ele>500</ele>
        <time>2012-11-03T08:11:26Z</time>
      </trkpt>
      <trkpt lat="47.28662" lon="4.95082">
        <ele>501</ele>
        <time>2012-11-03T08:11:29Z</time>
      </trkpt>
      <trkpt lat="47.28659" lon="4.95087">
        <ele>503</ele>
        <time>2012-11-03T08:11:32Z</time>
      </trkpt>
      <trkpt lat="47.28654" lon="4.95091">
        <ele>502</ele>
        <time>2012-11-03T08:11:36Z</time>
      </trkpt>
      <trkpt lat="47.2865" lon="4.95093">
        <ele>503</ele>
        <time>2012-11-03T08:11:39Z</time>
      </trkpt>
      <trkpt lat="47.28645" lon="4.95097">
        <ele>503</ele>
        <time>2012-11-03T08:11:41Z</time>
      </trkpt>
      <trkpt lat="47.2864" lon="4.95102">
        <ele>503</ele>
        <time>2012-11-03T08:11:44Z</time>
      </trkpt>
      <trkpt lat="47.28634" lon="4.95105">
        <ele>504</ele>
        <time>2012-11-03T08:11:47Z</time>
      </trkpt>
      <trkpt lat="47.2863" lon="4.95112">
        <ele>505</ele>
        <time>2012-11-03T08:11:50Z</time>
      </trkpt>
      <trkpt lat="47.28627" lon="4.95116">
        <ele>507</ele>
        <time>2012-11-03T08:11:54Z</time>
      </trkpt>
      <trkpt lat="47.28621" lon="4.9512">
        <ele>507</ele>
        <time>2012-11-03T08:11:57Z</time>
      </trkpt>
      <trkpt lat="47.28616" lon="4.95123">
        <ele>507</ele>
        <time>2012-11-03T08:12:00Z</time>
      </trkpt>
      <trkpt lat="47.28612" lon="4.95127">
        <ele>506</ele>
        <time>2012-11-03T08:12:03Z</time>
      </trkpt>
      <trkpt lat="47.28608" lon="4.95132">
        <ele>506</ele>
        <time>2012-11-03T08:12:07Z</time>
      </trkpt>
      <trkpt lat="47.28604" lon="4.95135">
        <ele>505</ele>
        <time>2012-11-03T08:12:10Z</time>
      </trkpt>
      <trkpt lat="47.286" lon="4.95139">
        <ele>506</ele>
        <time>2012-11-03T08:12:13Z</time>
      </trkpt>
      <trkpt lat="47.28596" lon="4.95142">
        <ele>505</ele>
        <time>2012-11-03T08:12:16Z</time>
      </trkpt>
      <trkpt lat="47.28589" lon="4.95149">
        <ele>505</ele>
        <time>2012-11-03T08:12:20Z</time>
      </trkpt>
      <trkpt lat="47.28584" lon="4.95153">
        <ele>504</ele>
        <time>2012-11-03T08:12:23Z</time>
      </trkpt>
      <trkpt lat="47.28578" lon="4.95156">
        <ele>503</ele>
        <time>2012-11-03T08:12:27Z</time>
      </trkpt>
      <trkpt lat="47.28574" lon="4.9516">
        <ele>503</ele>
        <time>2012-11-03T08:12:30Z</time>
      </trkpt>
      <trkpt lat="47.28569" lon="4.95163">
        <ele>504</ele>
        <time>2012-11-03T08:12:33Z</time>
      </trkpt>
      <trkpt lat="47.28565" lon="4.95166">
        <ele>504</ele>
        <time>2012-11-03T08:12:36Z</time>
      </trkpt>
      <trkpt lat="47.28561" lon="4.95171">
        <ele>503</ele>
        <time>2012-11-03T08:12:39Z</time>
      </trkpt>
      <trkpt lat="47.28557" lon="4.95176">
        <ele>504</ele>
        <time>2012-11-03T08:12:42Z</time>
      </trkpt>
      <trkpt lat="47.2855" lon="4.95179">
        <ele>504</ele>
        <time>2012-11-03T08:12:45Z</time>
      </trkpt>
      <trkpt lat="47.28545" lon="4.95181">
        <ele>503</ele>
        <time>2012-11-03T08:12:48Z</time>
      </trkpt>
      <trkpt lat="47.28541" lon="4.95186">
        <ele>503</ele>
        <time>2012-11-03T08:12:51Z</time>
      </trkpt>
      <trkpt lat="47.28538" lon="4.95193">
        <ele>503</ele>
        <time>2012-11-03T08:12:55Z</time>
      </trkpt>
      <trkpt lat="47.28532" lon="4.95197">
        <ele>503</ele>
        <time>2012-11-03T08:12:58Z</time>
      </trkpt>
      <trkpt lat="47.28526" lon="4.95202">
        <ele>502</ele>
        <time>2012-11-03T08:13:02Z</time>
      </trkpt>
      <trkpt lat="47.28522" lon="4.95206">
        <ele>502</ele>
        <time>2012-11-03T08:13:05Z</time>
      </trkpt>
      <trkpt lat="47.28517" lon="4.95211">
        <ele>501</ele>
        <time>2012-11-03T08:13:09Z</time>
      </trkpt>
      <trkpt lat="47.2851" lon="4.95212">
        <ele>501</ele>
        <time>2012-11-03T08:13:13Z</time>
      </trkpt>
      <trkpt lat="47.28507" lon="4.95218">
        <ele>502</ele>
        <time>2012-11-03T08:13:17Z</time>
      </trkpt>
      <trkpt lat="47.28503" lon="4.95222">
        <ele>502</ele>
        <time>2012-11-03T08:13:21Z</time>
      </trkpt>
      <trkpt lat="47.28498" lon="4.95226">
        <ele>503</ele>
        <time>2012-11-03T08:13:24Z</time>
      </trkpt>
      <trkpt lat="47.28492" lon="4.95227">
        <ele>503</ele>
        <time>2012-11-03T08:13:27Z</time>
      </trkpt>
      <trkpt lat="47.28486" lon="4.9523">
        <ele>503</ele>
        <time>2012-11-03T08:13:30Z</time>
      </trkpt>
      <trkpt lat="47.28478" lon="4.95233">
        <ele>504</ele>
        <time>2012-11-03T08:13:32Z</time>
      </trkpt>
      <trkpt lat="47.28474" lon="4.95237">
        <ele>504</ele>
        <time>2012-11-03T08:13:34Z</time>
      </trkpt>
      <trkpt lat="47.28469" lon="4.9524">
        <ele>504</ele>
        <time>2012-11-03T08:13:37Z</time>
      </trkpt>
      <trkpt lat="47.28467" lon="4.95246">
        <ele>505</ele>
        <time>2012-11-03T08:13:40Z</time>
      </trkpt>
      <trkpt lat="47.28462" lon="4.9525">
        <ele>506</ele>
        <time>2012-11-03T08:13:44Z</time>
      </trkpt>
      <trkpt lat="47.2846" lon="4.95256">
        <ele>506</ele>
        <time>2012-11-03T08:13:46Z</time>
      </trkpt>
      <trkpt lat="47.28456" lon="4.9526">
        <ele>505</ele>
        <time>2012-11-03T08:13:48Z</time>
      </trkpt>
      <trkpt lat="47.28452" lon="4.95265">
        <ele>506</ele>
        <time>2012-11-03T08:13:51Z</time>
      </trkpt>
      <trkpt lat="47.28449" lon="4.95271">
        <ele>507</ele>
        <time>2012-11-03T08:13:53Z</time>
      </trkpt>
      <trkpt lat="47.28444" lon="4.95275">
        <ele>507</ele>
        <time>2012-11-03T08:13:56Z</time>
      </trkpt>
      <trkpt lat="47.28438" lon="4.95278">
        <ele>506</ele>
        <time>2012-11-03T08:13:59Z</time>
      </trkpt>
      <trkpt lat="47.28433" lon="4.9528">
        <ele>506</ele>
        <time>2012-11-03T08:14:02Z</time>
      </trkpt>
      <trkpt lat="47.28429" lon="4.95282">
        <ele>505</ele>
        <time>2012-11-03T08:14:05Z</time>
      </trkpt>
      <trkpt lat="47.28425" lon="4.95285">
        <ele>504</ele>
        <time>2012-11-03T08:14:07Z</time>
      </trkpt>
      <trkpt lat="47.28421" lon="4.9529">
        <ele>503</ele>
        <time>2012-11-03T08:14:10Z</time>
      </trkpt>
      <trkpt lat="47.28416" lon="4.95296">
        <ele>502</ele>
        <time>2012-11-03T08:14:13Z</time>
      </trkpt>
      <trkpt lat="47.28413" lon="4.95302">
        <ele>502</ele>
        <time>2012-11-03T08:14:16Z</time>
      </trkpt>
      <trkpt lat="47.28407" lon="4.95305">
        <ele>501</ele>
        <time>2012-11-03T08:14:20Z</time>
      </trkpt>
      <trkpt lat="47.28403" lon="4.9531">
        <ele>501</ele>
        <time>2012-11-03T08:14:22Z</time>
      </trkpt>
      <trkpt lat="47.28397" lon="4.95313">
        <ele>501</ele>
        <time>2012-11-03T08:14:25Z</time>
      </trkpt>
      <trkpt lat="47.28393" lon="4.95317">
        <ele>499</ele>
        <time>2012-11-03T08:14:28Z</time>
      </trkpt>
      <trkpt lat="47.28391" lon="4.95325">
        <ele>496</ele>
        <time>2012-11-03T08:14:31Z</time>
      </trkpt>
      <trkpt lat="47.28386" lon="4.95328">
        <ele>497</ele>
        <time>2012-11-03T08:14:38Z</time>
      </trkpt>
      <trkpt lat="47.28382" lon="4.95326">
        <ele>497</ele>
        <time>2012-11-03T08:14:50Z</time>
      </trkpt>
      <trkpt lat="47.28377" lon="4.95332">
        <ele>497</ele>
        <time>2012-11-03T08:16:29Z</time>
      </trkpt>
      <trkpt lat="47.28372" lon="4.95335">
        <ele>498</ele>
        <time>2012-11-03T08:16:50Z</time>
      </trkpt>
      <trkpt lat="47.28366" lon="4.95338">
        <ele>496</ele>
        <time>2012-11-03T08:16:53Z</time>
      </trkpt>
      <trkpt lat="47.2836" lon="4.95342">
        <ele>493</ele>
        <time>2012-11-03T08:16:56Z</time>
      </trkpt>
      <trkpt lat="47.28357" lon="4.95347">
        <ele>494</ele>
        <time>2012-11-03T08:17:00Z</time>
      </trkpt>
      <trkpt lat="47.28351" lon="4.95353">
        <ele>494</ele>
        <time>2012-11-03T08:17:05Z</time>
      </trkpt>
      <trkpt lat="47.28348" lon="4.95358">
        <ele>494</ele>
        <time>2012-11-03T08:17:11Z</time>
      </trkpt>
      <trkpt lat="47.28344" lon="4.95362">
        <ele>492</ele>
        <time>2012-11-03T08:17:15Z</time>
      </trkpt>
      <trkpt lat="47.28336" lon="4.95363">
        <ele>486</ele>
        <time>2012-11-03T08:19:15Z</time>
      </trkpt>
      <trkpt lat="47.28338" lon="4.95357">
        <ele>492</ele>
        <time>2012-11-03T08:19:50Z</time>
      </trkpt>
      <trkpt lat="47.28342" lon="4.95354">
        <ele>495</ele>
        <time>2012-11-03T08:19:56Z</time>
      </trkpt>
      <trkpt lat="47.28346" lon="4.95346">
        <ele>493</ele>
        <time>2012-11-03T08:20:06Z</time>
      </trkpt>
      <trkpt lat="47.2835" lon="4.95342">
        <ele>491</ele>
        <time>2012-11-03T08:20:09Z</time>
      </trkpt>
      <trkpt lat="47.28352" lon="4.95335">
        <ele>492</ele>
        <time>2012-11-03T08:20:13Z</time>
      </trkpt>
      <trkpt lat="47.28353" lon="4.95327">
        <ele>487</ele>
        <time>2012-11-03T08:20:18Z</time>
      </trkpt>
      <trkpt lat="47.28354" lon="4.9532">
        <ele>486</ele>
        <time>2012-11-03T08:20:22Z</time>
      </trkpt>
      <trkpt lat="47.28352" lon="4.95312">
        <ele>488</ele>
        <time>2012-11-03T08:20:26Z</time>
      </trkpt>
      <trkpt lat="47.28349" lon="4.95306">
        <ele>488</ele>
        <time>2012-11-03T08:20:29Z</time>
      </trkpt>
      <trkpt lat="47.28347" lon="4.953">
        <ele>488</ele>
        <time>2012-11-03T08:20:33Z</time>
      </trkpt>
      <trkpt lat="47.28344" lon="4.95295">
        <ele>490</ele>
        <time>2012-11-03T08:20:36Z</time>
      </trkpt>
      <trkpt lat="47.28341" lon="4.95289">
        <ele>492</ele>
        <time>2012-11-03T08:20:41Z</time>
      </trkpt>
      <trkpt lat="47.28338" lon="4.95283">
        <ele>494</ele>
        <time>2012-11-03T08:20:45Z</time>
      </trkpt>
      <trkpt lat="47.28335" lon="4.95277">
        <ele>495</ele>
        <time>2012-11-03T08:20:48Z</time>
      </trkpt>
      <trkpt lat="47.28331" lon="4.95273">
        <ele>495</ele>
        <time>2012-11-03T08:20:50Z</time>
      </trkpt>
      <trkpt lat="47.28329" lon="4.95267">
        <ele>495</ele>
        <time>2012-11-03T08:20:53Z</time>
      </trkpt>
      <trkpt lat="47.28328" lon="4.95258">
        <ele>496</ele>
        <time>2012-11-03T08:20:59Z</time>
      </trkpt>
      <trkpt lat="47.28326" lon="4.95248">
        <ele>495</ele>
        <time>2012-11-03T08:21:02Z</time>
      </trkpt>
      <trkpt lat="47.28324" lon="4.95241">
        <ele>494</ele>
        <time>2012-11-03T08:21:05Z</time>
      </trkpt>
      <trkpt lat="47.2832" lon="4.95234">
        <ele>494</ele>
        <time>2012-11-03T08:21:07Z</time>
      </trkpt>
      <trkpt lat="47.28316" lon="4.95231">
        <ele>494</ele>
        <time>2012-11-03T08:21:09Z</time>
      </trkpt>
      <trkpt lat="47.28312" lon="4.95223">
        <ele>493</ele>
        <time>2012-11-03T08:21:12Z</time>
      </trkpt>
      <trkpt lat="47.2831" lon="4.95215">
        <ele>495</ele>
        <time>2012-11-03T08:21:15Z</time>
      </trkpt>
      <trkpt lat="47.28307" lon="4.95208">
        <ele>496</ele>
        <time>2012-11-03T08:21:18Z</time>
      </trkpt>
      <trkpt lat="47.28304" lon="4.952">
        <ele>495</ele>
        <time>2012-11-03T08:21:21Z</time>
      </trkpt>
      <trkpt lat="47.28301" lon="4.95194">
        <ele>494</ele>
        <time>2012-11-03T08:21:24Z</time>
      </trkpt>
      <trkpt lat="47.28299" lon="4.95186">
        <ele>494</ele>
        <time>2012-11-03T08:21:27Z</time>
      </trkpt>
      <trkpt lat="47.28297" lon="4.95179">
        <ele>493</ele>
        <time>2012-11-03T08:21:30Z</time>
      </trkpt>
      <trkpt lat="47.28295" lon="4.95172">
        <ele>492</ele>
        <time>2012-11-03T08:21:33Z</time>
      </trkpt>
      <trkpt lat="47.28293" lon="4.95165">
        <ele>491</ele>
        <time>2012-11-03T08:21:36Z</time>
      </trkpt>
      <trkpt lat="47.2829" lon="4.9516">
        <ele>492</ele>
        <time>2012-11-03T08:21:40Z</time>
      </trkpt>
      <trkpt lat="47.28285" lon="4.95154">
        <ele>492</ele>
        <time>2012-11-03T08:21:43Z</time>
      </trkpt>
      <trkpt lat="47.28283" lon="4.95145">
        <ele>493</ele>
        <time>2012-11-03T08:21:47Z</time>
      </trkpt>
      <trkpt lat="47.2828" lon="4.95138">
        <ele>492</ele>
        <time>2012-11-03T08:21:50Z</time>
      </trkpt>
      <trkpt lat="47.28278" lon="4.95129">
        <ele>493</ele>
        <time>2012-11-03T08:21:53Z</time>
      </trkpt>
      <trkpt lat="47.28277" lon="4.95121">
        <ele>493</ele>
        <time>2012-11-03T08:21:57Z</time>
      </trkpt>
      <trkpt lat="47.28277" lon="4.95114">
        <ele>492</ele>
        <time>2012-11-03T08:21:59Z</time>
      </trkpt>
      <trkpt lat="47.28276" lon="4.95106">
        <ele>493</ele>
        <time>2012-11-03T08:22:03Z</time>
      </trkpt>
      <trkpt lat="47.28276" lon="4.95097">
        <ele>494</ele>
        <time>2012-11-03T08:22:07Z</time>
      </trkpt>
      <trkpt lat="47.28277" lon="4.95088">
        <ele>494</ele>
        <time>2012-11-03T08:22:11Z</time>
      </trkpt>
      <trkpt lat="47.28277" lon="4.95079">
        <ele>493</ele>
        <time>2012-11-03T08:22:15Z</time>
      </trkpt>
      <trkpt lat="47.28278" lon="4.9507">
        <ele>494</ele>
        <time>2012-11-03T08:22:19Z</time>
      </trkpt>
      <trkpt lat="47.2828" lon="4.95063">
        <ele>493</ele>
        <time>2012-11-03T08:22:21Z</time>
      </trkpt>
      <trkpt lat="47.28281" lon="4.95054">
        <ele>493</ele>
        <time>2012-11-03T08:22:24Z</time>
      </trkpt>
      <trkpt lat="47.28284" lon="4.95048">
        <ele>493</ele>
        <time>2012-11-03T08:22:26Z</time>
      </trkpt>
      <trkpt lat="47.28285" lon="4.9504">
        <ele>494</ele>
        <time>2012-11-03T08:22:29Z</time>
      </trkpt>
      <trkpt lat="47.28288" lon="4.95033">
        <ele>493</ele>
        <time>2012-11-03T08:22:32Z</time>
      </trkpt>
      <trkpt lat="47.2829" lon="4.95026">
        <ele>495</ele>
        <time>2012-11-03T08:22:35Z</time>
      </trkpt>
      <trkpt lat="47.28292" lon="4.9502">
        <ele>495</ele>
        <time>2012-11-03T08:22:38Z</time>
      </trkpt>
      <trkpt lat="47.28293" lon="4.9501">
        <ele>497</ele>
        <time>2012-11-03T08:22:42Z</time>
      </trkpt>
      <trkpt lat="47.28292" lon="4.95003">
        <ele>498</ele>
        <time>2012-11-03T08:22:46Z</time>
      </trkpt>
      <trkpt lat="47.28292" lon="4.94994">
        <ele>499</ele>
        <time>2012-11-03T08:22:49Z</time>
      </trkpt>
      <trkpt lat="47.28292" lon="4.94987">
        <ele>501</ele>
        <time>2012-11-03T08:22:54Z</time>
      </trkpt>
      <trkpt lat="47.2829" lon="4.9498">
        <ele>501</ele>
        <time>2012-11-03T08:22:57Z</time>
      </trkpt>
      <trkpt lat="47.2829" lon="4.94972">
        <ele>502</ele>
        <time>2012-11-03T08:23:00Z</time>
      </trkpt>
      <trkpt lat="47.28289" lon="4.94965">
        <ele>505</ele>
        <time>2012-11-03T08:23:03Z</time>
      </trkpt>
      <trkpt lat="47.28288" lon="4.94956">
        <ele>505</ele>
        <time>2012-11-03T08:23:09Z</time>
      </trkpt>
      <trkpt lat="47.28289" lon="4.94948">
        <ele>502</ele>
        <time>2012-11-03T08:23:11Z</time>
      </trkpt>
      <trkpt lat="47.28289" lon="4.94948">
        <ele>502</ele>
        <time>2012-11-03T08:23:11Z</time>
      </trkpt>
      <trkpt lat="47.28289" lon="4.94948">
        <ele>503</ele>
        <time>2012-11-03T08:23:12Z</time>
      </trkpt>
      <trkpt lat="47.28288" lon="4.94941">
        <ele>500</ele>
        <time>2012-11-03T08:23:29Z</time>
      </trkpt>
      <trkpt lat="47.28284" lon="4.94935">
        <ele>503</ele>
        <time>2012-11-03T08:23:33Z</time>
      </trkpt>
      <trkpt lat="47.28282" lon="4.94928">
        <ele>503</ele>
        <time>2012-11-03T08:23:37Z</time>
      </trkpt>
      <trkpt lat="47.28281" lon="4.94921">
        <ele>505</ele>
        <time>2012-11-03T08:23:41Z</time>
      </trkpt>
      <trkpt lat="47.28278" lon="4.94912">
        <ele>504</ele>
        <time>2012-11-03T08:23:44Z</time>
      </trkpt>
      <trkpt lat="47.28277" lon="4.94903">
        <ele>506</ele>
        <time>2012-11-03T08:23:47Z</time>
      </trkpt>
      <trkpt lat="47.28277" lon="4.94895">
        <ele>506</ele>
        <time>2012-11-03T08:23:50Z</time>
      </trkpt>
      <trkpt lat="47.28278" lon="4.94888">
        <ele>506</ele>
        <time>2012-11-03T08:23:52Z</time>
      </trkpt>
      <trkpt lat="47.2828" lon="4.94882">
        <ele>506</ele>
        <time>2012-11-03T08:23:55Z</time>
      </trkpt>
      <trkpt lat="47.28281" lon="4.94874">
        <ele>505</ele>
        <time>2012-11-03T08:23:58Z</time>
      </trkpt>
      <trkpt lat="47.28279" lon="4.94864">
        <ele>505</ele>
        <time>2012-11-03T08:24:01Z</time>
      </trkpt>
      <trkpt lat="47.28278" lon="4.94856">
        <ele>504</ele>
        <time>2012-11-03T08:24:04Z</time>
      </trkpt>
      <trkpt lat="47.28276" lon="4.94848">
        <ele>506</ele>
        <time>2012-11-03T08:24:08Z</time>
      </trkpt>
      <trkpt lat="47.28275" lon="4.94841">
        <ele>507</ele>
        <time>2012-11-03T08:24:10Z</time>
      </trkpt>
      <trkpt lat="47.28273" lon="4.94833">
        <ele>507</ele>
        <time>2012-11-03T08:24:14Z</time>
      </trkpt>
      <trkpt lat="47.2827" lon="4.94826">
        <ele>507</ele>
        <time>2012-11-03T08:24:17Z</time>
      </trkpt>
      <trkpt lat="47.28273" lon="4.94818">
        <ele>505</ele>
        <time>2012-11-03T08:24:19Z</time>
      </trkpt>
      <trkpt lat="47.28273" lon="4.94811">
        <ele>505</ele>
        <time>2012-11-03T08:24:21Z</time>
      </trkpt>
      <trkpt lat="47.28273" lon="4.94803">
        <ele>505</ele>
        <time>2012-11-03T08:24:24Z</time>
      </trkpt>
      <trkpt lat="47.28272" lon="4.94795">
        <ele>505</ele>
        <time>2012-11-03T08:24:27Z</time>
      </trkpt>
      <trkpt lat="47.2827" lon="4.94788">
        <ele>506</ele>
        <time>2012-11-03T08:24:31Z</time>
      </trkpt>
      <trkpt lat="47.28268" lon="4.94781">
        <ele>506</ele>
        <time>2012-11-03T08:24:35Z</time>
      </trkpt>
      <trkpt lat="47.28266" lon="4.94773">
        <ele>506</ele>
        <time>2012-11-03T08:24:39Z</time>
      </trkpt>
      <trkpt lat="47.28266" lon="4.94766">
        <ele>506</ele>
        <time>2012-11-03T08:24:41Z</time>
      </trkpt>
      <trkpt lat="47.28265" lon="4.94759">
        <ele>506</ele>
        <time>2012-11-03T08:24:44Z</time>
      </trkpt>
      <trkpt lat="47.28265" lon="4.9475">
        <ele>507</ele>
        <time>2012-11-03T08:24:47Z</time>
      </trkpt>
      <trkpt lat="47.28262" lon="4.94741">
        <ele>506</ele>
        <time>2012-11-03T08:24:51Z</time>
      </trkpt>
      <trkpt lat="47.28258" lon="4.94733">
        <ele>506</ele>
        <time>2012-11-03T08:24:54Z</time>
      </trkpt>
      <trkpt lat="47.28255" lon="4.94726">
        <ele>506</ele>
        <time>2012-11-03T08:24:56Z</time>
      </trkpt>
      <trkpt lat="47.28254" lon="4.94719">
        <ele>506</ele>
        <time>2012-11-03T08:25:00Z</time>
      </trkpt>
      <trkpt lat="47.28251" lon="4.94711">
        <ele>507</ele>
        <time>2012-11-03T08:25:04Z</time>
      </trkpt>
      <trkpt lat="47.2825" lon="4.94704">
        <ele>507</ele>
        <time>2012-11-03T08:25:07Z</time>
      </trkpt>
      <trkpt lat="47.28248" lon="4.94695">
        <ele>507</ele>
        <time>2012-11-03T08:25:12Z</time>
      </trkpt>
      <trkpt lat="47.28247" lon="4.94688">
        <ele>507</ele>
        <time>2012-11-03T08:25:14Z</time>
      </trkpt>
      <trkpt lat="47.28247" lon="4.9468">
        <ele>505</ele>
        <time>2012-11-03T08:25:16Z</time>
      </trkpt>
      <trkpt lat="47.28244" lon="4.94673">
        <ele>503</ele>
        <time>2012-11-03T08:25:20Z</time>
      </trkpt>
      <trkpt lat="47.28242" lon="4.94667">
        <ele>502</ele>
        <time>2012-11-03T08:25:24Z</time>
      </trkpt>
      <trkpt lat="47.2824" lon="4.94659">
        <ele>505</ele>
        <time>2012-11-03T08:25:30Z</time>
      </trkpt>
      <trkpt lat="47.28238" lon="4.94652">
        <ele>504</ele>
        <time>2012-11-03T08:25:35Z</time>
      </trkpt>
      <trkpt lat="47.28234" lon="4.94645">
        <ele>506</ele>
        <time>2012-11-03T08:25:38Z</time>
      </trkpt>
      <trkpt lat="47.28232" lon="4.94637">
        <ele>508</ele>
        <time>2012-11-03T08:25:40Z</time>
      </trkpt>
      <trkpt lat="47.28232" lon="4.94627">
        <ele>508</ele>
        <time>2012-11-03T08:25:48Z</time>
      </trkpt>
      <trkpt lat="47.28231" lon="4.9462">
        <ele>510</ele>
        <time>2012-11-03T08:25:51Z</time>
      </trkpt>
      <trkpt lat="47.28228" lon="4.94614">
        <ele>511</ele>
        <time>2012-11-03T08:25:54Z</time>
      </trkpt>
      <trkpt lat="47.28228" lon="4.94607">
        <ele>512</ele>
        <time>2012-11-03T08:26:00Z</time>
      </trkpt>
      <trkpt lat="47.28226" lon="4.946">
        <ele>512</ele>
        <time>2012-11-03T08:26:03Z</time>
      </trkpt>
      <trkpt lat="47.28222" lon="4.94592">
        <ele>510</ele>
        <time>2012-11-03T08:26:06Z</time>
      </trkpt>
      <trkpt lat="47.28223" lon="4.94585">
        <ele>508</ele>
        <time>2012-11-03T08:26:08Z</time>
      </trkpt>
      <trkpt lat="47.2822" lon="4.94578">
        <ele>509</ele>
        <time>2012-11-03T08:26:16Z</time>
      </trkpt>
      <trkpt lat="47.28218" lon="4.94571">
        <ele>508</ele>
        <time>2012-11-03T08:26:19Z</time>
      </trkpt>
      <trkpt lat="47.28214" lon="4.94564">
        <ele>508</ele>
        <time>2012-11-03T08:26:24Z</time>
      </trkpt>
      <trkpt lat="47.2821" lon="4.94561">
        <ele>508</ele>
        <time>2012-11-03T08:26:26Z</time>
      </trkpt>
      <trkpt lat="47.28209" lon="4.94553">
        <ele>508</ele>
        <time>2012-11-03T08:26:29Z</time>
      </trkpt>
      <trkpt lat="47.28206" lon="4.94545">
        <ele>508</ele>
        <time>2012-11-03T08:26:34Z</time>
      </trkpt>
      <trkpt lat="47.28204" lon="4.94536">
        <ele>507</ele>
        <time>2012-11-03T08:26:43Z</time>
      </trkpt>
      <trkpt lat="47.28202" lon="4.9453">
        <ele>507</ele>
        <time>2012-11-03T08:26:45Z</time>
      </trkpt>
      <trkpt lat="47.28201" lon="4.94523">
        <ele>506</ele>
        <time>2012-11-03T08:26:48Z</time>
      </trkpt>
      <trkpt lat="47.28199" lon="4.94516">
        <ele>506</ele>
        <time>2012-11-03T08:26:50Z</time>
      </trkpt>
      <trkpt lat="47.28198" lon="4.94509">
        <ele>506</ele>
        <time>2012-11-03T08:26:53Z</time>
      </trkpt>
      <trkpt lat="47.28194" lon="4.94502">
        <ele>504</ele>
        <time>2012-11-03T08:26:56Z</time>
      </trkpt>
      <trkpt lat="47.2819" lon="4.94498">
        <ele>504</ele>
        <time>2012-11-03T08:27:01Z</time>
      </trkpt>
      <trkpt lat="47.28189" lon="4.94491">
        <ele>505</ele>
        <time>2012-11-03T08:27:04Z</time>
      </trkpt>
      <trkpt lat="47.28188" lon="4.94483">
        <ele>506</ele>
        <time>2012-11-03T08:27:07Z</time>
      </trkpt>
      <trkpt lat="47.28185" lon="4.94476">
        <ele>505</ele>
        <time>2012-11-03T08:27:12Z</time>
      </trkpt>
      <trkpt lat="47.28181" lon="4.94468">
        <ele>505</ele>
        <time>2012-11-03T08:27:15Z</time>
      </trkpt>
      <trkpt lat="47.28179" lon="4.94461">
        <ele>504</ele>
        <time>2012-11-03T08:27:18Z</time>
      </trkpt>
      <trkpt lat="47.2818" lon="4.94452">
        <ele>504</ele>
        <time>2012-11-03T08:27:21Z</time>
      </trkpt>
      <trkpt lat="47.28178" lon="4.94442">
        <ele>503</ele>
        <time>2012-11-03T08:27:28Z</time>
      </trkpt>
      <trkpt lat="47.28173" lon="4.94436">
        <ele>503</ele>
        <time>2012-11-03T08:27:31Z</time>
      </trkpt>
      <trkpt lat="47.2817" lon="4.94429">
        <ele>504</ele>
        <time>2012-11-03T08:27:33Z</time>
      </trkpt>
      <trkpt lat="47.28168" lon="4.94423">
        <ele>504</ele>
        <time>2012-11-03T08:27:37Z</time>
      </trkpt>
      <trkpt lat="47.28166" lon="4.94415">
        <ele>504</ele>
        <time>2012-11-03T08:27:40Z</time>
      </trkpt>
      <trkpt lat="47.28165" lon="4.94407">
        <ele>503</ele>
        <time>2012-11-03T08:27:43Z</time>
      </trkpt>
      <trkpt lat="47.28164" lon="4.944">
        <ele>503</ele>
        <time>2012-11-03T08:27:45Z</time>
      </trkpt>
      <trkpt lat="47.28165" lon="4.94391">
        <ele>505</ele>
        <time>2012-11-03T08:27:52Z</time>
      </trkpt>
      <trkpt lat="47.28162" lon="4.94385">
        <ele>506</ele>
        <time>2012-11-03T08:27:58Z</time>
      </trkpt>
      <trkpt lat="47.28158" lon="4.94378">
        <ele>506</ele>
        <time>2012-11-03T08:28:02Z</time>
      </trkpt>
      <trkpt lat="47.28154" lon="4.94372">
        <ele>506</ele>
        <time>2012-11-03T08:28:05Z</time>
      </trkpt>
      <trkpt lat="47.2815" lon="4.9437">
        <ele>507</ele>
        <time>2012-11-03T08:28:09Z</time>
      </trkpt>
      <trkpt lat="47.28146" lon="4.94365">
        <ele>508</ele>
        <time>2012-11-03T08:28:13Z</time>
      </trkpt>
      <trkpt lat="47.28142" lon="4.9436">
        <ele>509</ele>
        <time>2012-11-03T08:28:16Z</time>
      </trkpt>
      <trkpt lat="47.28138" lon="4.94353">
        <ele>510</ele>
        <time>2012-11-03T08:28:18Z</time>
      </trkpt>
      <trkpt lat="47.28135" lon="4.94346">
        <ele>509</ele>
        <time>2012-11-03T08:28:22Z</time>
      </trkpt>
      <trkpt lat="47.28134" lon="4.94339">
        <ele>508</ele>
        <time>2012-11-03T08:28:28Z</time>
      </trkpt>
      <trkpt lat="47.28131" lon="4.94333">
        <ele>507</ele>
        <time>2012-11-03T08:28:33Z</time>
      </trkpt>
      <trkpt lat="47.28127" lon="4.94328">
        <ele>507</ele>
        <time>2012-11-03T08:28:37Z</time>
      </trkpt>
      <trkpt lat="47.28123" lon="4.94323">
        <ele>508</ele>
        <time>2012-11-03T08:28:42Z</time>
      </trkpt>
      <trkpt lat="47.28118" lon="4.94319">
        <ele>505</ele>
        <time>2012-11-03T08:28:46Z</time>
      </trkpt>
      <trkpt lat="47.28113" lon="4.94318">
        <ele>505</ele>
        <time>2012-11-03T08:28:49Z</time>
      </trkpt>
      <trkpt lat="47.28107" lon="4.94317">
        <ele>503</ele>
        <time>2012-11-03T08:28:53Z</time>
      </trkpt>
      <trkpt lat="47.28102" lon="4.94317">
        <ele>503</ele>
        <time>2012-11-03T08:28:56Z</time>
      </trkpt>
      <trkpt lat="47.281" lon="4.94311">
        <ele>503</ele>
        <time>2012-11-03T08:28:59Z</time>
      </trkpt>
      <trkpt lat="47.28096" lon="4.94305">
        <ele>501</ele>
        <time>2012-11-03T08:29:03Z</time>
      </trkpt>
      <trkpt lat="47.28094" lon="4.94297">
        <ele>499</ele>
        <time>2012-11-03T08:29:08Z</time>
      </trkpt>
      <trkpt lat="47.28094" lon="4.94289">
        <ele>499</ele>
        <time>2012-11-03T08:29:12Z</time>
      </trkpt>
      <trkpt lat="47.2809" lon="4.94283">
        <ele>497</ele>
        <time>2012-11-03T08:29:15Z</time>
      </trkpt>
      <trkpt lat="47.28085" lon="4.9428">
        <ele>496</ele>
        <time>2012-11-03T08:29:18Z</time>
      </trkpt>
      <trkpt lat="47.28078" lon="4.94281">
        <ele>497</ele>
        <time>2012-11-03T08:29:46Z</time>
      </trkpt>
      <trkpt lat="47.28077" lon="4.94288">
        <ele>501</ele>
        <time>2012-11-03T08:30:34Z</time>
      </trkpt>
      <trkpt lat="47.2808" lon="4.94293">
        <ele>502</ele>
        <time>2012-11-03T08:30:37Z</time>
      </trkpt>
      <trkpt lat="47.28085" lon="4.94297">
        <ele>504</ele>
        <time>2012-11-03T08:30:41Z</time>
      </trkpt>
      <trkpt lat="47.28085" lon="4.94304">
        <ele>506</ele>
        <time>2012-11-03T08:30:44Z</time>
      </trkpt>
      <trkpt lat="47.2809" lon="4.94306">
        <ele>506</ele>
        <time>2012-11-03T08:30:49Z</time>
      </trkpt>
      <trkpt lat="47.28091" lon="4.94314">
        <ele>509</ele>
        <time>2012-11-03T08:30:55Z</time>
      </trkpt>
      <trkpt lat="47.28094" lon="4.94322">
        <ele>508</ele>
        <time>2012-11-03T08:30:58Z</time>
      </trkpt>
      <trkpt lat="47.28097" lon="4.94328">
        <ele>510</ele>
        <time>2012-11-03T08:31:01Z</time>
      </trkpt>
      <trkpt lat="47.28098" lon="4.94335">
        <ele>512</ele>
        <time>2012-11-03T08:31:04Z</time>
      </trkpt>
      <trkpt lat="47.281" lon="4.94342">
        <ele>513</ele>
        <time>2012-11-03T08:31:07Z</time>
      </trkpt>
      <trkpt lat="47.28105" lon="4.94347">
        <ele>513</ele>
        <time>2012-11-03T08:31:11Z</time>
      </trkpt>
      <trkpt lat="47.28108" lon="4.94354">
        <ele>513</ele>
        <time>2012-11-03T08:31:15Z</time>
      </trkpt>
      <trkpt lat="47.28111" lon="4.9436">
        <ele>512</ele>
        <time>2012-11-03T08:31:17Z</time>
      </trkpt>
      <trkpt lat="47.28115" lon="4.94365">
        <ele>513</ele>
        <time>2012-11-03T08:31:19Z</time>
      </trkpt>
      <trkpt lat="47.28117" lon="4.94373">
        <ele>513</ele>
        <time>2012-11-03T08:31:24Z</time>
      </trkpt>
      <trkpt lat="47.28119" lon="4.94379">
        <ele>512</ele>
        <time>2012-11-03T08:31:27Z</time>
      </trkpt>
      <trkpt lat="47.28122" lon="4.94384">
        <ele>514</ele>
        <time>2012-11-03T08:31:30Z</time>
      </trkpt>
      <trkpt lat="47.28125" lon="4.94389">
        <ele>515</ele>
        <time>2012-11-03T08:31:32Z</time>
      </trkpt>
      <trkpt lat="47.28125" lon="4.94396">
        <ele>515</ele>
        <time>2012-11-03T08:31:36Z</time>
      </trkpt>
      <trkpt lat="47.28127" lon="4.94402">
        <ele>515</ele>
        <time>2012-11-03T08:31:38Z</time>
      </trkpt>
      <trkpt lat="47.2813" lon="4.94408">
        <ele>517</ele>
        <time>2012-11-03T08:31:41Z</time>
      </trkpt>
      <trkpt lat="47.28132" lon="4.94415">
        <ele>518</ele>
        <time>2012-11-03T08:31:45Z</time>
      </trkpt>
      <trkpt lat="47.28136" lon="4.9442">
        <ele>518</ele>
        <time>2012-11-03T08:31:48Z</time>
      </trkpt>
      <trkpt lat="47.28138" lon="4.94426">
        <ele>518</ele>
        <time>2012-11-03T08:31:51Z</time>
      </trkpt>
      <trkpt lat="47.28143" lon="4.94431">
        <ele>518</ele>
        <time>2012-11-03T08:31:53Z</time>
      </trkpt>
      <trkpt lat="47.28144" lon="4.94439">
        <ele>518</ele>
        <time>2012-11-03T08:31:55Z</time>
      </trkpt>
      <trkpt lat="47.28148" lon="4.94445">
        <ele>520</ele>
        <time>2012-11-03T08:31:57Z</time>
      </trkpt>
      <trkpt lat="47.2815" lon="4.94454">
        <ele>519</ele>
        <time>2012-11-03T08:31:59Z</time>
      </trkpt>
      <trkpt lat="47.28148" lon="4.94461">
        <ele>517</ele>
        <time>2012-11-03T08:32:02Z</time>
      </trkpt>
      <trkpt lat="47.28147" lon="4.94469">
        <ele>515</ele>
        <time>2012-11-03T08:32:06Z</time>
      </trkpt>
      <trkpt lat="47.28148" lon="4.94475">
        <ele>513</ele>
        <time>2012-11-03T08:32:10Z</time>
      </trkpt>
      <trkpt lat="47.28151" lon="4.94482">
        <ele>513</ele>
        <time>2012-11-03T08:32:12Z</time>
      </trkpt>
      <trkpt lat="47.28151" lon="4.94489">
        <ele>513</ele>
        <time>2012-11-03T08:32:15Z</time>
      </trkpt>
      <trkpt lat="47.2815" lon="4.94496">
        <ele>510</ele>
        <time>2012-11-03T08:32:18Z</time>
      </trkpt>
      <trkpt lat="47.28148" lon="4.94502">
        <ele>508</ele>
        <time>2012-11-03T08:32:21Z</time>
      </trkpt>
      <trkpt lat="47.2815" lon="4.94511">
        <ele>511</ele>
        <time>2012-11-03T08:32:24Z</time>
      </trkpt>
      <trkpt lat="47.28152" lon="4.94517">
        <ele>511</ele>
        <time>2012-11-03T08:32:28Z</time>
      </trkpt>
      <trkpt lat="47.28152" lon="4.94524">
        <ele>515</ele>
        <time>2012-11-03T08:32:35Z</time>
      </trkpt>
      <trkpt lat="47.28152" lon="4.94533">
        <ele>516</ele>
        <time>2012-11-03T08:32:46Z</time>
      </trkpt>
      <trkpt lat="47.28154" lon="4.9454">
        <ele>517</ele>
        <time>2012-11-03T08:32:48Z</time>
      </trkpt>
      <trkpt lat="47.28155" lon="4.9455">
        <ele>515</ele>
        <time>2012-11-03T08:32:50Z</time>
      </trkpt>
      <trkpt lat="47.28157" lon="4.94557">
        <ele>516</ele>
        <time>2012-11-03T08:32:52Z</time>
      </trkpt>
      <trkpt lat="47.28159" lon="4.94564">
        <ele>517</ele>
        <time>2012-11-03T08:32:53Z</time>
      </trkpt>
      <trkpt lat="47.28159" lon="4.94574">
        <ele>517</ele>
        <time>2012-11-03T08:32:56Z</time>
      </trkpt>
      <trkpt lat="47.28158" lon="4.94581">
        <ele>516</ele>
        <time>2012-11-03T08:33:00Z</time>
      </trkpt>
      <trkpt lat="47.28158" lon="4.94588">
        <ele>517</ele>
        <time>2012-11-03T08:33:02Z</time>
      </trkpt>
      <trkpt lat="47.28157" lon="4.94596">
        <ele>518</ele>
        <time>2012-11-03T08:33:05Z</time>
      </trkpt>
      <trkpt lat="47.28158" lon="4.94605">
        <ele>518</ele>
        <time>2012-11-03T08:33:08Z</time>
      </trkpt>
      <trkpt lat="47.2816" lon="4.94611">
        <ele>516</ele>
        <time>2012-11-03T08:33:10Z</time>
      </trkpt>
      <trkpt lat="47.28162" lon="4.94618">
        <ele>516</ele>
        <time>2012-11-03T08:33:12Z</time>
      </trkpt>
      <trkpt lat="47.28163" lon="4.94626">
        <ele>517</ele>
        <time>2012-11-03T08:33:14Z</time>
      </trkpt>
      <trkpt lat="47.28164" lon="4.94635">
        <ele>516</ele>
        <time>2012-11-03T08:33:17Z</time>
      </trkpt>
      <trkpt lat="47.28164" lon="4.94642">
        <ele>515</ele>
        <time>2012-11-03T08:33:25Z</time>
      </trkpt>
      <trkpt lat="47.28167" lon="4.9465">
        <ele>515</ele>
        <time>2012-11-03T08:33:40Z</time>
      </trkpt>
      <trkpt lat="47.2817" lon="4.94657">
        <ele>515</ele>
        <time>2012-11-03T08:33:41Z</time>
      </trkpt>
      <trkpt lat="47.28174" lon="4.9467">
        <ele>514</ele>
        <time>2012-11-03T08:33:43Z</time>
      </trkpt>
      <trkpt lat="47.28173" lon="4.94676">
        <ele>515</ele>
        <time>2012-11-03T08:33:45Z</time>
      </trkpt>
      <trkpt lat="47.28171" lon="4.94686">
        <ele>515</ele>
        <time>2012-11-03T08:33:48Z</time>
      </trkpt>
      <trkpt lat="47.28171" lon="4.94693">
        <ele>514</ele>
        <time>2012-11-03T08:33:52Z</time>
      </trkpt>
      <trkpt lat="47.28174" lon="4.94706">
        <ele>513</ele>
        <time>2012-11-03T08:33:56Z</time>
      </trkpt>
      <trkpt lat="47.28174" lon="4.94716">
        <ele>511</ele>
        <time>2012-11-03T08:33:58Z</time>
      </trkpt>
      <trkpt lat="47.28176" lon="4.94724">
        <ele>510</ele>
        <time>2012-11-03T08:34:00Z</time>
      </trkpt>
      <trkpt lat="47.28178" lon="4.94734">
        <ele>508</ele>
        <time>2012-11-03T08:34:04Z</time>
      </trkpt>
      <trkpt lat="47.28179" lon="4.94744">
        <ele>506</ele>
        <time>2012-11-03T08:34:08Z</time>
      </trkpt>
      <trkpt lat="47.28181" lon="4.94752">
        <ele>505</ele>
        <time>2012-11-03T08:34:13Z</time>
      </trkpt>
      <trkpt lat="47.28182" lon="4.94758">
        <ele>505</ele>
        <time>2012-11-03T08:34:17Z</time>
      </trkpt>
      <trkpt lat="47.2818" lon="4.94769">
        <ele>504</ele>
        <time>2012-11-03T08:34:19Z</time>
      </trkpt>
      <trkpt lat="47.28181" lon="4.94777">
        <ele>504</ele>
        <time>2012-11-03T08:34:21Z</time>
      </trkpt>
      <trkpt lat="47.28183" lon="4.94788">
        <ele>503</ele>
        <time>2012-11-03T08:34:23Z</time>
      </trkpt>
      <trkpt lat="47.28184" lon="4.94799">
        <ele>503</ele>
        <time>2012-11-03T08:34:25Z</time>
      </trkpt>
      <trkpt lat="47.28182" lon="4.94809">
        <ele>500</ele>
        <time>2012-11-03T08:34:27Z</time>
      </trkpt>
      <trkpt lat="47.28184" lon="4.94816">
        <ele>499</ele>
        <time>2012-11-03T08:34:34Z</time>
      </trkpt>
      <trkpt lat="47.28186" lon="4.94821">
        <ele>500</ele>
        <time>2012-11-03T08:34:35Z</time>
      </trkpt>
      <trkpt lat="47.28185" lon="4.9483">
        <ele>498</ele>
        <time>2012-11-03T08:34:38Z</time>
      </trkpt>
      <trkpt lat="47.28183" lon="4.94848">
        <ele>499</ele>
        <time>2012-11-03T08:34:50Z</time>
      </trkpt>
      <trkpt lat="47.28182" lon="4.94862">
        <ele>499</ele>
        <time>2012-11-03T08:34:52Z</time>
      </trkpt>
      <trkpt lat="47.28181" lon="4.94869">
        <ele>499</ele>
        <time>2012-11-03T08:34:54Z</time>
      </trkpt>
      <trkpt lat="47.2818" lon="4.94875">
        <ele>497</ele>
        <time>2012-11-03T08:35:15Z</time>
      </trkpt>
      <trkpt lat="47.28178" lon="4.94883">
        <ele>495</ele>
        <time>2012-11-03T08:35:18Z</time>
      </trkpt>
      <trkpt lat="47.28168" lon="4.94944">
        <ele>496</ele>
        <time>2012-11-03T08:35:20Z</time>
      </trkpt>
      <trkpt lat="47.28166" lon="4.9495">
        <ele>494</ele>
        <time>2012-11-03T08:35:22Z</time>
      </trkpt>
      <trkpt lat="47.28166" lon="4.94959">
        <ele>492</ele>
        <time>2012-11-03T08:35:26Z</time>
      </trkpt>
      <trkpt lat="47.28166" lon="4.94968">
        <ele>489</ele>
        <time>2012-11-03T08:35:31Z</time>
      </trkpt>
      <trkpt lat="47.28166" lon="4.94977">
        <ele>487</ele>
        <time>2012-11-03T08:35:33Z</time>
      </trkpt>
      <trkpt lat="47.28165" lon="4.94984">
        <ele>486</ele>
        <time>2012-11-03T08:35:35Z</time>
      </trkpt>
      <trkpt lat="47.28164" lon="4.94992">
        <ele>484</ele>
        <time>2012-11-03T08:35:44Z</time>
      </trkpt>
      <trkpt lat="47.28161" lon="4.95004">
        <ele>485</ele>
        <time>2012-11-03T08:36:02Z</time>
      </trkpt>
      <trkpt lat="47.2816" lon="4.95011">
        <ele>485</ele>
        <time>2012-11-03T08:36:03Z</time>
      </trkpt>
      <trkpt lat="47.28162" lon="4.9502">
        <ele>486</ele>
        <time>2012-11-03T08:36:04Z</time>
      </trkpt>
      <trkpt lat="47.2816" lon="4.95032">
        <ele>485</ele>
        <time>2012-11-03T08:36:06Z</time>
      </trkpt>
      <trkpt lat="47.2816" lon="4.95042">
        <ele>485</ele>
        <time>2012-11-03T08:36:08Z</time>
      </trkpt>
      <trkpt lat="47.2816" lon="4.95049">
        <ele>484</ele>
        <time>2012-11-03T08:36:10Z</time>
      </trkpt>
      <trkpt lat="47.28159" lon="4.95058">
        <ele>485</ele>
        <time>2012-11-03T08:36:12Z</time>
      </trkpt>
      <trkpt lat="47.28156" lon="4.95064">
        <ele>484</ele>
        <time>2012-11-03T08:36:14Z</time>
      </trkpt>
      <trkpt lat="47.28155" lon="4.95071">
        <ele>482</ele>
        <time>2012-11-03T08:36:16Z</time>
      </trkpt>
      <trkpt lat="47.28154" lon="4.95078">
        <ele>480</ele>
        <time>2012-11-03T08:36:18Z</time>
      </trkpt>
      <trkpt lat="47.28151" lon="4.95085">
        <ele>477</ele>
        <time>2012-11-03T08:36:21Z</time>
      </trkpt>
      <trkpt lat="47.28149" lon="4.95092">
        <ele>477</ele>
        <time>2012-11-03T08:36:24Z</time>
      </trkpt>
      <trkpt lat="47.28148" lon="4.951">
        <ele>476</ele>
        <time>2012-11-03T08:36:26Z</time>
      </trkpt>
      <trkpt lat="47.28148" lon="4.95107">
        <ele>474</ele>
        <time>2012-11-03T08:36:30Z</time>
      </trkpt>
      <trkpt lat="47.28148" lon="4.95114">
        <ele>473</ele>
        <time>2012-11-03T08:36:35Z</time>
      </trkpt>
      <trkpt lat="47.28146" lon="4.95121">
        <ele>472</ele>
        <time>2012-11-03T08:36:36Z</time>
      </trkpt>
      <trkpt lat="47.28145" lon="4.95129">
        <ele>472</ele>
        <time>2012-11-03T08:36:38Z</time>
      </trkpt>
      <trkpt lat="47.28146" lon="4.95136">
        <ele>470</ele>
        <time>2012-11-03T08:36:40Z</time>
      </trkpt>
      <trkpt lat="47.28143" lon="4.95142">
        <ele>470</ele>
        <time>2012-11-03T08:36:42Z</time>
      </trkpt>
      <trkpt lat="47.2814" lon="4.9515">
        <ele>470</ele>
        <time>2012-11-03T08:36:45Z</time>
      </trkpt>
      <trkpt lat="47.28138" lon="4.95157">
        <ele>467</ele>
        <time>2012-11-03T08:36:47Z</time>
      </trkpt>
      <trkpt lat="47.28143" lon="4.9516">
        <ele>466</ele>
        <time>2012-11-03T08:36:52Z</time>
      </trkpt>
      <trkpt lat="47.28138" lon="4.95166">
        <ele>470</ele>
        <time>2012-11-03T08:36:55Z</time>
      </trkpt>
      <trkpt lat="47.28138" lon="4.95166">
        <ele>470</ele>
        <time>2012-11-03T08:36:55Z</time>
      </trkpt>
      <trkpt lat="47.28138" lon="4.95166">
        <ele>470</ele>
        <time>2012-11-03T08:36:56Z</time>
      </trkpt>
      <trkpt lat="47.28137" lon="4.95173">
        <ele>466</ele>
        <time>2012-11-03T08:37:04Z</time>
      </trkpt>
      <trkpt lat="47.28136" lon="4.95181">
        <ele>466</ele>
        <time>2012-11-03T08:37:13Z</time>
      </trkpt>
      <trkpt lat="47.28135" lon="4.95188">
        <ele>465</ele>
        <time>2012-11-03T08:37:14Z</time>
      </trkpt>
      <trkpt lat="47.28135" lon="4.95199">
        <ele>466</ele>
        <time>2012-11-03T08:37:16Z</time>
      </trkpt>
      <trkpt lat="47.28135" lon="4.95208">
        <ele>463</ele>
        <time>2012-11-03T08:37:18Z</time>
      </trkpt>
      <trkpt lat="47.28135" lon="4.95216">
        <ele>464</ele>
        <time>2012-11-03T08:37:20Z</time>
      </trkpt>
      <trkpt lat="47.28135" lon="4.95223">
        <ele>464</ele>
        <time>2012-11-03T08:37:22Z</time>
      </trkpt>
      <trkpt lat="47.28136" lon="4.95236">
        <ele>464</ele>
        <time>2012-11-03T08:37:24Z</time>
      </trkpt>
      <trkpt lat="47.28136" lon="4.95244">
        <ele>463</ele>
        <time>2012-11-03T08:37:26Z</time>
      </trkpt>
      <trkpt lat="47.28135" lon="4.9525">
        <ele>462</ele>
        <time>2012-11-03T08:37:29Z</time>
      </trkpt>
      <trkpt lat="47.28136" lon="4.95257">
        <ele>463</ele>
        <time>2012-11-03T08:37:32Z</time>
      </trkpt>
      <trkpt lat="47.28136" lon="4.95267">
        <ele>464</ele>
        <time>2012-11-03T08:37:35Z</time>
      </trkpt>
      <trkpt lat="47.2814" lon="4.95272">
        <ele>463</ele>
        <time>2012-11-03T08:37:38Z</time>
      </trkpt>
      <trkpt lat="47.28142" lon="4.95278">
        <ele>465</ele>
        <time>2012-11-03T08:37:42Z</time>
      </trkpt>
      <trkpt lat="47.28145" lon="4.95287">
        <ele>462</ele>
        <time>2012-11-03T08:37:48Z</time>
      </trkpt>
      <trkpt lat="47.28146" lon="4.95293">
        <ele>462</ele>
        <time>2012-11-03T08:37:53Z</time>
      </trkpt>
      <trkpt lat="47.28146" lon="4.95307">
        <ele>458</ele>
        <time>2012-11-03T08:38:13Z</time>
      </trkpt>
      <trkpt lat="47.28146" lon="4.95317">
        <ele>458</ele>
        <time>2012-11-03T08:38:14Z</time>
      </trkpt>
      <trkpt lat="47.28149" lon="4.95327">
        <ele>460</ele>
        <time>2012-11-03T08:38:15Z</time>
      </trkpt>
      <trkpt lat="47.28151" lon="4.95335">
        <ele>461</ele>
        <time>2012-11-03T08:38:18Z</time>
      </trkpt>
      <trkpt lat="47.28153" lon="4.95342">
        <ele>460</ele>
        <time>2012-11-03T08:38:22Z</time>
      </trkpt>
      <trkpt lat="47.28158" lon="4.95355">
        <ele>455</ele>
        <time>2012-11-03T08:38:28Z</time>
      </trkpt>
      <trkpt lat="47.2816" lon="4.95363">
        <ele>453</ele>
        <time>2012-11-03T08:38:29Z</time>
      </trkpt>
      <trkpt lat="47.28163" lon="4.95369">
        <ele>452</ele>
        <time>2012-11-03T08:38:30Z</time>
      </trkpt>
      <trkpt lat="47.28165" lon="4.95374">
        <ele>452</ele>
        <time>2012-11-03T08:38:31Z</time>
      </trkpt>
      <trkpt lat="47.28169" lon="4.95383">
        <ele>452</ele>
        <time>2012-11-03T08:38:33Z</time>
      </trkpt>
      <trkpt lat="47.28175" lon="4.95392">
        <ele>453</ele>
        <time>2012-11-03T08:38:36Z</time>
      </trkpt>
      <trkpt lat="47.28179" lon="4.95396">
        <ele>452</ele>
        <time>2012-11-03T08:38:38Z</time>
      </trkpt>
      <trkpt lat="47.28184" lon="4.95404">
        <ele>453</ele>
        <time>2012-11-03T08:38:41Z</time>
      </trkpt>
      <trkpt lat="47.28185" lon="4.9541">
        <ele>454</ele>
        <time>2012-11-03T08:38:44Z</time>
      </trkpt>
      <trkpt lat="47.28186" lon="4.95417">
        <ele>453</ele>
        <time>2012-11-03T08:38:49Z</time>
      </trkpt>
      <trkpt lat="47.2819" lon="4.95426">
        <ele>453</ele>
        <time>2012-11-03T08:38:52Z</time>
      </trkpt>
      <trkpt lat="47.28192" lon="4.95433">
        <ele>453</ele>
        <time>2012-11-03T08:38:58Z</time>
      </trkpt>
      <trkpt lat="47.28198" lon="4.95442">
        <ele>455</ele>
        <time>2012-11-03T08:39:18Z</time>
      </trkpt>
      <trkpt lat="47.28204" lon="4.95456">
        <ele>458</ele>
        <time>2012-11-03T08:39:20Z</time>
      </trkpt>
      <trkpt lat="47.28211" lon="4.95468">
        <ele>455</ele>
        <time>2012-11-03T08:39:21Z</time>
      </trkpt>
      <trkpt lat="47.28215" lon="4.95475">
        <ele>453</ele>
        <time>2012-11-03T08:39:22Z</time>
      </trkpt>
      <trkpt lat="47.28219" lon="4.95481">
        <ele>450</ele>
        <time>2012-11-03T08:39:23Z</time>
      </trkpt>
      <trkpt lat="47.28224" lon="4.95487">
        <ele>446</ele>
        <time>2012-11-03T08:39:25Z</time>
      </trkpt>
      <trkpt lat="47.28225" lon="4.95494">
        <ele>443</ele>
        <time>2012-11-03T08:39:30Z</time>
      </trkpt>
      <trkpt lat="47.28225" lon="4.955">
        <ele>439</ele>
        <time>2012-11-03T08:39:34Z</time>
      </trkpt>
      <trkpt lat="47.28228" lon="4.95507">
        <ele>441</ele>
        <time>2012-11-03T08:40:17Z</time>
      </trkpt>
      <trkpt lat="47.2823" lon="4.95514">
        <ele>441</ele>
        <time>2012-11-03T08:40:22Z</time>
      </trkpt>
      <trkpt lat="47.28235" lon="4.9552">
        <ele>439</ele>
        <time>2012-11-03T08:40:26Z</time>
      </trkpt>
      <trkpt lat="47.28239" lon="4.95526">
        <ele>435</ele>
        <time>2012-11-03T08:40:30Z</time>
      </trkpt>
      <trkpt lat="47.28244" lon="4.95529">
        <ele>435</ele>
        <time>2012-11-03T08:40:34Z</time>
      </trkpt>
      <trkpt lat="47.28247" lon="4.95535">
        <ele>437</ele>
        <time>2012-11-03T08:40:36Z</time>
      </trkpt>
      <trkpt lat="47.28249" lon="4.95542">
        <ele>437</ele>
        <time>2012-11-03T08:40:38Z</time>
      </trkpt>
      <trkpt lat="47.28253" lon="4.95547">
        <ele>438</ele>
        <time>2012-11-03T08:40:41Z</time>
      </trkpt>
      <trkpt lat="47.28256" lon="4.95551">
        <ele>440</ele>
        <time>2012-11-03T08:40:44Z</time>
      </trkpt>
      <trkpt lat="47.28258" lon="4.95558">
        <ele>439</ele>
        <time>2012-11-03T08:40:49Z</time>
      </trkpt>
      <trkpt lat="47.2826" lon="4.95564">
        <ele>440</ele>
        <time>2012-11-03T08:40:52Z</time>
      </trkpt>
      <trkpt lat="47.28263" lon="4.95569">
        <ele>441</ele>
        <time>2012-11-03T08:40:57Z</time>
      </trkpt>
      <trkpt lat="47.28263" lon="4.95569">
        <ele>441</ele>
        <time>2012-11-03T08:40:57Z</time>
      </trkpt>
      <trkpt lat="47.28263" lon="4.95569">
        <ele>441</ele>
        <time>2012-11-03T08:40:59Z</time>
      </trkpt>
      <trkpt lat="47.28266" lon="4.95576">
        <ele>441</ele>
        <time>2012-11-03T08:41:00Z</time>
      </trkpt>
      <trkpt lat="47.28272" lon="4.9558">
        <ele>441</ele>
        <time>2012-11-03T08:41:03Z</time>
      </trkpt>
      <trkpt lat="47.28275" lon="4.95585">
        <ele>439</ele>
        <time>2012-11-03T08:41:05Z</time>
      </trkpt>
      <trkpt lat="47.2828" lon="4.95587">
        <ele>438</ele>
        <time>2012-11-03T08:41:08Z</time>
      </trkpt>
      <trkpt lat="47.28283" lon="4.95592">
        <ele>437</ele>
        <time>2012-11-03T08:41:10Z</time>
      </trkpt>
      <trkpt lat="47.28284" lon="4.95602">
        <ele>436</ele>
        <time>2012-11-03T08:41:14Z</time>
      </trkpt>
      <trkpt lat="47.28288" lon="4.95607">
        <ele>435</ele>
        <time>2012-11-03T08:41:16Z</time>
      </trkpt>
      <trkpt lat="47.28292" lon="4.95612">
        <ele>433</ele>
        <time>2012-11-03T08:41:20Z</time>
      </trkpt>
      <trkpt lat="47.28296" lon="4.95617">
        <ele>432</ele>
        <time>2012-11-03T08:41:23Z</time>
      </trkpt>
      <trkpt lat="47.28296" lon="4.95624">
        <ele>430</ele>
        <time>2012-11-03T08:41:26Z</time>
      </trkpt>
      <trkpt lat="47.28298" lon="4.95631">
        <ele>431</ele>
        <time>2012-11-03T08:41:28Z</time>
      </trkpt>
      <trkpt lat="47.28301" lon="4.95638">
        <ele>432</ele>
        <time>2012-11-03T08:41:31Z</time>
      </trkpt>
      <trkpt lat="47.28303" lon="4.95645">
        <ele>432</ele>
        <time>2012-11-03T08:41:34Z</time>
      </trkpt>
      <trkpt lat="47.28303" lon="4.95655">
        <ele>431</ele>
        <time>2012-11-03T08:41:37Z</time>
      </trkpt>
      <trkpt lat="47.28306" lon="4.95661">
        <ele>434</ele>
        <time>2012-11-03T08:41:40Z</time>
      </trkpt>
      <trkpt lat="47.28311" lon="4.95662">
        <ele>433</ele>
        <time>2012-11-03T08:41:43Z</time>
      </trkpt>
      <trkpt lat="47.28314" lon="4.95667">
        <ele>433</ele>
        <time>2012-11-03T08:41:49Z</time>
      </trkpt>
      <trkpt lat="47.2832" lon="4.95677">
        <ele>431</ele>
        <time>2012-11-03T08:42:00Z</time>
      </trkpt>
      <trkpt lat="47.28322" lon="4.95689">
        <ele>433</ele>
        <time>2012-11-03T08:42:02Z</time>
      </trkpt>
      <trkpt lat="47.28324" lon="4.95696">
        <ele>433</ele>
        <time>2012-11-03T08:42:03Z</time>
      </trkpt>
      <trkpt lat="47.28328" lon="4.95703">
        <ele>432</ele>
        <time>2012-11-03T08:42:04Z</time>
      </trkpt>
      <trkpt lat="47.28331" lon="4.95708">
        <ele>432</ele>
        <time>2012-11-03T08:42:06Z</time>
      </trkpt>
      <trkpt lat="47.28333" lon="4.95717">
        <ele>432</ele>
        <time>2012-11-03T08:42:08Z</time>
      </trkpt>
      <trkpt lat="47.28335" lon="4.95726">
        <ele>435</ele>
        <time>2012-11-03T08:42:11Z</time>
      </trkpt>
      <trkpt lat="47.28338" lon="4.95732">
        <ele>434</ele>
        <time>2012-11-03T08:42:13Z</time>
      </trkpt>
      <trkpt lat="47.28341" lon="4.95736">
        <ele>434</ele>
        <time>2012-11-03T08:42:15Z</time>
      </trkpt>
      <trkpt lat="47.28346" lon="4.95741">
        <ele>433</ele>
        <time>2012-11-03T08:42:17Z</time>
      </trkpt>
      <trkpt lat="47.28348" lon="4.95749">
        <ele>433</ele>
        <time>2012-11-03T08:42:21Z</time>
      </trkpt>
      <trkpt lat="47.28351" lon="4.95754">
        <ele>433</ele>
        <time>2012-11-03T08:42:23Z</time>
      </trkpt>
      <trkpt lat="47.28356" lon="4.95758">
        <ele>433</ele>
        <time>2012-11-03T08:42:25Z</time>
      </trkpt>
      <trkpt lat="47.2836" lon="4.95763">
        <ele>429</ele>
        <time>2012-11-03T08:42:30Z</time>
      </trkpt>
      <trkpt lat="47.28365" lon="4.95768">
        <ele>429</ele>
        <time>2012-11-03T08:42:33Z</time>
      </trkpt>
      <trkpt lat="47.28366" lon="4.95777">
        <ele>429</ele>
        <time>2012-11-03T08:42:36Z</time>
      </trkpt>
      <trkpt lat="47.28369" lon="4.95782">
        <ele>428</ele>
        <time>2012-11-03T08:42:39Z</time>
      </trkpt>
      <trkpt lat="47.28372" lon="4.95788">
        <ele>428</ele>
        <time>2012-11-03T08:42:41Z</time>
      </trkpt>
      <trkpt lat="47.28376" lon="4.95793">
        <ele>431</ele>
        <time>2012-11-03T08:42:44Z</time>
      </trkpt>
      <trkpt lat="47.28377" lon="4.958">
        <ele>431</ele>
        <time>2012-11-03T08:42:46Z</time>
      </trkpt>
      <trkpt lat="47.28382" lon="4.95807">
        <ele>432</ele>
        <time>2012-11-03T08:42:49Z</time>
      </trkpt>
      <trkpt lat="47.28384" lon="4.95813">
        <ele>434</ele>
        <time>2012-11-03T08:42:51Z</time>
      </trkpt>
      <trkpt lat="47.28385" lon="4.9582">
        <ele>434</ele>
        <time>2012-11-03T08:42:54Z</time>
      </trkpt>
      <trkpt lat="47.28387" lon="4.95827">
        <ele>434</ele>
        <time>2012-11-03T08:42:56Z</time>
      </trkpt>
      <trkpt lat="47.28391" lon="4.95834">
        <ele>435</ele>
        <time>2012-11-03T08:42:58Z</time>
      </trkpt>
      <trkpt lat="47.28393" lon="4.9584">
        <ele>432</ele>
        <time>2012-11-03T08:43:02Z</time>
      </trkpt>
      <trkpt lat="47.28396" lon="4.95846">
        <ele>433</ele>
        <time>2012-11-03T08:43:05Z</time>
      </trkpt>
      <trkpt lat="47.28398" lon="4.95853">
        <ele>432</ele>
        <time>2012-11-03T08:43:07Z</time>
      </trkpt>
      <trkpt lat="47.284" lon="4.95862">
        <ele>433</ele>
        <time>2012-11-03T08:43:10Z</time>
      </trkpt>
      <trkpt lat="47.28401" lon="4.95871">
        <ele>434</ele>
        <time>2012-11-03T08:43:15Z</time>
      </trkpt>
      <trkpt lat="47.28404" lon="4.9588">
        <ele>437</ele>
        <time>2012-11-03T08:43:18Z</time>
      </trkpt>
      <trkpt lat="47.28406" lon="4.95886">
        <ele>439</ele>
        <time>2012-11-03T08:43:20Z</time>
      </trkpt>
      <trkpt lat="47.28409" lon="4.95891">
        <ele>438</ele>
        <time>2012-11-03T08:43:22Z</time>
      </trkpt>
      <trkpt lat="47.28409" lon="4.95891">
        <ele>438</ele>
        <time>2012-11-03T08:43:22Z</time>
      </trkpt>
      <trkpt lat="47.28409" lon="4.95891">
        <ele>438</ele>
        <time>2012-11-03T08:43:23Z</time>
      </trkpt>
      <trkpt lat="47.28411" lon="4.95899">
        <ele>438</ele>
        <time>2012-11-03T08:43:25Z</time>
      </trkpt>
      <trkpt lat="47.28413" lon="4.95905">
        <ele>437</ele>
        <time>2012-11-03T08:43:28Z</time>
      </trkpt>
      <trkpt lat="47.28414" lon="4.95912">
        <ele>438</ele>
        <time>2012-11-03T08:43:31Z</time>
      </trkpt>
      <trkpt lat="47.28416" lon="4.95918">
        <ele>438</ele>
        <time>2012-11-03T08:43:34Z</time>
      </trkpt>
      <trkpt lat="47.28419" lon="4.95924">
        <ele>439</ele>
        <time>2012-11-03T08:43:39Z</time>
      </trkpt>
      <trkpt lat="47.2842" lon="4.95931">
        <ele>440</ele>
        <time>2012-11-03T08:43:42Z</time>
      </trkpt>
      <trkpt lat="47.28422" lon="4.9594">
        <ele>440</ele>
        <time>2012-11-03T08:43:45Z</time>
      </trkpt>
      <trkpt lat="47.28424" lon="4.95948">
        <ele>441</ele>
        <time>2012-11-03T08:43:47Z</time>
      </trkpt>
      <trkpt lat="47.28429" lon="4.95956">
        <ele>443</ele>
        <time>2012-11-03T08:43:50Z</time>
      </trkpt>
      <trkpt lat="47.28428" lon="4.95965">
        <ele>443</ele>
        <time>2012-11-03T08:43:53Z</time>
      </trkpt>
      <trkpt lat="47.28429" lon="4.95973">
        <ele>445</ele>
        <time>2012-11-03T08:43:56Z</time>
      </trkpt>
      <trkpt lat="47.2843" lon="4.95981">
        <ele>445</ele>
        <time>2012-11-03T08:43:58Z</time>
      </trkpt>
      <trkpt lat="47.28432" lon="4.9599">
        <ele>446</ele>
        <time>2012-11-03T08:44:01Z</time>
      </trkpt>
      <trkpt lat="47.28433" lon="4.95997">
        <ele>447</ele>
        <time>2012-11-03T08:44:03Z</time>
      </trkpt>
      <trkpt lat="47.28435" lon="4.96003">
        <ele>448</ele>
        <time>2012-11-03T08:44:07Z</time>
      </trkpt>
      <trkpt lat="47.28437" lon="4.9601">
        <ele>449</ele>
        <time>2012-11-03T08:44:09Z</time>
      </trkpt>
      <trkpt lat="47.2844" lon="4.96016">
        <ele>449</ele>
        <time>2012-11-03T08:44:11Z</time>
      </trkpt>
      <trkpt lat="47.28444" lon="4.96024">
        <ele>449</ele>
        <time>2012-11-03T08:44:13Z</time>
      </trkpt>
      <trkpt lat="47.28444" lon="4.96033">
        <ele>449</ele>
        <time>2012-11-03T08:44:15Z</time>
      </trkpt>
      <trkpt lat="47.28444" lon="4.96033">
        <ele>449</ele>
        <time>2012-11-03T08:44:15Z</time>
      </trkpt>
      <trkpt lat="47.28444" lon="4.96033">
        <ele>449</ele>
        <time>2012-11-03T08:44:16Z</time>
      </trkpt>
      <trkpt lat="47.28446" lon="4.96039">
        <ele>450</ele>
        <time>2012-11-03T08:44:18Z</time>
      </trkpt>
      <trkpt lat="47.28448" lon="4.96046">
        <ele>450</ele>
        <time>2012-11-03T08:44:20Z</time>
      </trkpt>
      <trkpt lat="47.2845" lon="4.96052">
        <ele>448</ele>
        <time>2012-11-03T08:44:22Z</time>
      </trkpt>
      <trkpt lat="47.28452" lon="4.96061">
        <ele>449</ele>
        <time>2012-11-03T08:44:25Z</time>
      </trkpt>
      <trkpt lat="47.28452" lon="4.96068">
        <ele>449</ele>
        <time>2012-11-03T08:44:27Z</time>
      </trkpt>
      <trkpt lat="47.28455" lon="4.96076">
        <ele>449</ele>
        <time>2012-11-03T08:44:30Z</time>
      </trkpt>
      <trkpt lat="47.28453" lon="4.96086">
        <ele>450</ele>
        <time>2012-11-03T08:44:33Z</time>
      </trkpt>
      <trkpt lat="47.28454" lon="4.96093">
        <ele>448</ele>
        <time>2012-11-03T08:44:36Z</time>
      </trkpt>
      <trkpt lat="47.28454" lon="4.96093">
        <ele>448</ele>
        <time>2012-11-03T08:44:36Z</time>
      </trkpt>
      <trkpt lat="47.28454" lon="4.96093">
        <ele>448</ele>
        <time>2012-11-03T08:44:37Z</time>
      </trkpt>
      <trkpt lat="47.28454" lon="4.961">
        <ele>447</ele>
        <time>2012-11-03T08:44:39Z</time>
      </trkpt>
      <trkpt lat="47.28454" lon="4.96111">
        <ele>446</ele>
        <time>2012-11-03T08:44:41Z</time>
      </trkpt>
      <trkpt lat="47.28457" lon="4.96118">
        <ele>445</ele>
        <time>2012-11-03T08:44:43Z</time>
      </trkpt>
      <trkpt lat="47.28456" lon="4.96124">
        <ele>443</ele>
        <time>2012-11-03T08:44:46Z</time>
      </trkpt>
      <trkpt lat="47.28451" lon="4.96128">
        <ele>442</ele>
        <time>2012-11-03T08:44:53Z</time>
      </trkpt>
      <trkpt lat="47.28448" lon="4.96135">
        <ele>435</ele>
        <time>2012-11-03T08:45:32Z</time>
      </trkpt>
      <trkpt lat="47.28444" lon="4.9614">
        <ele>432</ele>
        <time>2012-11-03T08:45:35Z</time>
      </trkpt>
      <trkpt lat="47.28444" lon="4.9614">
        <ele>432</ele>
        <time>2012-11-03T08:45:35Z</time>
      </trkpt>
      <trkpt lat="47.28444" lon="4.9614">
        <ele>432</ele>
        <time>2012-11-03T08:45:36Z</time>
      </trkpt>
      <trkpt lat="47.28441" lon="4.96146">
        <ele>430</ele>
        <time>2012-11-03T08:45:39Z</time>
      </trkpt>
      <trkpt lat="47.2844" lon="4.96154">
        <ele>430</ele>
        <time>2012-11-03T08:45:47Z</time>
      </trkpt>
      <trkpt lat="47.2844" lon="4.96154">
        <ele>430</ele>
        <time>2012-11-03T08:45:47Z</time>
      </trkpt>
      <trkpt lat="47.2844" lon="4.96154">
        <ele>430</ele>
        <time>2012-11-03T08:46:44Z</time>
      </trkpt>
      <trkpt lat="47.28444" lon="4.96158">
        <ele>423</ele>
        <time>2012-11-03T08:48:36Z</time>
      </trkpt>
      <trkpt lat="47.28445" lon="4.96165">
        <ele>421</ele>
        <time>2012-11-03T08:48:39Z</time>
      </trkpt>
      <trkpt lat="47.28446" lon="4.96172">
        <ele>421</ele>
        <time>2012-11-03T08:48:44Z</time>
      </trkpt>
      <trkpt lat="47.28445" lon="4.96179">
        <ele>418</ele>
        <time>2012-11-03T08:48:48Z</time>
      </trkpt>
      <trkpt lat="47.28445" lon="4.96187">
        <ele>416</ele>
        <time>2012-11-03T08:48:51Z</time>
      </trkpt>
      <trkpt lat="47.28442" lon="4.96194">
        <ele>412</ele>
        <time>2012-11-03T08:48:55Z</time>
      </trkpt>
      <trkpt lat="47.28439" lon="4.962">
        <ele>412</ele>
        <time>2012-11-03T08:48:59Z</time>
      </trkpt>
      <trkpt lat="47.28438" lon="4.96206">
        <ele>412</ele>
        <time>2012-11-03T08:49:02Z</time>
      </trkpt>
      <trkpt lat="47.28436" lon="4.96214">
        <ele>410</ele>
        <time>2012-11-03T08:49:04Z</time>
      </trkpt>
      <trkpt lat="47.28435" lon="4.96223">
        <ele>410</ele>
        <time>2012-11-03T08:49:07Z</time>
      </trkpt>
      <trkpt lat="47.28432" lon="4.96228">
        <ele>410</ele>
        <time>2012-11-03T08:49:10Z</time>
      </trkpt>
      <trkpt lat="47.28429" lon="4.96235">
        <ele>410</ele>
        <time>2012-11-03T08:49:13Z</time>
      </trkpt>
      <trkpt lat="47.28423" lon="4.9624">
        <ele>410</ele>
        <time>2012-11-03T08:49:17Z</time>
      </trkpt>
      <trkpt lat="47.28421" lon="4.96245">
        <ele>411</ele>
        <time>2012-11-03T08:49:21Z</time>
      </trkpt>
      <trkpt lat="47.28419" lon="4.96253">
        <ele>410</ele>
        <time>2012-11-03T08:49:24Z</time>
      </trkpt>
      <trkpt lat="47.28415" lon="4.96257">
        <ele>410</ele>
        <time>2012-11-03T08:49:27Z</time>
      </trkpt>
      <trkpt lat="47.28412" lon="4.96262">
        <ele>411</ele>
        <time>2012-11-03T08:49:32Z</time>
      </trkpt>
      <trkpt lat="47.28408" lon="4.96267">
        <ele>412</ele>
        <time>2012-11-03T08:49:36Z</time>
      </trkpt>
      <trkpt lat="47.28404" lon="4.96276">
        <ele>411</ele>
        <time>2012-11-03T08:49:39Z</time>
      </trkpt>
      <trkpt lat="47.28404" lon="4.96284">
        <ele>411</ele>
        <time>2012-11-03T08:49:42Z</time>
      </trkpt>
      <trkpt lat="47.28401" lon="4.96291">
        <ele>410</ele>
        <time>2012-11-03T08:49:44Z</time>
      </trkpt>
      <trkpt lat="47.28402" lon="4.963">
        <ele>410</ele>
        <time>2012-11-03T08:49:47Z</time>
      </trkpt>
      <trkpt lat="47.28404" lon="4.96308">
        <ele>411</ele>
        <time>2012-11-03T08:49:49Z</time>
      </trkpt>
      <trkpt lat="47.28404" lon="4.96317">
        <ele>411</ele>
        <time>2012-11-03T08:49:52Z</time>
      </trkpt>
      <trkpt lat="47.28401" lon="4.96323">
        <ele>412</ele>
        <time>2012-11-03T08:49:56Z</time>
      </trkpt>
      <trkpt lat="47.284" lon="4.9633">
        <ele>413</ele>
        <time>2012-11-03T08:49:59Z</time>
      </trkpt>
      <trkpt lat="47.28399" lon="4.9634">
        <ele>413</ele>
        <time>2012-11-03T08:50:02Z</time>
      </trkpt>
      <trkpt lat="47.28397" lon="4.96346">
        <ele>413</ele>
        <time>2012-11-03T08:50:04Z</time>
      </trkpt>
      <trkpt lat="47.28396" lon="4.96355">
        <ele>414</ele>
        <time>2012-11-03T08:50:08Z</time>
      </trkpt>
      <trkpt lat="47.28395" lon="4.96362">
        <ele>414</ele>
        <time>2012-11-03T08:50:11Z</time>
      </trkpt>
      <trkpt lat="47.28395" lon="4.96369">
        <ele>416</ele>
        <time>2012-11-03T08:50:19Z</time>
      </trkpt>
      <trkpt lat="47.28399" lon="4.96378">
        <ele>415</ele>
        <time>2012-11-03T08:50:23Z</time>
      </trkpt>
      <trkpt lat="47.28401" lon="4.96388">
        <ele>415</ele>
        <time>2012-11-03T08:50:25Z</time>
      </trkpt>
      <trkpt lat="47.28399" lon="4.96397">
        <ele>414</ele>
        <time>2012-11-03T08:50:27Z</time>
      </trkpt>
      <trkpt lat="47.28401" lon="4.96403">
        <ele>414</ele>
        <time>2012-11-03T08:50:28Z</time>
      </trkpt>
      <trkpt lat="47.28401" lon="4.96411">
        <ele>415</ele>
        <time>2012-11-03T08:50:30Z</time>
      </trkpt>
      <trkpt lat="47.28403" lon="4.96421">
        <ele>414</ele>
        <time>2012-11-03T08:50:32Z</time>
      </trkpt>
      <trkpt lat="47.28404" lon="4.96428">
        <ele>414</ele>
        <time>2012-11-03T08:50:34Z</time>
      </trkpt>
      <trkpt lat="47.28407" lon="4.96434">
        <ele>415</ele>
        <time>2012-11-03T08:50:36Z</time>
      </trkpt>
      <trkpt lat="47.28408" lon="4.96442">
        <ele>415</ele>
        <time>2012-11-03T08:50:39Z</time>
      </trkpt>
      <trkpt lat="47.28409" lon="4.96449">
        <ele>415</ele>
        <time>2012-11-03T08:50:41Z</time>
      </trkpt>
      <trkpt lat="47.28408" lon="4.96457">
        <ele>413</ele>
        <time>2012-11-03T08:50:46Z</time>
      </trkpt>
      <trkpt lat="47.28409" lon="4.96466">
        <ele>413</ele>
        <time>2012-11-03T08:50:49Z</time>
      </trkpt>
      <trkpt lat="47.28409" lon="4.96473">
        <ele>413</ele>
        <time>2012-11-03T08:50:51Z</time>
      </trkpt>
      <trkpt lat="47.28409" lon="4.96481">
        <ele>413</ele>
        <time>2012-11-03T08:50:54Z</time>
      </trkpt>
      <trkpt lat="47.28409" lon="4.96488">
        <ele>411</ele>
        <time>2012-11-03T08:50:57Z</time>
      </trkpt>
      <trkpt lat="47.2841" lon="4.96494">
        <ele>409</ele>
        <time>2012-11-03T08:50:59Z</time>
      </trkpt>
      <trkpt lat="47.28406" lon="4.96501">
        <ele>404</ele>
        <time>2012-11-03T08:51:03Z</time>
      </trkpt>
      <trkpt lat="47.28406" lon="4.9651">
        <ele>401</ele>
        <time>2012-11-03T08:51:05Z</time>
      </trkpt>
      <trkpt lat="47.28404" lon="4.96516">
        <ele>396</ele>
        <time>2012-11-03T08:51:06Z</time>
      </trkpt>
      <trkpt lat="47.28406" lon="4.96526">
        <ele>395</ele>
        <time>2012-11-03T08:51:12Z</time>
      </trkpt>
      <trkpt lat="47.28405" lon="4.96535">
        <ele>387</ele>
        <time>2012-11-03T08:51:21Z</time>
      </trkpt>
      <trkpt lat="47.28401" lon="4.9654">
        <ele>385</ele>
        <time>2012-11-03T08:51:28Z</time>
      </trkpt>
      <trkpt lat="47.28402" lon="4.9653">
        <ele>390</ele>
        <time>2012-11-03T08:51:51Z</time>
      </trkpt>
      <trkpt lat="47.28404" lon="4.96522">
        <ele>391</ele>
        <time>2012-11-03T08:51:55Z</time>
      </trkpt>
      <trkpt lat="47.28402" lon="4.96514">
        <ele>393</ele>
        <time>2012-11-03T08:52:00Z</time>
      </trkpt>
      <trkpt lat="47.28408" lon="4.96512">
        <ele>396</ele>
        <time>2012-11-03T08:52:04Z</time>
      </trkpt>
      <trkpt lat="47.28414" lon="4.96508">
        <ele>401</ele>
        <time>2012-11-03T08:52:12Z</time>
      </trkpt>
      <trkpt lat="47.28418" lon="4.96506">
        <ele>402</ele>
        <time>2012-11-03T08:52:16Z</time>
      </trkpt>
      <trkpt lat="47.28422" lon="4.96503">
        <ele>403</ele>
        <time>2012-11-03T08:52:21Z</time>
      </trkpt>
      <trkpt lat="47.28426" lon="4.965">
        <ele>403</ele>
        <time>2012-11-03T08:52:28Z</time>
      </trkpt>
      <trkpt lat="47.28431" lon="4.96497">
        <ele>403</ele>
        <time>2012-11-03T08:52:36Z</time>
      </trkpt>
      <trkpt lat="47.28436" lon="4.96494">
        <ele>402</ele>
        <time>2012-11-03T08:52:39Z</time>
      </trkpt>
      <trkpt lat="47.28441" lon="4.96494">
        <ele>402</ele>
        <time>2012-11-03T08:52:47Z</time>
      </trkpt>
      <trkpt lat="47.28446" lon="4.96491">
        <ele>401</ele>
        <time>2012-11-03T08:52:57Z</time>
      </trkpt>
      <trkpt lat="47.28451" lon="4.96491">
        <ele>402</ele>
        <time>2012-11-03T08:53:04Z</time>
      </trkpt>
      <trkpt lat="47.28456" lon="4.9649">
        <ele>402</ele>
        <time>2012-11-03T08:53:12Z</time>
      </trkpt>
      <trkpt lat="47.28462" lon="4.96488">
        <ele>403</ele>
        <time>2012-11-03T08:53:19Z</time>
      </trkpt>
      <trkpt lat="47.28468" lon="4.96485">
        <ele>405</ele>
        <time>2012-11-03T08:53:26Z</time>
      </trkpt>
      <trkpt lat="47.28476" lon="4.96482">
        <ele>407</ele>
        <time>2012-11-03T08:53:30Z</time>
      </trkpt>
      <trkpt lat="47.28481" lon="4.96479">
        <ele>407</ele>
        <time>2012-11-03T08:53:33Z</time>
      </trkpt>
      <trkpt lat="47.28486" lon="4.96478">
        <ele>408</ele>
        <time>2012-11-03T08:53:41Z</time>
      </trkpt>
      <trkpt lat="47.28491" lon="4.96476">
        <ele>411</ele>
        <time>2012-11-03T08:53:49Z</time>
      </trkpt>
      <trkpt lat="47.28496" lon="4.96474">
        <ele>413</ele>
        <time>2012-11-03T08:54:01Z</time>
      </trkpt>
      <trkpt lat="47.28501" lon="4.96472">
        <ele>413</ele>
        <time>2012-11-03T08:54:03Z</time>
      </trkpt>
      <trkpt lat="47.28506" lon="4.96471">
        <ele>415</ele>
        <time>2012-11-03T08:54:05Z</time>
      </trkpt>
      <trkpt lat="47.28514" lon="4.96469">
        <ele>416</ele>
        <time>2012-11-03T08:54:07Z</time>
      </trkpt>
      <trkpt lat="47.28519" lon="4.96468">
        <ele>417</ele>
        <time>2012-11-03T08:54:09Z</time>
      </trkpt>
      <trkpt lat="47.28524" lon="4.96466">
        <ele>420</ele>
        <time>2012-11-03T08:54:18Z</time>
      </trkpt>
      <trkpt lat="47.2853" lon="4.96465">
        <ele>422</ele>
        <time>2012-11-03T08:54:20Z</time>
      </trkpt>
      <trkpt lat="47.28535" lon="4.96465">
        <ele>424</ele>
        <time>2012-11-03T08:54:23Z</time>
      </trkpt>
      <trkpt lat="47.2854" lon="4.96463">
        <ele>429</ele>
        <time>2012-11-03T08:54:29Z</time>
      </trkpt>
      <trkpt lat="47.28545" lon="4.96463">
        <ele>429</ele>
        <time>2012-11-03T08:54:37Z</time>
      </trkpt>
      <trkpt lat="47.2855" lon="4.96462">
        <ele>431</ele>
        <time>2012-11-03T08:54:44Z</time>
      </trkpt>
      <trkpt lat="47.28557" lon="4.96463">
        <ele>431</ele>
        <time>2012-11-03T08:54:54Z</time>
      </trkpt>
      <trkpt lat="47.28567" lon="4.96465">
        <ele>432</ele>
        <time>2012-11-03T08:54:56Z</time>
      </trkpt>
      <trkpt lat="47.28572" lon="4.96464">
        <ele>434</ele>
        <time>2012-11-03T08:54:58Z</time>
      </trkpt>
      <trkpt lat="47.28577" lon="4.96464">
        <ele>433</ele>
        <time>2012-11-03T08:55:01Z</time>
      </trkpt>
      <trkpt lat="47.28583" lon="4.96466">
        <ele>434</ele>
        <time>2012-11-03T08:55:04Z</time>
      </trkpt>
      <trkpt lat="47.2859" lon="4.96465">
        <ele>435</ele>
        <time>2012-11-03T08:55:08Z</time>
      </trkpt>
      <trkpt lat="47.28595" lon="4.96465">
        <ele>437</ele>
        <time>2012-11-03T08:55:17Z</time>
      </trkpt>
      <trkpt lat="47.286" lon="4.96463">
        <ele>439</ele>
        <time>2012-11-03T08:55:22Z</time>
      </trkpt>
      <trkpt lat="47.28605" lon="4.96464">
        <ele>441</ele>
        <time>2012-11-03T08:55:30Z</time>
      </trkpt>
      <trkpt lat="47.28613" lon="4.96466">
        <ele>443</ele>
        <time>2012-11-03T08:55:35Z</time>
      </trkpt>
      <trkpt lat="47.28618" lon="4.96469">
        <ele>445</ele>
        <time>2012-11-03T08:55:37Z</time>
      </trkpt>
      <trkpt lat="47.28626" lon="4.96469">
        <ele>448</ele>
        <time>2012-11-03T08:55:42Z</time>
      </trkpt>
      <trkpt lat="47.28632" lon="4.96472">
        <ele>451</ele>
        <time>2012-11-03T08:55:45Z</time>
      </trkpt>
      <trkpt lat="47.28637" lon="4.96474">
        <ele>451</ele>
        <time>2012-11-03T08:55:49Z</time>
      </trkpt>
      <trkpt lat="47.28643" lon="4.96474">
        <ele>452</ele>
        <time>2012-11-03T08:55:53Z</time>
      </trkpt>
      <trkpt lat="47.28649" lon="4.96473">
        <ele>451</ele>
        <time>2012-11-03T08:56:01Z</time>
      </trkpt>
      <trkpt lat="47.28653" lon="4.96476">
        <ele>452</ele>
        <time>2012-11-03T08:56:08Z</time>
      </trkpt>
      <trkpt lat="47.28658" lon="4.96478">
        <ele>453</ele>
        <time>2012-11-03T08:56:10Z</time>
      </trkpt>
      <trkpt lat="47.28662" lon="4.96485">
        <ele>452</ele>
        <time>2012-11-03T08:56:13Z</time>
      </trkpt>
      <trkpt lat="47.28667" lon="4.96487">
        <ele>454</ele>
        <time>2012-11-03T08:56:20Z</time>
      </trkpt>
      <trkpt lat="47.28672" lon="4.96484">
        <ele>456</ele>
        <time>2012-11-03T08:56:30Z</time>
      </trkpt>
      <trkpt lat="47.28674" lon="4.96478">
        <ele>462</ele>
        <time>2012-11-03T08:56:37Z</time>
      </trkpt>
      <trkpt lat="47.28679" lon="4.96475">
        <ele>465</ele>
        <time>2012-11-03T08:56:51Z</time>
      </trkpt>
      <trkpt lat="47.28678" lon="4.96468">
        <ele>464</ele>
        <time>2012-11-03T08:57:04Z</time>
      </trkpt>
      <trkpt lat="47.28682" lon="4.96462">
        <ele>464</ele>
        <time>2012-11-03T08:57:07Z</time>
      </trkpt>
      <trkpt lat="47.28686" lon="4.96455">
        <ele>465</ele>
        <time>2012-11-03T08:57:13Z</time>
      </trkpt>
      <trkpt lat="47.28692" lon="4.96453">
        <ele>467</ele>
        <time>2012-11-03T08:57:20Z</time>
      </trkpt>
      <trkpt lat="47.28696" lon="4.9645">
        <ele>469</ele>
        <time>2012-11-03T08:57:29Z</time>
      </trkpt>
      <trkpt lat="47.28696" lon="4.9645">
        <ele>469</ele>
        <time>2012-11-03T08:57:29Z</time>
      </trkpt>
      <trkpt lat="47.28696" lon="4.9645">
        <ele>469</ele>
        <time>2012-11-03T08:57:30Z</time>
      </trkpt>
      <trkpt lat="47.287" lon="4.96445">
        <ele>469</ele>
        <time>2012-11-03T08:57:32Z</time>
      </trkpt>
      <trkpt lat="47.28703" lon="4.96441">
        <ele>471</ele>
        <time>2012-11-03T08:57:36Z</time>
      </trkpt>
      <trkpt lat="47.28706" lon="4.96434">
        <ele>476</ele>
        <time>2012-11-03T08:57:42Z</time>
      </trkpt>
      <trkpt lat="47.28706" lon="4.96427">
        <ele>477</ele>
        <time>2012-11-03T08:57:48Z</time>
      </trkpt>
      <trkpt lat="47.2871" lon="4.96423">
        <ele>478</ele>
        <time>2012-11-03T08:57:53Z</time>
      </trkpt>
      <trkpt lat="47.28715" lon="4.96416">
        <ele>476</ele>
        <time>2012-11-03T08:57:57Z</time>
      </trkpt>
      <trkpt lat="47.2872" lon="4.96416">
        <ele>469</ele>
        <time>2012-11-03T08:58:19Z</time>
      </trkpt>
      <trkpt lat="47.2872" lon="4.96416">
        <ele>469</ele>
        <time>2012-11-03T08:58:19Z</time>
      </trkpt>
      <trkpt lat="47.2872" lon="4.96416">
        <ele>469</ele>
        <time>2012-11-03T08:58:21Z</time>
      </trkpt>
      <trkpt lat="47.28725" lon="4.96417">
        <ele>470</ele>
        <time>2012-11-03T08:58:42Z</time>
      </trkpt>
      <trkpt lat="47.2873" lon="4.96415">
        <ele>472</ele>
        <time>2012-11-03T08:58:46Z</time>
      </trkpt>
      <trkpt lat="47.28734" lon="4.96415">
        <ele>477</ele>
        <time>2012-11-03T08:58:54Z</time>
      </trkpt>
      <trkpt lat="47.28734" lon="4.96415">
        <ele>477</ele>
        <time>2012-11-03T08:58:54Z</time>
      </trkpt>
      <trkpt lat="47.28734" lon="4.96415">
        <ele>477</ele>
        <time>2012-11-03T08:58:55Z</time>
      </trkpt>
      <trkpt lat="47.28739" lon="4.96415">
        <ele>480</ele>
        <time>2012-11-03T08:58:59Z</time>
      </trkpt>
      <trkpt lat="47.28742" lon="4.96422">
        <ele>478</ele>
        <time>2012-11-03T08:59:11Z</time>
      </trkpt>
      <trkpt lat="47.28742" lon="4.96422">
        <ele>478</ele>
        <time>2012-11-03T08:59:11Z</time>
      </trkpt>
      <trkpt lat="47.28742" lon="4.96422">
        <ele>478</ele>
        <time>2012-11-03T08:59:12Z</time>
      </trkpt>
      <trkpt lat="47.28747" lon="4.96421">
        <ele>480</ele>
        <time>2012-11-03T09:00:24Z</time>
      </trkpt>
      <trkpt lat="47.28752" lon="4.96423">
        <ele>480</ele>
        <time>2012-11-03T09:01:22Z</time>
      </trkpt>
      <trkpt lat="47.28746" lon="4.9642">
        <ele>480</ele>
        <time>2012-11-03T09:01:35Z</time>
      </trkpt>
      <trkpt lat="47.28747" lon="4.96427">
        <ele>486</ele>
        <time>2012-11-03T09:03:33Z</time>
      </trkpt>
      <trkpt lat="47.28747" lon="4.96427">
        <ele>486</ele>
        <time>2012-11-03T09:03:33Z</time>
      </trkpt>
      <trkpt lat="47.28747" lon="4.96427">
        <ele>486</ele>
        <time>2012-11-03T09:03:34Z</time>
      </trkpt>
      <trkpt lat="47.28746" lon="4.9642">
        <ele>490</ele>
        <time>2012-11-03T09:04:03Z</time>
      </trkpt>
      <trkpt lat="47.28746" lon="4.9642">
        <ele>490</ele>
        <time>2012-11-03T09:04:03Z</time>
      </trkpt>
      <trkpt lat="47.28746" lon="4.9642">
        <ele>489</ele>
        <time>2012-11-03T09:04:06Z</time>
      </trkpt>
      <trkpt lat="47.2875" lon="4.96423">
        <ele>485</ele>
        <time>2012-11-03T09:04:17Z</time>
      </trkpt>
      <trkpt lat="47.28754" lon="4.96426">
        <ele>484</ele>
        <time>2012-11-03T09:04:31Z</time>
      </trkpt>
      <trkpt lat="47.2875" lon="4.96429">
        <ele>483</ele>
        <time>2012-11-03T09:04:36Z</time>
      </trkpt>
      <trkpt lat="47.2875" lon="4.96429">
        <ele>483</ele>
        <time>2012-11-03T09:04:36Z</time>
      </trkpt>
      <trkpt lat="47.2875" lon="4.96429">
        <ele>483</ele>
        <time>2012-11-03T09:04:39Z</time>
      </trkpt>
      <trkpt lat="47.28755" lon="4.96433">
        <ele>480</ele>
        <time>2012-11-03T09:04:58Z</time>
      </trkpt>
      <trkpt lat="47.28755" lon="4.96433">
        <ele>480</ele>
        <time>2012-11-03T09:04:58Z</time>
      </trkpt>
      <trkpt lat="47.28755" lon="4.96433">
        <ele>480</ele>
        <time>2012-11-03T09:04:59Z</time>
      </trkpt>
      <trkpt lat="47.28749" lon="4.96431">
        <ele>477</ele>
        <time>2012-11-03T09:05:28Z</time>
      </trkpt>
      <trkpt lat="47.28741" lon="4.96431">
        <ele>479</ele>
        <time>2012-11-03T09:05:50Z</time>
      </trkpt>
      <trkpt lat="47.28746" lon="4.96431">
        <ele>485</ele>
        <time>2012-11-03T09:06:00Z</time>
      </trkpt>
      <trkpt lat="47.28748" lon="4.96437">
        <ele>484</ele>
        <time>2012-11-03T09:06:05Z</time>
      </trkpt>
      <trkpt lat="47.28747" lon="4.96445">
        <ele>483</ele>
        <time>2012-11-03T09:06:09Z</time>
      </trkpt>
      <trkpt lat="47.28746" lon="4.96452">
        <ele>482</ele>
        <time>2012-11-03T09:06:12Z</time>
      </trkpt>
      <trkpt lat="47.28745" lon="4.96459">
        <ele>479</ele>
        <time>2012-11-03T09:06:15Z</time>
      </trkpt>
      <trkpt lat="47.28742" lon="4.96467">
        <ele>478</ele>
        <time>2012-11-03T09:06:19Z</time>
      </trkpt>
      <trkpt lat="47.28742" lon="4.96474">
        <ele>479</ele>
        <time>2012-11-03T09:06:23Z</time>
      </trkpt>
      <trkpt lat="47.28743" lon="4.96482">
        <ele>479</ele>
        <time>2012-11-03T09:06:27Z</time>
      </trkpt>
      <trkpt lat="47.28744" lon="4.9649">
        <ele>483</ele>
        <time>2012-11-03T09:06:33Z</time>
      </trkpt>
      <trkpt lat="47.28745" lon="4.96498">
        <ele>484</ele>
        <time>2012-11-03T09:06:37Z</time>
      </trkpt>
      <trkpt lat="47.28743" lon="4.96504">
        <ele>486</ele>
        <time>2012-11-03T09:06:43Z</time>
      </trkpt>
      <trkpt lat="47.28743" lon="4.96513">
        <ele>486</ele>
        <time>2012-11-03T09:06:46Z</time>
      </trkpt>
      <trkpt lat="47.28744" lon="4.96521">
        <ele>484</ele>
        <time>2012-11-03T09:06:49Z</time>
      </trkpt>
      <trkpt lat="47.28741" lon="4.96528">
        <ele>483</ele>
        <time>2012-11-03T09:06:53Z</time>
      </trkpt>
      <trkpt lat="47.28739" lon="4.96535">
        <ele>482</ele>
        <time>2012-11-03T09:06:57Z</time>
      </trkpt>
      <trkpt lat="47.28736" lon="4.96543">
        <ele>480</ele>
        <time>2012-11-03T09:07:01Z</time>
      </trkpt>
      <trkpt lat="47.28734" lon="4.9655">
        <ele>481</ele>
        <time>2012-11-03T09:07:05Z</time>
      </trkpt>
      <trkpt lat="47.28733" lon="4.96557">
        <ele>479</ele>
        <time>2012-11-03T09:07:09Z</time>
      </trkpt>
      <trkpt lat="47.2873" lon="4.96564">
        <ele>479</ele>
        <time>2012-11-03T09:07:14Z</time>
      </trkpt>
      <trkpt lat="47.28728" lon="4.96572">
        <ele>477</ele>
        <time>2012-11-03T09:07:18Z</time>
      </trkpt>
      <trkpt lat="47.28727" lon="4.96578">
        <ele>474</ele>
        <time>2012-11-03T09:07:22Z</time>
      </trkpt>
      <trkpt lat="47.28723" lon="4.96584">
        <ele>475</ele>
        <time>2012-11-03T09:07:26Z</time>
      </trkpt>
      <trkpt lat="47.28719" lon="4.96589">
        <ele>476</ele>
        <time>2012-11-03T09:07:31Z</time>
      </trkpt>
      <trkpt lat="47.28717" lon="4.96597">
        <ele>474</ele>
        <time>2012-11-03T09:07:36Z</time>
      </trkpt>
      <trkpt lat="47.28715" lon="4.96603">
        <ele>473</ele>
        <time>2012-11-03T09:08:13Z</time>
      </trkpt>
      <trkpt lat="47.28712" lon="4.96609">
        <ele>472</ele>
        <time>2012-11-03T09:08:45Z</time>
      </trkpt>
      <trkpt lat="47.28712" lon="4.96616">
        <ele>474</ele>
        <time>2012-11-03T09:10:06Z</time>
      </trkpt>
      <trkpt lat="47.28712" lon="4.96616">
        <ele>474</ele>
        <time>2012-11-03T09:10:06Z</time>
      </trkpt>
      <trkpt lat="47.28712" lon="4.96616">
        <ele>475</ele>
        <time>2012-11-03T09:10:07Z</time>
      </trkpt>
      <trkpt lat="47.28714" lon="4.96609">
        <ele>470</ele>
        <time>2012-11-03T09:11:58Z</time>
      </trkpt>
      <trkpt lat="47.2871" lon="4.96613">
        <ele>475</ele>
        <time>2012-11-03T09:12:56Z</time>
      </trkpt>
      <trkpt lat="47.2871" lon="4.96613">
        <ele>475</ele>
        <time>2012-11-03T09:12:56Z</time>
      </trkpt>
    </trkseg>
  </trk>
</gpx>